Mississippi River (Missouri), Grafton (05587450)

StateMissouriLatestUnknown (88700 cfs)
RiverMississippi RiverRatingObservedEstimated
Updated2021-01-24 9:00 (34 minutes ago)Flood - The river is flooding. Obstacles can be treacherous or deadly. The river should be avoided at this stage for casual trips and definitely for the inexperienced. Trips should be attempted only with protective gear and equipment.Flood(none)(none)
Discharge88700 cfs (median: 78900 cfs)High - The river is high and potentially dangerous, especially for the young and / or inexperienced. Normal stream obstacles are sometimes difficult to navigate. Extended distances can be attempted, but canoe travel may not be advisable.High(none)(none)
Height15.78 feetGood - Conditions are ideal for a canoe or kayak. Boats typically will drag on fewer than one-quarter of riffles, if at all, and portages are unnecessary or rare. Normal float lengths can be attempted without a problem.Good(none)(none)
TrendFalling (falling over 24 hours)Low - River is low but can still be floated. Some riffles are okay but most come with significant dragging and might need a portage. Float lengths should be reduced to accommodate low flow, dragging, and portages.Low(none)(none)
USGSExternal icon USGS Site (External icon Google Maps)Poor - River is too low to float comfortably. Most or all riffles will drag or must be portaged and some obstacles (such as slick shelf rock) cause undue problems. Avoid the river at this stage for casual paddling trips.Poor(none)(none)

Trending Data

Plot Image

Trips for Mississippi River (Missouri), Grafton (05587450)

DateStartEndDistanceConditionDischargeHeightFishingDetails

A total of 0 rows are displayed.

Condition Descriptions

Fishing Conditions

Fish Species

Notes

Classic Trip List

The classic River Trips application is still available for use. It is updated with the new system using a data retrofit. It is no longer maintained. The original River Trips application is no longer updated (as of 1 Dec 2016) but can be checked for errors or for the condition of the data before it was converted to the new system.

Gauge Data Table

ObservationHeightDischargeMaximum
Discharge
Minimum
Discharge
Mean
Discharge
P05P10P20P25P50
(Median)
P75P80P90P95
2021-01-24 09:00 15.78 88700 218000 (2017) 31000 (1990) 88100 31800 34300 43600 46600 78900 115000 138000 166000 196000
2021-01-24 08:30 15.79 89300 218000 (2017) 31000 (1990) 88100 31800 34300 43600 46600 78900 115000 138000 166000 196000
2021-01-24 08:00 15.78 88700 218000 (2017) 31000 (1990) 88100 31800 34300 43600 46600 78900 115000 138000 166000 196000
2021-01-24 07:30 15.80 90600 218000 (2017) 31000 (1990) 88100 31800 34300 43600 46600 78900 115000 138000 166000 196000
2021-01-24 07:00 15.80 90000 218000 (2017) 31000 (1990) 88100 31800 34300 43600 46600 78900 115000 138000 166000 196000
2021-01-24 06:30 15.80 89400 218000 (2017) 31000 (1990) 88100 31800 34300 43600 46600 78900 115000 138000 166000 196000
2021-01-24 06:00 15.79 88700 218000 (2017) 31000 (1990) 88100 31800 34300 43600 46600 78900 115000 138000 166000 196000
2021-01-24 05:30 15.80 88800 218000 (2017) 31000 (1990) 88100 31800 34300 43600 46600 78900 115000 138000 166000 196000
2021-01-24 05:00 15.81 89500 218000 (2017) 31000 (1990) 88100 31800 34300 43600 46600 78900 115000 138000 166000 196000
2021-01-24 04:30 15.81 89500 218000 (2017) 31000 (1990) 88100 31800 34300 43600 46600 78900 115000 138000 166000 196000
2021-01-24 04:00 15.81 88900 218000 (2017) 31000 (1990) 88100 31800 34300 43600 46600 78900 115000 138000 166000 196000
2021-01-24 03:30 15.80 218000 (2017) 31000 (1990) 88100 31800 34300 43600 46600 78900 115000 138000 166000 196000
2021-01-24 03:00 15.81 218000 (2017) 31000 (1990) 88100 31800 34300 43600 46600 78900 115000 138000 166000 196000
2021-01-24 02:30 15.82 90700 218000 (2017) 31000 (1990) 88100 31800 34300 43600 46600 78900 115000 138000 166000 196000
2021-01-24 02:00 15.81 90700 218000 (2017) 31000 (1990) 88100 31800 34300 43600 46600 78900 115000 138000 166000 196000
2021-01-24 01:30 15.83 92000 218000 (2017) 31000 (1990) 88100 31800 34300 43600 46600 78900 115000 138000 166000 196000
2021-01-24 01:00 15.82 218000 (2017) 31000 (1990) 88100 31800 34300 43600 46600 78900 115000 138000 166000 196000
2021-01-24 00:30 15.83 92000 218000 (2017) 31000 (1990) 88100 31800 34300 43600 46600 78900 115000 138000 166000 196000
2021-01-24 00:00 15.83 92000 218000 (2017) 31000 (1990) 88100 31800 34300 43600 46600 78900 115000 138000 166000 196000
2021-01-23 23:30 15.85 93300 215000 (2017) 31200 (1990) 86300 31400 33800 47500 49300 75400 111000 129000 150000 174000
2021-01-23 23:00 15.87 94000 215000 (2017) 31200 (1990) 86300 31400 33800 47500 49300 75400 111000 129000 150000 174000
2021-01-23 22:30 15.85 215000 (2017) 31200 (1990) 86300 31400 33800 47500 49300 75400 111000 129000 150000 174000
2021-01-23 22:00 15.87 93400 215000 (2017) 31200 (1990) 86300 31400 33800 47500 49300 75400 111000 129000 150000 174000
2021-01-23 21:30 15.88 94100 215000 (2017) 31200 (1990) 86300 31400 33800 47500 49300 75400 111000 129000 150000 174000
2021-01-23 21:00 15.89 94800 215000 (2017) 31200 (1990) 86300 31400 33800 47500 49300 75400 111000 129000 150000 174000
2021-01-23 20:30 15.89 94200 215000 (2017) 31200 (1990) 86300 31400 33800 47500 49300 75400 111000 129000 150000 174000
2021-01-23 20:00 15.88 92900 215000 (2017) 31200 (1990) 86300 31400 33800 47500 49300 75400 111000 129000 150000 174000
2021-01-23 19:30 15.89 93000 215000 (2017) 31200 (1990) 86300 31400 33800 47500 49300 75400 111000 129000 150000 174000
2021-01-23 19:00 15.90 94200 215000 (2017) 31200 (1990) 86300 31400 33800 47500 49300 75400 111000 129000 150000 174000
2021-01-23 18:30 15.89 94200 215000 (2017) 31200 (1990) 86300 31400 33800 47500 49300 75400 111000 129000 150000 174000
2021-01-23 18:00 15.90 93600 215000 (2017) 31200 (1990) 86300 31400 33800 47500 49300 75400 111000 129000 150000 174000
2021-01-23 17:30 15.90 93600 215000 (2017) 31200 (1990) 86300 31400 33800 47500 49300 75400 111000 129000 150000 174000
2021-01-23 17:00 15.92 94400 215000 (2017) 31200 (1990) 86300 31400 33800 47500 49300 75400 111000 129000 150000 174000
2021-01-23 16:30 15.89 215000 (2017) 31200 (1990) 86300 31400 33800 47500 49300 75400 111000 129000 150000 174000
2021-01-23 16:00 15.91 93700 215000 (2017) 31200 (1990) 86300 31400 33800 47500 49300 75400 111000 129000 150000 174000
2021-01-23 15:30 15.90 93000 215000 (2017) 31200 (1990) 86300 31400 33800 47500 49300 75400 111000 129000 150000 174000
2021-01-23 15:00 15.93 215000 (2017) 31200 (1990) 86300 31400 33800 47500 49300 75400 111000 129000 150000 174000
2021-01-23 14:30 15.91 92500 215000 (2017) 31200 (1990) 86300 31400 33800 47500 49300 75400 111000 129000 150000 174000
2021-01-23 14:00 15.91 215000 (2017) 31200 (1990) 86300 31400 33800 47500 49300 75400 111000 129000 150000 174000
2021-01-23 13:30 15.91 91900 215000 (2017) 31200 (1990) 86300 31400 33800 47500 49300 75400 111000 129000 150000 174000
2021-01-23 13:00 15.90 91800 215000 (2017) 31200 (1990) 86300 31400 33800 47500 49300 75400 111000 129000 150000 174000
2021-01-23 12:30 15.87 215000 (2017) 31200 (1990) 86300 31400 33800 47500 49300 75400 111000 129000 150000 174000
2021-01-23 12:00 15.87 215000 (2017) 31200 (1990) 86300 31400 33800 47500 49300 75400 111000 129000 150000 174000
2021-01-23 11:30 15.90 93000 215000 (2017) 31200 (1990) 86300 31400 33800 47500 49300 75400 111000 129000 150000 174000
2021-01-23 11:00 15.92 93800 215000 (2017) 31200 (1990) 86300 31400 33800 47500 49300 75400 111000 129000 150000 174000
2021-01-23 10:30 15.93 92600 215000 (2017) 31200 (1990) 86300 31400 33800 47500 49300 75400 111000 129000 150000 174000
2021-01-23 10:00 15.94 92700 215000 (2017) 31200 (1990) 86300 31400 33800 47500 49300 75400 111000 129000 150000 174000
2021-01-23 09:30 15.96 215000 (2017) 31200 (1990) 86300 31400 33800 47500 49300 75400 111000 129000 150000 174000
2021-01-23 09:00 15.96 92200 215000 (2017) 31200 (1990) 86300 31400 33800 47500 49300 75400 111000 129000 150000 174000
2021-01-23 08:30 15.97 91700 215000 (2017) 31200 (1990) 86300 31400 33800 47500 49300 75400 111000 129000 150000 174000
2021-01-23 08:00 15.98 91800 215000 (2017) 31200 (1990) 86300 31400 33800 47500 49300 75400 111000 129000 150000 174000
2021-01-23 07:30 15.99 91800 215000 (2017) 31200 (1990) 86300 31400 33800 47500 49300 75400 111000 129000 150000 174000
2021-01-23 07:00 16.00 91900 215000 (2017) 31200 (1990) 86300 31400 33800 47500 49300 75400 111000 129000 150000 174000
2021-01-23 06:30 16.00 90700 215000 (2017) 31200 (1990) 86300 31400 33800 47500 49300 75400 111000 129000 150000 174000
2021-01-23 06:00 16.01 91300 215000 (2017) 31200 (1990) 86300 31400 33800 47500 49300 75400 111000 129000 150000 174000
2021-01-23 05:30 16.02 91200 215000 (2017) 31200 (1990) 86300 31400 33800 47500 49300 75400 111000 129000 150000 174000
2021-01-23 05:00 16.04 91800 215000 (2017) 31200 (1990) 86300 31400 33800 47500 49300 75400 111000 129000 150000 174000
2021-01-23 04:30 16.03 90600 215000 (2017) 31200 (1990) 86300 31400 33800 47500 49300 75400 111000 129000 150000 174000
2021-01-23 04:00 16.03 90000 215000 (2017) 31200 (1990) 86300 31400 33800 47500 49300 75400 111000 129000 150000 174000
2021-01-23 03:30 16.05 91200 215000 (2017) 31200 (1990) 86300 31400 33800 47500 49300 75400 111000 129000 150000 174000
2021-01-23 03:00 16.05 90600 215000 (2017) 31200 (1990) 86300 31400 33800 47500 49300 75400 111000 129000 150000 174000
2021-01-23 02:30 16.07 91100 215000 (2017) 31200 (1990) 86300 31400 33800 47500 49300 75400 111000 129000 150000 174000
2021-01-23 02:00 16.07 91100 215000 (2017) 31200 (1990) 86300 31400 33800 47500 49300 75400 111000 129000 150000 174000
2021-01-23 01:30 16.07 91100 215000 (2017) 31200 (1990) 86300 31400 33800 47500 49300 75400 111000 129000 150000 174000
2021-01-23 01:00 16.08 91700 215000 (2017) 31200 (1990) 86300 31400 33800 47500 49300 75400 111000 129000 150000 174000
2021-01-23 00:30 16.07 91100 215000 (2017) 31200 (1990) 86300 31400 33800 47500 49300 75400 111000 129000 150000 174000
2021-01-23 00:00 16.07 91100 215000 (2017) 31200 (1990) 86300 31400 33800 47500 49300 75400 111000 129000 150000 174000
2021-01-22 23:30 16.07 90500 188000 (2016) 33700 (2013) 83400 34800 37800 41000 46700 74300 104000 113000 146000 187000
2021-01-22 23:00 16.07 90500 188000 (2016) 33700 (2013) 83400 34800 37800 41000 46700 74300 104000 113000 146000 187000
2021-01-22 22:30 16.09 91700 188000 (2016) 33700 (2013) 83400 34800 37800 41000 46700 74300 104000 113000 146000 187000
2021-01-22 22:00 16.10 188000 (2016) 33700 (2013) 83400 34800 37800 41000 46700 74300 104000 113000 146000 187000
2021-01-22 21:30 16.08 90500 188000 (2016) 33700 (2013) 83400 34800 37800 41000 46700 74300 104000 113000 146000 187000
2021-01-22 21:00 16.07 89900 188000 (2016) 33700 (2013) 83400 34800 37800 41000 46700 74300 104000 113000 146000 187000
2021-01-22 20:30 16.07 89300 188000 (2016) 33700 (2013) 83400 34800 37800 41000 46700 74300 104000 113000 146000 187000
2021-01-22 20:00 16.08 89900 188000 (2016) 33700 (2013) 83400 34800 37800 41000 46700 74300 104000 113000 146000 187000
2021-01-22 19:30 16.08 89900 188000 (2016) 33700 (2013) 83400 34800 37800 41000 46700 74300 104000 113000 146000 187000
2021-01-22 19:00 16.07 89300 188000 (2016) 33700 (2013) 83400 34800 37800 41000 46700 74300 104000 113000 146000 187000
2021-01-22 18:30 16.08 89900 188000 (2016) 33700 (2013) 83400 34800 37800 41000 46700 74300 104000 113000 146000 187000
2021-01-22 18:00 16.08 90500 188000 (2016) 33700 (2013) 83400 34800 37800 41000 46700 74300 104000 113000 146000 187000
2021-01-22 17:30 16.08 90500 188000 (2016) 33700 (2013) 83400 34800 37800 41000 46700 74300 104000 113000 146000 187000
2021-01-22 17:00 16.08 90500 188000 (2016) 33700 (2013) 83400 34800 37800 41000 46700 74300 104000 113000 146000 187000
2021-01-22 16:30 16.08 90500 188000 (2016) 33700 (2013) 83400 34800 37800 41000 46700 74300 104000 113000 146000 187000
2021-01-22 16:00 16.08 90500 188000 (2016) 33700 (2013) 83400 34800 37800 41000 46700 74300 104000 113000 146000 187000
2021-01-22 15:30 16.08 90500 188000 (2016) 33700 (2013) 83400 34800 37800 41000 46700 74300 104000 113000 146000 187000
2021-01-22 15:00 16.08 91100 188000 (2016) 33700 (2013) 83400 34800 37800 41000 46700 74300 104000 113000 146000 187000
2021-01-22 14:30 16.08 91700 188000 (2016) 33700 (2013) 83400 34800 37800 41000 46700 74300 104000 113000 146000 187000
2021-01-22 14:00 16.08 90500 188000 (2016) 33700 (2013) 83400 34800 37800 41000 46700 74300 104000 113000 146000 187000
2021-01-22 13:30 16.07 188000 (2016) 33700 (2013) 83400 34800 37800 41000 46700 74300 104000 113000 146000 187000
2021-01-22 13:00 16.08 90500 188000 (2016) 33700 (2013) 83400 34800 37800 41000 46700 74300 104000 113000 146000 187000
2021-01-22 12:30 16.08 90500 188000 (2016) 33700 (2013) 83400 34800 37800 41000 46700 74300 104000 113000 146000 187000
2021-01-22 12:00 16.06 89900 188000 (2016) 33700 (2013) 83400 34800 37800 41000 46700 74300 104000 113000 146000 187000
2021-01-22 11:30 16.06 89900 188000 (2016) 33700 (2013) 83400 34800 37800 41000 46700 74300 104000 113000 146000 187000
2021-01-22 11:00 16.07 89900 188000 (2016) 33700 (2013) 83400 34800 37800 41000 46700 74300 104000 113000 146000 187000
2021-01-22 10:30 16.08 89900 188000 (2016) 33700 (2013) 83400 34800 37800 41000 46700 74300 104000 113000 146000 187000
2021-01-22 10:00 16.06 88700 188000 (2016) 33700 (2013) 83400 34800 37800 41000 46700 74300 104000 113000 146000 187000
2021-01-22 09:30 16.06 88700 188000 (2016) 33700 (2013) 83400 34800 37800 41000 46700 74300 104000 113000 146000 187000
2021-01-22 09:00 16.07 89900 188000 (2016) 33700 (2013) 83400 34800 37800 41000 46700 74300 104000 113000 146000 187000
2021-01-22 08:30 16.07 89900 188000 (2016) 33700 (2013) 83400 34800 37800 41000 46700 74300 104000 113000 146000 187000
2021-01-22 08:00 16.06 89300 188000 (2016) 33700 (2013) 83400 34800 37800 41000 46700 74300 104000 113000 146000 187000
2021-01-22 07:30 16.06 89300 188000 (2016) 33700 (2013) 83400 34800 37800 41000 46700 74300 104000 113000 146000 187000
2021-01-22 07:00 16.06 89300 188000 (2016) 33700 (2013) 83400 34800 37800 41000 46700 74300 104000 113000 146000 187000
2021-01-22 06:30 16.06 89900 188000 (2016) 33700 (2013) 83400 34800 37800 41000 46700 74300 104000 113000 146000 187000
2021-01-22 06:00 16.05 89400 188000 (2016) 33700 (2013) 83400 34800 37800 41000 46700 74300 104000 113000 146000 187000
2021-01-22 05:30 16.06 89900 188000 (2016) 33700 (2013) 83400 34800 37800 41000 46700 74300 104000 113000 146000 187000
2021-01-22 05:00 16.07 90500 188000 (2016) 33700 (2013) 83400 34800 37800 41000 46700 74300 104000 113000 146000 187000
2021-01-22 04:30 16.06 89900 188000 (2016) 33700 (2013) 83400 34800 37800 41000 46700 74300 104000 113000 146000 187000
2021-01-22 04:00 16.05 89400 188000 (2016) 33700 (2013) 83400 34800 37800 41000 46700 74300 104000 113000 146000 187000
2021-01-22 03:30 16.06 89900 188000 (2016) 33700 (2013) 83400 34800 37800 41000 46700 74300 104000 113000 146000 187000
2021-01-22 03:00 16.06 89900 188000 (2016) 33700 (2013) 83400 34800 37800 41000 46700 74300 104000 113000 146000 187000
2021-01-22 02:30 16.06 89900 188000 (2016) 33700 (2013) 83400 34800 37800 41000 46700 74300 104000 113000 146000 187000
2021-01-22 02:00 16.06 89900 188000 (2016) 33700 (2013) 83400 34800 37800 41000 46700 74300 104000 113000 146000 187000
2021-01-22 01:30 16.07 90500 188000 (2016) 33700 (2013) 83400 34800 37800 41000 46700 74300 104000 113000 146000 187000
2021-01-22 01:00 16.07 90500 188000 (2016) 33700 (2013) 83400 34800 37800 41000 46700 74300 104000 113000 146000 187000
2021-01-22 00:30 16.07 91100 188000 (2016) 33700 (2013) 83400 34800 37800 41000 46700 74300 104000 113000 146000 187000
2021-01-22 00:00 16.07 91700 188000 (2016) 33700 (2013) 83400 34800 37800 41000 46700 74300 104000 113000 146000 187000
2021-01-21 23:30 16.07 91700 217000 (2016) 31200 (1990) 83400 35200 37300 43200 48800 74900 105000 119000 149000 181000
2021-01-21 23:00 16.04 90600 217000 (2016) 31200 (1990) 83400 35200 37300 43200 48800 74900 105000 119000 149000 181000
2021-01-21 22:30 16.04 90000 217000 (2016) 31200 (1990) 83400 35200 37300 43200 48800 74900 105000 119000 149000 181000
2021-01-21 22:00 16.04 90600 217000 (2016) 31200 (1990) 83400 35200 37300 43200 48800 74900 105000 119000 149000 181000
2021-01-21 21:30 16.05 91200 217000 (2016) 31200 (1990) 83400 35200 37300 43200 48800 74900 105000 119000 149000 181000
2021-01-21 21:00 16.05 91200 217000 (2016) 31200 (1990) 83400 35200 37300 43200 48800 74900 105000 119000 149000 181000
2021-01-21 20:30 16.04 91200 217000 (2016) 31200 (1990) 83400 35200 37300 43200 48800 74900 105000 119000 149000 181000
2021-01-21 20:00 16.05 91200 217000 (2016) 31200 (1990) 83400 35200 37300 43200 48800 74900 105000 119000 149000 181000
2021-01-21 19:30 16.05 91200 217000 (2016) 31200 (1990) 83400 35200 37300 43200 48800 74900 105000 119000 149000 181000
2021-01-21 19:00 16.05 91200 217000 (2016) 31200 (1990) 83400 35200 37300 43200 48800 74900 105000 119000 149000 181000
2021-01-21 18:30 16.06 92300 217000 (2016) 31200 (1990) 83400 35200 37300 43200 48800 74900 105000 119000 149000 181000
2021-01-21 18:00 16.04 90600 217000 (2016) 31200 (1990) 83400 35200 37300 43200 48800 74900 105000 119000 149000 181000
2021-01-21 17:30 16.06 91700 217000 (2016) 31200 (1990) 83400 35200 37300 43200 48800 74900 105000 119000 149000 181000
2021-01-21 17:00 16.05 91800 217000 (2016) 31200 (1990) 83400 35200 37300 43200 48800 74900 105000 119000 149000 181000
2021-01-21 16:30 16.05 217000 (2016) 31200 (1990) 83400 35200 37300 43200 48800 74900 105000 119000 149000 181000
2021-01-21 16:00 16.04 90000 217000 (2016) 31200 (1990) 83400 35200 37300 43200 48800 74900 105000 119000 149000 181000
2021-01-21 15:30 16.03 90000 217000 (2016) 31200 (1990) 83400 35200 37300 43200 48800 74900 105000 119000 149000 181000
2021-01-21 15:00 16.05 91200 217000 (2016) 31200 (1990) 83400 35200 37300 43200 48800 74900 105000 119000 149000 181000
2021-01-21 14:30 16.04 90600 217000 (2016) 31200 (1990) 83400 35200 37300 43200 48800 74900 105000 119000 149000 181000
2021-01-21 14:00 16.05 91800 217000 (2016) 31200 (1990) 83400 35200 37300 43200 48800 74900 105000 119000 149000 181000
2021-01-21 13:30 16.05 91800 217000 (2016) 31200 (1990) 83400 35200 37300 43200 48800 74900 105000 119000 149000 181000
2021-01-21 13:00 16.04 91200 217000 (2016) 31200 (1990) 83400 35200 37300 43200 48800 74900 105000 119000 149000 181000
2021-01-21 12:30 16.04 91800 217000 (2016) 31200 (1990) 83400 35200 37300 43200 48800 74900 105000 119000 149000 181000
2021-01-21 12:00 16.04 91800 217000 (2016) 31200 (1990) 83400 35200 37300 43200 48800 74900 105000 119000 149000 181000
2021-01-21 11:30 16.04 91200 217000 (2016) 31200 (1990) 83400 35200 37300 43200 48800 74900 105000 119000 149000 181000
2021-01-21 11:00 16.03 90600 217000 (2016) 31200 (1990) 83400 35200 37300 43200 48800 74900 105000 119000 149000 181000
2021-01-21 10:30 16.04 91800 217000 (2016) 31200 (1990) 83400 35200 37300 43200 48800 74900 105000 119000 149000 181000
2021-01-21 10:00 16.03 90600 217000 (2016) 31200 (1990) 83400 35200 37300 43200 48800 74900 105000 119000 149000 181000
2021-01-21 09:30 16.03 90600 217000 (2016) 31200 (1990) 83400 35200 37300 43200 48800 74900 105000 119000 149000 181000
2021-01-21 09:00 16.02 90600 217000 (2016) 31200 (1990) 83400 35200 37300 43200 48800 74900 105000 119000 149000 181000
2021-01-21 08:30 16.02 217000 (2016) 31200 (1990) 83400 35200 37300 43200 48800 74900 105000 119000 149000 181000
2021-01-21 08:00 16.01 90000 217000 (2016) 31200 (1990) 83400 35200 37300 43200 48800 74900 105000 119000 149000 181000
2021-01-21 07:30 16.01 217000 (2016) 31200 (1990) 83400 35200 37300 43200 48800 74900 105000 119000 149000 181000
2021-01-21 07:00 16.02 91200 217000 (2016) 31200 (1990) 83400 35200 37300 43200 48800 74900 105000 119000 149000 181000
2021-01-21 06:30 16.02 90600 217000 (2016) 31200 (1990) 83400 35200 37300 43200 48800 74900 105000 119000 149000 181000
2021-01-21 06:00 16.03 91200 217000 (2016) 31200 (1990) 83400 35200 37300 43200 48800 74900 105000 119000 149000 181000
2021-01-21 05:30 16.03 217000 (2016) 31200 (1990) 83400 35200 37300 43200 48800 74900 105000 119000 149000 181000
2021-01-21 05:00 16.01 90600 217000 (2016) 31200 (1990) 83400 35200 37300 43200 48800 74900 105000 119000 149000 181000
2021-01-21 04:30 16.01 90600 217000 (2016) 31200 (1990) 83400 35200 37300 43200 48800 74900 105000 119000 149000 181000
2021-01-21 04:00 16.00 217000 (2016) 31200 (1990) 83400 35200 37300 43200 48800 74900 105000 119000 149000 181000
2021-01-21 03:30 16.02 91800 217000 (2016) 31200 (1990) 83400 35200 37300 43200 48800 74900 105000 119000 149000 181000
2021-01-21 03:00 16.01 91300 217000 (2016) 31200 (1990) 83400 35200 37300 43200 48800 74900 105000 119000 149000 181000
2021-01-21 02:30 16.01 91900 217000 (2016) 31200 (1990) 83400 35200 37300 43200 48800 74900 105000 119000 149000 181000
2021-01-21 02:00 16.00 91900 217000 (2016) 31200 (1990) 83400 35200 37300 43200 48800 74900 105000 119000 149000 181000
2021-01-21 01:30 16.01 92500 217000 (2016) 31200 (1990) 83400 35200 37300 43200 48800 74900 105000 119000 149000 181000
2021-01-21 01:00 16.01 92500 217000 (2016) 31200 (1990) 83400 35200 37300 43200 48800 74900 105000 119000 149000 181000
2021-01-21 00:30 15.98 217000 (2016) 31200 (1990) 83400 35200 37300 43200 48800 74900 105000 119000 149000 181000
2021-01-21 00:00 15.98 90500 217000 (2016) 31200 (1990) 83400 35200 37300 43200 48800 74900 105000 119000 149000 181000
2021-01-20 23:30 16.00 91900 163000 (2005) 31200 (1990) 82700 33400 39000 47400 52400 73600 106000 114000 151000 160000
2021-01-20 23:00 16.00 91900 163000 (2005) 31200 (1990) 82700 33400 39000 47400 52400 73600 106000 114000 151000 160000
2021-01-20 22:30 16.00 163000 (2005) 31200 (1990) 82700 33400 39000 47400 52400 73600 106000 114000 151000 160000
2021-01-20 22:00 15.99 91800 163000 (2005) 31200 (1990) 82700 33400 39000 47400 52400 73600 106000 114000 151000 160000
2021-01-20 21:30 15.99 91800 163000 (2005) 31200 (1990) 82700 33400 39000 47400 52400 73600 106000 114000 151000 160000
2021-01-20 21:00 15.98 163000 (2005) 31200 (1990) 82700 33400 39000 47400 52400 73600 106000 114000 151000 160000
2021-01-20 20:30 15.99 163000 (2005) 31200 (1990) 82700 33400 39000 47400 52400 73600 106000 114000 151000 160000
2021-01-20 20:00 15.98 163000 (2005) 31200 (1990) 82700 33400 39000 47400 52400 73600 106000 114000 151000 160000
2021-01-20 19:30 15.99 93000 163000 (2005) 31200 (1990) 82700 33400 39000 47400 52400 73600 106000 114000 151000 160000
2021-01-20 19:00 15.99 93000 163000 (2005) 31200 (1990) 82700 33400 39000 47400 52400 73600 106000 114000 151000 160000
2021-01-20 18:30 15.99 93600 163000 (2005) 31200 (1990) 82700 33400 39000 47400 52400 73600 106000 114000 151000 160000
2021-01-20 18:00 15.99 94200 163000 (2005) 31200 (1990) 82700 33400 39000 47400 52400 73600 106000 114000 151000 160000
2021-01-20 17:30 15.99 94200 163000 (2005) 31200 (1990) 82700 33400 39000 47400 52400 73600 106000 114000 151000 160000
2021-01-20 17:00 15.98 94200 163000 (2005) 31200 (1990) 82700 33400 39000 47400 52400 73600 106000 114000 151000 160000
2021-01-20 16:30 15.99 94200 163000 (2005) 31200 (1990) 82700 33400 39000 47400 52400 73600 106000 114000 151000 160000
2021-01-20 16:00 15.99 94200 163000 (2005) 31200 (1990) 82700 33400 39000 47400 52400 73600 106000 114000 151000 160000
2021-01-20 15:30 15.98 93600 163000 (2005) 31200 (1990) 82700 33400 39000 47400 52400 73600 106000 114000 151000 160000
2021-01-20 15:00 16.01 94900 163000 (2005) 31200 (1990) 82700 33400 39000 47400 52400 73600 106000 114000 151000 160000
2021-01-20 14:30 16.01 163000 (2005) 31200 (1990) 82700 33400 39000 47400 52400 73600 106000 114000 151000 160000
2021-01-20 14:00 16.01 94900 163000 (2005) 31200 (1990) 82700 33400 39000 47400 52400 73600 106000 114000 151000 160000
2021-01-20 13:30 16.00 93700 163000 (2005) 31200 (1990) 82700 33400 39000 47400 52400 73600 106000 114000 151000 160000
2021-01-20 13:00 16.00 94300 163000 (2005) 31200 (1990) 82700 33400 39000 47400 52400 73600 106000 114000 151000 160000
2021-01-20 12:30 16.01 93700 163000 (2005) 31200 (1990) 82700 33400 39000 47400 52400 73600 106000 114000 151000 160000
2021-01-20 12:00 16.00 93100 163000 (2005) 31200 (1990) 82700 33400 39000 47400 52400 73600 106000 114000 151000 160000
2021-01-20 11:30 16.00 93100 163000 (2005) 31200 (1990) 82700 33400 39000 47400 52400 73600 106000 114000 151000 160000
2021-01-20 11:00 15.99 92400 163000 (2005) 31200 (1990) 82700 33400 39000 47400 52400 73600 106000 114000 151000 160000
2021-01-20 10:30 16.00 92500 163000 (2005) 31200 (1990) 82700 33400 39000 47400 52400 73600 106000 114000 151000 160000
2021-01-20 10:00 15.99 91800 163000 (2005) 31200 (1990) 82700 33400 39000 47400 52400 73600 106000 114000 151000 160000
2021-01-20 09:30 16.00 163000 (2005) 31200 (1990) 82700 33400 39000 47400 52400 73600 106000 114000 151000 160000
2021-01-20 09:00 15.97 91100 163000 (2005) 31200 (1990) 82700 33400 39000 47400 52400 73600 106000 114000 151000 160000
2021-01-20 08:30 15.98 163000 (2005) 31200 (1990) 82700 33400 39000 47400 52400 73600 106000 114000 151000 160000
2021-01-20 08:00 15.98 91800 163000 (2005) 31200 (1990) 82700 33400 39000 47400 52400 73600 106000 114000 151000 160000
2021-01-20 07:30 15.98 163000 (2005) 31200 (1990) 82700 33400 39000 47400 52400 73600 106000 114000 151000 160000
2021-01-20 07:00 15.98 91800 163000 (2005) 31200 (1990) 82700 33400 39000 47400 52400 73600 106000 114000 151000 160000
2021-01-20 06:30 15.97 91100 163000 (2005) 31200 (1990) 82700 33400 39000 47400 52400 73600 106000 114000 151000 160000
2021-01-20 06:00 15.98 91800 163000 (2005) 31200 (1990) 82700 33400 39000 47400 52400 73600 106000 114000 151000 160000
2021-01-20 05:30 15.97 90500 163000 (2005) 31200 (1990) 82700 33400 39000 47400 52400 73600 106000 114000 151000 160000
2021-01-20 05:00 15.97 91100 163000 (2005) 31200 (1990) 82700 33400 39000 47400 52400 73600 106000 114000 151000 160000
2021-01-20 04:30 15.97 90500 163000 (2005) 31200 (1990) 82700 33400 39000 47400 52400 73600 106000 114000 151000 160000
2021-01-20 04:00 15.96 89800 163000 (2005) 31200 (1990) 82700 33400 39000 47400 52400 73600 106000 114000 151000 160000
2021-01-20 03:30 15.96 163000 (2005) 31200 (1990) 82700 33400 39000 47400 52400 73600 106000 114000 151000 160000
2021-01-20 03:00 15.96 89800 163000 (2005) 31200 (1990) 82700 33400 39000 47400 52400 73600 106000 114000 151000 160000
2021-01-20 02:30 15.96 89800 163000 (2005) 31200 (1990) 82700 33400 39000 47400 52400 73600 106000 114000 151000 160000
2021-01-20 02:00 15.97 89900 163000 (2005) 31200 (1990) 82700 33400 39000 47400 52400 73600 106000 114000 151000 160000
2021-01-20 01:30 15.96 89200 163000 (2005) 31200 (1990) 82700 33400 39000 47400 52400 73600 106000 114000 151000 160000
2021-01-20 01:00 15.94 87900 163000 (2005) 31200 (1990) 82700 33400 39000 47400 52400 73600 106000 114000 151000 160000
2021-01-20 00:30 15.96 89800 163000 (2005) 31200 (1990) 82700 33400 39000 47400 52400 73600 106000 114000 151000 160000
2021-01-20 00:00 15.95 90400 163000 (2005) 31200 (1990) 82700 33400 39000 47400 52400 73600 106000 114000 151000 160000
2021-01-19 23:30 15.93 183000 (2020) 36100 (2013) 83500 36500 40600 46400 52500 70700 111000 129000 142000 164000
2021-01-19 23:00 15.93 183000 (2020) 36100 (2013) 83500 36500 40600 46400 52500 70700 111000 129000 142000 164000
2021-01-19 22:30 15.91 90700 183000 (2020) 36100 (2013) 83500 36500 40600 46400 52500 70700 111000 129000 142000 164000
2021-01-19 22:00 15.93 90800 183000 (2020) 36100 (2013) 83500 36500 40600 46400 52500 70700 111000 129000 142000 164000
2021-01-19 21:30 15.94 183000 (2020) 36100 (2013) 83500 36500 40600 46400 52500 70700 111000 129000 142000 164000
2021-01-19 21:00 15.94 92100 183000 (2020) 36100 (2013) 83500 36500 40600 46400 52500 70700 111000 129000 142000 164000
2021-01-19 20:30 15.91 90100 183000 (2020) 36100 (2013) 83500 36500 40600 46400 52500 70700 111000 129000 142000 164000
2021-01-19 20:00 15.94 183000 (2020) 36100 (2013) 83500 36500 40600 46400 52500 70700 111000 129000 142000 164000
2021-01-19 19:30 15.92 90200 183000 (2020) 36100 (2013) 83500 36500 40600 46400 52500 70700 111000 129000 142000 164000
2021-01-19 19:00 15.93 90800 183000 (2020) 36100 (2013) 83500 36500 40600 46400 52500 70700 111000 129000 142000 164000
2021-01-19 18:30 15.92 90200 183000 (2020) 36100 (2013) 83500 36500 40600 46400 52500 70700 111000 129000 142000 164000
2021-01-19 18:00 15.91 89500 183000 (2020) 36100 (2013) 83500 36500 40600 46400 52500 70700 111000 129000 142000 164000
2021-01-19 17:30 15.93 183000 (2020) 36100 (2013) 83500 36500 40600 46400 52500 70700 111000 129000 142000 164000
2021-01-19 17:00 15.93 90200 183000 (2020) 36100 (2013) 83500 36500 40600 46400 52500 70700 111000 129000 142000 164000
2021-01-19 16:30 15.92 88400 183000 (2020) 36100 (2013) 83500 36500 40600 46400 52500 70700 111000 129000 142000 164000
2021-01-19 16:00 15.90 86900 183000 (2020) 36100 (2013) 83500 36500 40600 46400 52500 70700 111000 129000 142000 164000
2021-01-19 15:30 15.92 183000 (2020) 36100 (2013) 83500 36500 40600 46400 52500 70700 111000 129000 142000 164000
2021-01-19 15:00 15.90 88200 183000 (2020) 36100 (2013) 83500 36500 40600 46400 52500 70700 111000 129000 142000 164000
2021-01-19 14:30 15.90 183000 (2020) 36100 (2013) 83500 36500 40600 46400 52500 70700 111000 129000 142000 164000
2021-01-19 14:00 15.88 183000 (2020) 36100 (2013) 83500 36500 40600 46400 52500 70700 111000 129000 142000 164000
2021-01-19 13:30 15.90 88800 183000 (2020) 36100 (2013) 83500 36500 40600 46400 52500 70700 111000 129000 142000 164000
2021-01-19 13:00 15.89 89400 183000 (2020) 36100 (2013) 83500 36500 40600 46400 52500 70700 111000 129000 142000 164000
2021-01-19 12:30 15.89 183000 (2020) 36100 (2013) 83500 36500 40600 46400 52500 70700 111000 129000 142000 164000
2021-01-19 12:00 15.90 91200 183000 (2020) 36100 (2013) 83500 36500 40600 46400 52500 70700 111000 129000 142000 164000
2021-01-19 11:30 15.91 91900 183000 (2020) 36100 (2013) 83500 36500 40600 46400 52500 70700 111000 129000 142000 164000
2021-01-19 11:00 15.86 183000 (2020) 36100 (2013) 83500 36500 40600 46400 52500 70700 111000 129000 142000 164000
2021-01-19 10:30 15.92 183000 (2020) 36100 (2013) 83500 36500 40600 46400 52500 70700 111000 129000 142000 164000
2021-01-19 10:00 15.91 92500 183000 (2020) 36100 (2013) 83500 36500 40600 46400 52500 70700 111000 129000 142000 164000
2021-01-19 09:30 15.91 183000 (2020) 36100 (2013) 83500 36500 40600 46400 52500 70700 111000 129000 142000 164000
2021-01-19 09:00 15.90 91800 183000 (2020) 36100 (2013) 83500 36500 40600 46400 52500 70700 111000 129000 142000 164000
2021-01-19 08:30 15.92 93200 183000 (2020) 36100 (2013) 83500 36500 40600 46400 52500 70700 111000 129000 142000 164000
2021-01-19 08:00 15.92 93200 183000 (2020) 36100 (2013) 83500 36500 40600 46400 52500 70700 111000 129000 142000 164000
2021-01-19 07:30 15.90 91800 183000 (2020) 36100 (2013) 83500 36500 40600 46400 52500 70700 111000 129000 142000 164000
2021-01-19 07:00 15.91 93100 183000 (2020) 36100 (2013) 83500 36500 40600 46400 52500 70700 111000 129000 142000 164000
2021-01-19 06:30 15.91 92500 183000 (2020) 36100 (2013) 83500 36500 40600 46400 52500 70700 111000 129000 142000 164000
2021-01-19 06:00 15.91 91900 183000 (2020) 36100 (2013) 83500 36500 40600 46400 52500 70700 111000 129000 142000 164000
2021-01-19 05:30 15.92 183000 (2020) 36100 (2013) 83500 36500 40600 46400 52500 70700 111000 129000 142000 164000
2021-01-19 05:00 15.91 91900 183000 (2020) 36100 (2013) 83500 36500 40600 46400 52500 70700 111000 129000 142000 164000
2021-01-19 04:30 15.90 91200 183000 (2020) 36100 (2013) 83500 36500 40600 46400 52500 70700 111000 129000 142000 164000
2021-01-19 04:00 15.91 91900 183000 (2020) 36100 (2013) 83500 36500 40600 46400 52500 70700 111000 129000 142000 164000
2021-01-19 03:30 15.91 91900 183000 (2020) 36100 (2013) 83500 36500 40600 46400 52500 70700 111000 129000 142000 164000
2021-01-19 03:00 15.90 91200 183000 (2020) 36100 (2013) 83500 36500 40600 46400 52500 70700 111000 129000 142000 164000
2021-01-19 02:30 15.90 91800 183000 (2020) 36100 (2013) 83500 36500 40600 46400 52500 70700 111000 129000 142000 164000
2021-01-19 02:00 15.91 92500 183000 (2020) 36100 (2013) 83500 36500 40600 46400 52500 70700 111000 129000 142000 164000
2021-01-19 01:30 15.90 91800 183000 (2020) 36100 (2013) 83500 36500 40600 46400 52500 70700 111000 129000 142000 164000
2021-01-19 01:00 15.88 183000 (2020) 36100 (2013) 83500 36500 40600 46400 52500 70700 111000 129000 142000 164000
2021-01-19 00:30 15.91 93100 183000 (2020) 36100 (2013) 83500 36500 40600 46400 52500 70700 111000 129000 142000 164000
2021-01-19 00:00 15.90 93000 183000 (2020) 36100 (2013) 83500 36500 40600 46400 52500 70700 111000 129000 142000 164000
2021-01-18 23:30 15.91 92500 212000 (2016) 32500 (1990) 87000 34200 39000 51300 55100 72800 115000 130000 151000 190000
2021-01-18 23:00 15.90 92400 212000 (2016) 32500 (1990) 87000 34200 39000 51300 55100 72800 115000 130000 151000 190000
2021-01-18 22:30 15.87 212000 (2016) 32500 (1990) 87000 34200 39000 51300 55100 72800 115000 130000 151000 190000
2021-01-18 22:00 15.89 212000 (2016) 32500 (1990) 87000 34200 39000 51300 55100 72800 115000 130000 151000 190000
2021-01-18 21:30 15.90 93600 212000 (2016) 32500 (1990) 87000 34200 39000 51300 55100 72800 115000 130000 151000 190000
2021-01-18 21:00 15.89 93600 212000 (2016) 32500 (1990) 87000 34200 39000 51300 55100 72800 115000 130000 151000 190000
2021-01-18 20:30 15.91 212000 (2016) 32500 (1990) 87000 34200 39000 51300 55100 72800 115000 130000 151000 190000
2021-01-18 20:00 15.91 212000 (2016) 32500 (1990) 87000 34200 39000 51300 55100 72800 115000 130000 151000 190000
2021-01-18 19:30 15.90 92400 212000 (2016) 32500 (1990) 87000 34200 39000 51300 55100 72800 115000 130000 151000 190000
2021-01-18 19:00 15.90 92400 212000 (2016) 32500 (1990) 87000 34200 39000 51300 55100 72800 115000 130000 151000 190000
2021-01-18 18:30 15.90 93000 212000 (2016) 32500 (1990) 87000 34200 39000 51300 55100 72800 115000 130000 151000 190000
2021-01-18 18:00 15.89 91800 212000 (2016) 32500 (1990) 87000 34200 39000 51300 55100 72800 115000 130000 151000 190000
2021-01-18 17:30 15.89 212000 (2016) 32500 (1990) 87000 34200 39000 51300 55100 72800 115000 130000 151000 190000
2021-01-18 17:00 15.88 91700 212000 (2016) 32500 (1990) 87000 34200 39000 51300 55100 72800 115000 130000 151000 190000
2021-01-18 16:30 15.87 92200 212000 (2016) 32500 (1990) 87000 34200 39000 51300 55100 72800 115000 130000 151000 190000
2021-01-18 16:00 15.90 212000 (2016) 32500 (1990) 87000 34200 39000 51300 55100 72800 115000 130000 151000 190000
2021-01-18 15:30 15.89 212000 (2016) 32500 (1990) 87000 34200 39000 51300 55100 72800 115000 130000 151000 190000
2021-01-18 15:00 15.88 91100 212000 (2016) 32500 (1990) 87000 34200 39000 51300 55100 72800 115000 130000 151000 190000
2021-01-18 14:30 15.89 91800 212000 (2016) 32500 (1990) 87000 34200 39000 51300 55100 72800 115000 130000 151000 190000
2021-01-18 14:00 15.89 91800 212000 (2016) 32500 (1990) 87000 34200 39000 51300 55100 72800 115000 130000 151000 190000
2021-01-18 13:30 15.87 212000 (2016) 32500 (1990) 87000 34200 39000 51300 55100 72800 115000 130000 151000 190000
2021-01-18 13:00 15.88 91700 212000 (2016) 32500 (1990) 87000 34200 39000 51300 55100 72800 115000 130000 151000 190000
2021-01-18 12:30 15.88 212000 (2016) 32500 (1990) 87000 34200 39000 51300 55100 72800 115000 130000 151000 190000
2021-01-18 12:00 15.88 91700 212000 (2016) 32500 (1990) 87000 34200 39000 51300 55100 72800 115000 130000 151000 190000
2021-01-18 11:30 15.88 91700 212000 (2016) 32500 (1990) 87000 34200 39000 51300 55100 72800 115000 130000 151000 190000
2021-01-18 11:00 15.88 91700 212000 (2016) 32500 (1990) 87000 34200 39000 51300 55100 72800 115000 130000 151000 190000
2021-01-18 10:30 15.87 91600 212000 (2016) 32500 (1990) 87000 34200 39000 51300 55100 72800 115000 130000 151000 190000
2021-01-18 10:00 15.88 92900 212000 (2016) 32500 (1990) 87000 34200 39000 51300 55100 72800 115000 130000 151000 190000
2021-01-18 09:30 15.87 92200 212000 (2016) 32500 (1990) 87000 34200 39000 51300 55100 72800 115000 130000 151000 190000
2021-01-18 09:00 15.88 212000 (2016) 32500 (1990) 87000 34200 39000 51300 55100 72800 115000 130000 151000 190000
2021-01-18 08:30 15.87 91600 212000 (2016) 32500 (1990) 87000 34200 39000 51300 55100 72800 115000 130000 151000 190000
2021-01-18 08:00 15.88 92900 212000 (2016) 32500 (1990) 87000 34200 39000 51300 55100 72800 115000 130000 151000 190000
2021-01-18 07:30 15.88 92300 212000 (2016) 32500 (1990) 87000 34200 39000 51300 55100 72800 115000 130000 151000 190000
2021-01-18 07:00 15.87 91600 212000 (2016) 32500 (1990) 87000 34200 39000 51300 55100 72800 115000 130000 151000 190000
2021-01-18 06:30 15.86 91000 212000 (2016) 32500 (1990) 87000 34200 39000 51300 55100 72800 115000 130000 151000 190000
2021-01-18 06:00 15.87 91000 212000 (2016) 32500 (1990) 87000 34200 39000 51300 55100 72800 115000 130000 151000 190000
2021-01-18 05:30 15.86 90400 212000 (2016) 32500 (1990) 87000 34200 39000 51300 55100 72800 115000 130000 151000 190000
2021-01-18 05:00 15.86 90400 212000 (2016) 32500 (1990) 87000 34200 39000 51300 55100 72800 115000 130000 151000 190000
2021-01-18 04:30 15.86 90400 212000 (2016) 32500 (1990) 87000 34200 39000 51300 55100 72800 115000 130000 151000 190000
2021-01-18 04:00 15.86 90400 212000 (2016) 32500 (1990) 87000 34200 39000 51300 55100 72800 115000 130000 151000 190000
2021-01-18 03:30 15.86 91000 212000 (2016) 32500 (1990) 87000 34200 39000 51300 55100 72800 115000 130000 151000 190000
2021-01-18 03:00 15.86 91000 212000 (2016) 32500 (1990) 87000 34200 39000 51300 55100 72800 115000 130000 151000 190000
2021-01-18 02:30 15.87 92200 212000 (2016) 32500 (1990) 87000 34200 39000 51300 55100 72800 115000 130000 151000 190000
2021-01-18 02:00 15.84 90300 212000 (2016) 32500 (1990) 87000 34200 39000 51300 55100 72800 115000 130000 151000 190000
2021-01-18 01:30 15.85 91500 212000 (2016) 32500 (1990) 87000 34200 39000 51300 55100 72800 115000 130000 151000 190000
2021-01-18 01:00 15.85 92100 212000 (2016) 32500 (1990) 87000 34200 39000 51300 55100 72800 115000 130000 151000 190000
2021-01-18 00:30 15.86 91600 212000 (2016) 32500 (1990) 87000 34200 39000 51300 55100 72800 115000 130000 151000 190000
2021-01-18 00:00 15.86 91000 212000 (2016) 32500 (1990) 87000 34200 39000 51300 55100 72800 115000 130000 151000 190000
2021-01-17 23:30 15.86 225000 (2016) 32800 (1990) 88500 38800 42200 49400 55200 75100 113000 130000 153000 203000
2021-01-17 23:00 15.86 91000 225000 (2016) 32800 (1990) 88500 38800 42200 49400 55200 75100 113000 130000 153000 203000
2021-01-17 22:30 15.87 225000 (2016) 32800 (1990) 88500 38800 42200 49400 55200 75100 113000 130000 153000 203000
2021-01-17 22:00 15.87 91600 225000 (2016) 32800 (1990) 88500 38800 42200 49400 55200 75100 113000 130000 153000 203000
2021-01-17 21:30 15.84 225000 (2016) 32800 (1990) 88500 38800 42200 49400 55200 75100 113000 130000 153000 203000
2021-01-17 21:00 15.87 91600 225000 (2016) 32800 (1990) 88500 38800 42200 49400 55200 75100 113000 130000 153000 203000
2021-01-17 20:30 15.87 225000 (2016) 32800 (1990) 88500 38800 42200 49400 55200 75100 113000 130000 153000 203000
2021-01-17 20:00 15.86 90400 225000 (2016) 32800 (1990) 88500 38800 42200 49400 55200 75100 113000 130000 153000 203000
2021-01-17 19:30 15.87 91000 225000 (2016) 32800 (1990) 88500 38800 42200 49400 55200 75100 113000 130000 153000 203000
2021-01-17 19:00 15.86 90400 225000 (2016) 32800 (1990) 88500 38800 42200 49400 55200 75100 113000 130000 153000 203000
2021-01-17 18:30 15.87 225000 (2016) 32800 (1990) 88500 38800 42200 49400 55200 75100 113000 130000 153000 203000
2021-01-17 18:00 15.88 225000 (2016) 32800 (1990) 88500 38800 42200 49400 55200 75100 113000 130000 153000 203000
2021-01-17 17:30 15.84 87300 225000 (2016) 32800 (1990) 88500 38800 42200 49400 55200 75100 113000 130000 153000 203000
2021-01-17 17:00 15.86 88600 225000 (2016) 32800 (1990) 88500 38800 42200 49400 55200 75100 113000 130000 153000 203000
2021-01-17 16:30 15.86 88600 225000 (2016) 32800 (1990) 88500 38800 42200 49400 55200 75100 113000 130000 153000 203000
2021-01-17 16:00 15.86 87400 225000 (2016) 32800 (1990) 88500 38800 42200 49400 55200 75100 113000 130000 153000 203000
2021-01-17 15:30 15.86 225000 (2016) 32800 (1990) 88500 38800 42200 49400 55200 75100 113000 130000 153000 203000
2021-01-17 15:00 15.85 225000 (2016) 32800 (1990) 88500 38800 42200 49400 55200 75100 113000 130000 153000 203000
2021-01-17 14:30 15.85 89700 225000 (2016) 32800 (1990) 88500 38800 42200 49400 55200 75100 113000 130000 153000 203000
2021-01-17 14:00 15.86 225000 (2016) 32800 (1990) 88500 38800 42200 49400 55200 75100 113000 130000 153000 203000
2021-01-17 13:30 15.84 89100 225000 (2016) 32800 (1990) 88500 38800 42200 49400 55200 75100 113000 130000 153000 203000
2021-01-17 13:00 15.86 225000 (2016) 32800 (1990) 88500 38800 42200 49400 55200 75100 113000 130000 153000 203000
2021-01-17 12:30 15.83 87800 225000 (2016) 32800 (1990) 88500 38800 42200 49400 55200 75100 113000 130000 153000 203000
2021-01-17 12:00 15.86 88600 225000 (2016) 32800 (1990) 88500 38800 42200 49400 55200 75100 113000 130000 153000 203000
2021-01-17 11:30 15.86 225000 (2016) 32800 (1990) 88500 38800 42200 49400 55200 75100 113000 130000 153000 203000
2021-01-17 11:00 15.85 87300 225000 (2016) 32800 (1990) 88500 38800 42200 49400 55200 75100 113000 130000 153000 203000
2021-01-17 10:30 15.85 86600 225000 (2016) 32800 (1990) 88500 38800 42200 49400 55200 75100 113000 130000 153000 203000
2021-01-17 10:00 15.84 225000 (2016) 32800 (1990) 88500 38800 42200 49400 55200 75100 113000 130000 153000 203000
2021-01-17 09:30 15.85 87300 225000 (2016) 32800 (1990) 88500 38800 42200 49400 55200 75100 113000 130000 153000 203000
2021-01-17 09:00 15.86 88600 225000 (2016) 32800 (1990) 88500 38800 42200 49400 55200 75100 113000 130000 153000 203000
2021-01-17 08:30 15.86 88600 225000 (2016) 32800 (1990) 88500 38800 42200 49400 55200 75100 113000 130000 153000 203000
2021-01-17 08:00 15.85 88500 225000 (2016) 32800 (1990) 88500 38800 42200 49400 55200 75100 113000 130000 153000 203000
2021-01-17 07:30 15.84 88500 225000 (2016) 32800 (1990) 88500 38800 42200 49400 55200 75100 113000 130000 153000 203000
2021-01-17 07:00 15.85 89100 225000 (2016) 32800 (1990) 88500 38800 42200 49400 55200 75100 113000 130000 153000 203000
2021-01-17 06:30 15.85 89700 225000 (2016) 32800 (1990) 88500 38800 42200 49400 55200 75100 113000 130000 153000 203000
2021-01-17 06:00 15.86 89800 225000 (2016) 32800 (1990) 88500 38800 42200 49400 55200 75100 113000 130000 153000 203000
2021-01-17 05:30 15.86 89800 225000 (2016) 32800 (1990) 88500 38800 42200 49400 55200 75100 113000 130000 153000 203000
2021-01-17 05:00 15.85 89100 225000 (2016) 32800 (1990) 88500 38800 42200 49400 55200 75100 113000 130000 153000 203000
2021-01-17 04:30 15.85 225000 (2016) 32800 (1990) 88500 38800 42200 49400 55200 75100 113000 130000 153000 203000
2021-01-17 04:00 15.86 91000 225000 (2016) 32800 (1990) 88500 38800 42200 49400 55200 75100 113000 130000 153000 203000
2021-01-17 03:30 15.87 91000 225000 (2016) 32800 (1990) 88500 38800 42200 49400 55200 75100 113000 130000 153000 203000
2021-01-17 03:00 15.87 90400 225000 (2016) 32800 (1990) 88500 38800 42200 49400 55200 75100 113000 130000 153000 203000
2021-01-17 02:30 15.87 89900 225000 (2016) 32800 (1990) 88500 38800 42200 49400 55200 75100 113000 130000 153000 203000
2021-01-17 02:00 15.87 89900 225000 (2016) 32800 (1990) 88500 38800 42200 49400 55200 75100 113000 130000 153000 203000
2021-01-17 01:30 15.88 90500 225000 (2016) 32800 (1990) 88500 38800 42200 49400 55200 75100 113000 130000 153000 203000
2021-01-16 23:00 15.91 91300 230000 (2016) 34500 (1990) 89800 35900 40800 50000 52700 73100 117000 126000 153000 217000
2021-01-16 22:30 15.93 91400 230000 (2016) 34500 (1990) 89800 35900 40800 50000 52700 73100 117000 126000 153000 217000
2021-01-16 22:00 15.92 90200 230000 (2016) 34500 (1990) 89800 35900 40800 50000 52700 73100 117000 126000 153000 217000
2021-01-16 21:30 15.93 89600 230000 (2016) 34500 (1990) 89800 35900 40800 50000 52700 73100 117000 126000 153000 217000
2021-01-16 21:00 15.94 90300 230000 (2016) 34500 (1990) 89800 35900 40800 50000 52700 73100 117000 126000 153000 217000
2021-01-16 20:30 15.95 91000 230000 (2016) 34500 (1990) 89800 35900 40800 50000 52700 73100 117000 126000 153000 217000
2021-01-16 20:00 15.94 89700 230000 (2016) 34500 (1990) 89800 35900 40800 50000 52700 73100 117000 126000 153000 217000
2021-01-16 19:30 15.97 91100 230000 (2016) 34500 (1990) 89800 35900 40800 50000 52700 73100 117000 126000 153000 217000
2021-01-16 19:00 15.96 89800 230000 (2016) 34500 (1990) 89800 35900 40800 50000 52700 73100 117000 126000 153000 217000
2021-01-16 18:30 15.97 89900 230000 (2016) 34500 (1990) 89800 35900 40800 50000 52700 73100 117000 126000 153000 217000
2021-01-16 18:00 15.99 230000 (2016) 34500 (1990) 89800 35900 40800 50000 52700 73100 117000 126000 153000 217000
2021-01-16 17:30 15.99 89400 230000 (2016) 34500 (1990) 89800 35900 40800 50000 52700 73100 117000 126000 153000 217000
2021-01-16 17:00 16.02 230000 (2016) 34500 (1990) 89800 35900 40800 50000 52700 73100 117000 126000 153000 217000
2021-01-16 16:30 16.01 88200 230000 (2016) 34500 (1990) 89800 35900 40800 50000 52700 73100 117000 126000 153000 217000
2021-01-16 16:00 16.00 86100 230000 (2016) 34500 (1990) 89800 35900 40800 50000 52700 73100 117000 126000 153000 217000
2021-01-16 15:30 16.00 86100 230000 (2016) 34500 (1990) 89800 35900 40800 50000 52700 73100 117000 126000 153000 217000
2021-01-16 15:00 16.02 86000 230000 (2016) 34500 (1990) 89800 35900 40800 50000 52700 73100 117000 126000 153000 217000
2021-01-16 14:30 16.01 85300 230000 (2016) 34500 (1990) 89800 35900 40800 50000 52700 73100 117000 126000 153000 217000
2021-01-16 14:00 16.01 230000 (2016) 34500 (1990) 89800 35900 40800 50000 52700 73100 117000 126000 153000 217000
2021-01-16 13:30 16.00 230000 (2016) 34500 (1990) 89800 35900 40800 50000 52700 73100 117000 126000 153000 217000
2021-01-16 13:00 16.03 87400 230000 (2016) 34500 (1990) 89800 35900 40800 50000 52700 73100 117000 126000 153000 217000
2021-01-16 12:30 16.04 87400 230000 (2016) 34500 (1990) 89800 35900 40800 50000 52700 73100 117000 126000 153000 217000
2021-01-16 12:00 16.05 88800 230000 (2016) 34500 (1990) 89800 35900 40800 50000 52700 73100 117000 126000 153000 217000
2021-01-16 11:30 16.02 230000 (2016) 34500 (1990) 89800 35900 40800 50000 52700 73100 117000 126000 153000 217000
2021-01-16 11:00 16.07 88700 230000 (2016) 34500 (1990) 89800 35900 40800 50000 52700 73100 117000 126000 153000 217000
2021-01-16 10:30 16.04 230000 (2016) 34500 (1990) 89800 35900 40800 50000 52700 73100 117000 126000 153000 217000
2021-01-16 10:00 16.08 90500 230000 (2016) 34500 (1990) 89800 35900 40800 50000 52700 73100 117000 126000 153000 217000
2021-01-16 09:30 16.08 91700 230000 (2016) 34500 (1990) 89800 35900 40800 50000 52700 73100 117000 126000 153000 217000
2021-01-16 09:00 16.09 90500 230000 (2016) 34500 (1990) 89800 35900 40800 50000 52700 73100 117000 126000 153000 217000
2021-01-16 08:30 16.08 230000 (2016) 34500 (1990) 89800 35900 40800 50000 52700 73100 117000 126000 153000 217000
2021-01-16 08:00 16.10 92300 230000 (2016) 34500 (1990) 89800 35900 40800 50000 52700 73100 117000 126000 153000 217000
2021-01-16 07:30 16.10 92300 230000 (2016) 34500 (1990) 89800 35900 40800 50000 52700 73100 117000 126000 153000 217000
2021-01-16 07:00 16.10 92300 230000 (2016) 34500 (1990) 89800 35900 40800 50000 52700 73100 117000 126000 153000 217000
2021-01-16 06:30 16.11 91700 230000 (2016) 34500 (1990) 89800 35900 40800 50000 52700 73100 117000 126000 153000 217000
2021-01-16 06:00 16.10 91100 230000 (2016) 34500 (1990) 89800 35900 40800 50000 52700 73100 117000 126000 153000 217000
2021-01-16 05:30 16.09 230000 (2016) 34500 (1990) 89800 35900 40800 50000 52700 73100 117000 126000 153000 217000
2021-01-16 05:00 16.10 90500 230000 (2016) 34500 (1990) 89800 35900 40800 50000 52700 73100 117000 126000 153000 217000
2021-01-16 04:30 16.11 91700 230000 (2016) 34500 (1990) 89800 35900 40800 50000 52700 73100 117000 126000 153000 217000
2021-01-16 04:00 16.12 91000 230000 (2016) 34500 (1990) 89800 35900 40800 50000 52700 73100 117000 126000 153000 217000
2021-01-16 03:30 16.13 230000 (2016) 34500 (1990) 89800 35900 40800 50000 52700 73100 117000 126000 153000 217000
2021-01-16 03:00 16.12 89900 230000 (2016) 34500 (1990) 89800 35900 40800 50000 52700 73100 117000 126000 153000 217000
2021-01-16 02:30 16.12 230000 (2016) 34500 (1990) 89800 35900 40800 50000 52700 73100 117000 126000 153000 217000
2021-01-16 02:00 16.11 89900 230000 (2016) 34500 (1990) 89800 35900 40800 50000 52700 73100 117000 126000 153000 217000
2021-01-16 01:30 16.09 88700 230000 (2016) 34500 (1990) 89800 35900 40800 50000 52700 73100 117000 126000 153000 217000
2021-01-16 01:00 16.11 90500 230000 (2016) 34500 (1990) 89800 35900 40800 50000 52700 73100 117000 126000 153000 217000
2021-01-16 00:30 16.10 89900 230000 (2016) 34500 (1990) 89800 35900 40800 50000 52700 73100 117000 126000 153000 217000
2021-01-16 00:00 16.10 90500 230000 (2016) 34500 (1990) 89800 35900 40800 50000 52700 73100 117000 126000 153000 217000
2021-01-15 23:30 16.08 233000 (2020) 29300 (1990) 89500 30800 41900 55100 55800 72500 113000 120000 170000 229000
2021-01-15 23:00 16.07 233000 (2020) 29300 (1990) 89500 30800 41900 55100 55800 72500 113000 120000 170000 229000
2021-01-15 22:30 16.07 90500 233000 (2020) 29300 (1990) 89500 30800 41900 55100 55800 72500 113000 120000 170000 229000
2021-01-15 22:00 16.07 91100 233000 (2020) 29300 (1990) 89500 30800 41900 55100 55800 72500 113000 120000 170000 229000
2021-01-15 21:30 16.07 91100 233000 (2020) 29300 (1990) 89500 30800 41900 55100 55800 72500 113000 120000 170000 229000
2021-01-15 21:00 16.07 91100 233000 (2020) 29300 (1990) 89500 30800 41900 55100 55800 72500 113000 120000 170000 229000
2021-01-15 20:30 16.07 91700 233000 (2020) 29300 (1990) 89500 30800 41900 55100 55800 72500 113000 120000 170000 229000
2021-01-15 20:00 16.06 91700 233000 (2020) 29300 (1990) 89500 30800 41900 55100 55800 72500 113000 120000 170000 229000
2021-01-15 19:30 16.06 91700 233000 (2020) 29300 (1990) 89500 30800 41900 55100 55800 72500 113000 120000 170000 229000
2021-01-15 19:00 16.08 93500 233000 (2020) 29300 (1990) 89500 30800 41900 55100 55800 72500 113000 120000 170000 229000
2021-01-15 18:30 16.05 91800 233000 (2020) 29300 (1990) 89500 30800 41900 55100 55800 72500 113000 120000 170000 229000
2021-01-15 18:00 16.07 92900 233000 (2020) 29300 (1990) 89500 30800 41900 55100 55800 72500 113000 120000 170000 229000
2021-01-15 17:30 16.08 233000 (2020) 29300 (1990) 89500 30800 41900 55100 55800 72500 113000 120000 170000 229000
2021-01-15 17:00 16.06 92300 233000 (2020) 29300 (1990) 89500 30800 41900 55100 55800 72500 113000 120000 170000 229000
2021-01-15 16:30 16.07 92300 233000 (2020) 29300 (1990) 89500 30800 41900 55100 55800 72500 113000 120000 170000 229000
2021-01-15 16:00 16.08 92900 233000 (2020) 29300 (1990) 89500 30800 41900 55100 55800 72500 113000 120000 170000 229000
2021-01-15 15:30 16.07 92300 233000 (2020) 29300 (1990) 89500 30800 41900 55100 55800 72500 113000 120000 170000 229000
2021-01-15 15:00 16.07 91700 233000 (2020) 29300 (1990) 89500 30800 41900 55100 55800 72500 113000 120000 170000 229000
2021-01-15 14:30 16.08 91700 233000 (2020) 29300 (1990) 89500 30800 41900 55100 55800 72500 113000 120000 170000 229000
2021-01-15 14:00 16.08 90500 233000 (2020) 29300 (1990) 89500 30800 41900 55100 55800 72500 113000 120000 170000 229000
2021-01-15 13:30 16.09 90500 233000 (2020) 29300 (1990) 89500 30800 41900 55100 55800 72500 113000 120000 170000 229000
2021-01-15 13:00 16.09 89900 233000 (2020) 29300 (1990) 89500 30800 41900 55100 55800 72500 113000 120000 170000 229000
2021-01-15 12:30 16.10 91100 233000 (2020) 29300 (1990) 89500 30800 41900 55100 55800 72500 113000 120000 170000 229000
2021-01-15 12:00 16.08 89900 233000 (2020) 29300 (1990) 89500 30800 41900 55100 55800 72500 113000 120000 170000 229000
2021-01-15 11:30 16.10 89900 233000 (2020) 29300 (1990) 89500 30800 41900 55100 55800 72500 113000 120000 170000 229000
2021-01-15 11:00 16.09 89900 233000 (2020) 29300 (1990) 89500 30800 41900 55100 55800 72500 113000 120000 170000 229000
2021-01-15 10:30 16.09 88700 233000 (2020) 29300 (1990) 89500 30800 41900 55100 55800 72500 113000 120000 170000 229000
2021-01-15 10:00 16.07 233000 (2020) 29300 (1990) 89500 30800 41900 55100 55800 72500 113000 120000 170000 229000
2021-01-15 09:30 16.10 89900 233000 (2020) 29300 (1990) 89500 30800 41900 55100 55800 72500 113000 120000 170000 229000
2021-01-15 09:00 16.11 89900 233000 (2020) 29300 (1990) 89500 30800 41900 55100 55800 72500 113000 120000 170000 229000
2021-01-15 08:30 16.11 89300 233000 (2020) 29300 (1990) 89500 30800 41900 55100 55800 72500 113000 120000 170000 229000
2021-01-15 08:00 16.10 87900 233000 (2020) 29300 (1990) 89500 30800 41900 55100 55800 72500 113000 120000 170000 229000
2021-01-15 07:30 16.09 233000 (2020) 29300 (1990) 89500 30800 41900 55100 55800 72500 113000 120000 170000 229000
2021-01-15 07:00 16.10 88700 233000 (2020) 29300 (1990) 89500 30800 41900 55100 55800 72500 113000 120000 170000 229000
2021-01-15 06:30 16.11 89300 233000 (2020) 29300 (1990) 89500 30800 41900 55100 55800 72500 113000 120000 170000 229000
2021-01-15 06:00 16.10 88700 233000 (2020) 29300 (1990) 89500 30800 41900 55100 55800 72500 113000 120000 170000 229000
2021-01-15 05:30 16.11 89300 233000 (2020) 29300 (1990) 89500 30800 41900 55100 55800 72500 113000 120000 170000 229000
2021-01-15 05:00 16.11 87900 233000 (2020) 29300 (1990) 89500 30800 41900 55100 55800 72500 113000 120000 170000 229000
2021-01-15 04:30 16.10 87900 233000 (2020) 29300 (1990) 89500 30800 41900 55100 55800 72500 113000 120000 170000 229000
2021-01-15 04:00 16.10 88700 233000 (2020) 29300 (1990) 89500 30800 41900 55100 55800 72500 113000 120000 170000 229000
2021-01-15 03:30 16.11 89300 233000 (2020) 29300 (1990) 89500 30800 41900 55100 55800 72500 113000 120000 170000 229000
2021-01-15 03:00 16.11 89300 233000 (2020) 29300 (1990) 89500 30800 41900 55100 55800 72500 113000 120000 170000 229000
2021-01-15 02:30 16.12 233000 (2020) 29300 (1990) 89500 30800 41900 55100 55800 72500 113000 120000 170000 229000
2021-01-15 02:00 16.11 87900 233000 (2020) 29300 (1990) 89500 30800 41900 55100 55800 72500 113000 120000 170000 229000
2021-01-15 01:30 16.13 233000 (2020) 29300 (1990) 89500 30800 41900 55100 55800 72500 113000 120000 170000 229000
2021-01-15 01:00 16.13 233000 (2020) 29300 (1990) 89500 30800 41900 55100 55800 72500 113000 120000 170000 229000
2021-01-15 00:30 16.11 233000 (2020) 29300 (1990) 89500 30800 41900 55100 55800 72500 113000 120000 170000 229000
2021-01-15 00:00 16.10 233000 (2020) 29300 (1990) 89500 30800 41900 55100 55800 72500 113000 120000 170000 229000
2021-01-14 23:30 16.09 86500 249000 (2016) 32000 (1990) 91800 34300 38600 50000 54800 78100 115000 120000 195000 245000
2021-01-14 23:00 16.13 249000 (2016) 32000 (1990) 91800 34300 38600 50000 54800 78100 115000 120000 195000 245000
2021-01-14 22:30 16.12 87900 249000 (2016) 32000 (1990) 91800 34300 38600 50000 54800 78100 115000 120000 195000 245000
2021-01-14 22:00 16.11 86500 249000 (2016) 32000 (1990) 91800 34300 38600 50000 54800 78100 115000 120000 195000 245000
2021-01-14 21:30 16.08 249000 (2016) 32000 (1990) 91800 34300 38600 50000 54800 78100 115000 120000 195000 245000
2021-01-14 21:00 16.11 249000 (2016) 32000 (1990) 91800 34300 38600 50000 54800 78100 115000 120000 195000 245000
2021-01-14 20:30 16.11 249000 (2016) 32000 (1990) 91800 34300 38600 50000 54800 78100 115000 120000 195000 245000
2021-01-14 20:00 16.12 88600 249000 (2016) 32000 (1990) 91800 34300 38600 50000 54800 78100 115000 120000 195000 245000
2021-01-14 19:30 16.11 88600 249000 (2016) 32000 (1990) 91800 34300 38600 50000 54800 78100 115000 120000 195000 245000
2021-01-14 19:00 16.14 91000 249000 (2016) 32000 (1990) 91800 34300 38600 50000 54800 78100 115000 120000 195000 245000
2021-01-14 18:30 16.14 249000 (2016) 32000 (1990) 91800 34300 38600 50000 54800 78100 115000 120000 195000 245000
2021-01-14 18:00 16.11 87900 249000 (2016) 32000 (1990) 91800 34300 38600 50000 54800 78100 115000 120000 195000 245000
2021-01-14 17:30 16.13 88600 249000 (2016) 32000 (1990) 91800 34300 38600 50000 54800 78100 115000 120000 195000 245000
2021-01-14 17:00 16.14 249000 (2016) 32000 (1990) 91800 34300 38600 50000 54800 78100 115000 120000 195000 245000
2021-01-14 16:30 16.13 87900 249000 (2016) 32000 (1990) 91800 34300 38600 50000 54800 78100 115000 120000 195000 245000
2021-01-14 16:00 16.12 86400 249000 (2016) 32000 (1990) 91800 34300 38600 50000 54800 78100 115000 120000 195000 245000
2021-01-14 15:30 16.10 83600 249000 (2016) 32000 (1990) 91800 34300 38600 50000 54800 78100 115000 120000 195000 245000
2021-01-14 15:00 16.11 84300 249000 (2016) 32000 (1990) 91800 34300 38600 50000 54800 78100 115000 120000 195000 245000
2021-01-14 14:30 16.12 249000 (2016) 32000 (1990) 91800 34300 38600 50000 54800 78100 115000 120000 195000 245000
2021-01-14 14:00 16.09 85100 249000 (2016) 32000 (1990) 91800 34300 38600 50000 54800 78100 115000 120000 195000 245000
2021-01-14 13:30 16.08 249000 (2016) 32000 (1990) 91800 34300 38600 50000 54800 78100 115000 120000 195000 245000
2021-01-14 13:00 16.09 249000 (2016) 32000 (1990) 91800 34300 38600 50000 54800 78100 115000 120000 195000 245000
2021-01-14 12:30 16.09 90500 249000 (2016) 32000 (1990) 91800 34300 38600 50000 54800 78100 115000 120000 195000 245000
2021-01-14 12:00 16.08 91700 249000 (2016) 32000 (1990) 91800 34300 38600 50000 54800 78100 115000 120000 195000 245000
2021-01-14 11:30 16.07 91700 249000 (2016) 32000 (1990) 91800 34300 38600 50000 54800 78100 115000 120000 195000 245000
2021-01-14 11:00 16.06 91700 249000 (2016) 32000 (1990) 91800 34300 38600 50000 54800 78100 115000 120000 195000 245000
2021-01-14 10:30 16.08 93500 249000 (2016) 32000 (1990) 91800 34300 38600 50000 54800 78100 115000 120000 195000 245000
2021-01-14 10:00 16.08 249000 (2016) 32000 (1990) 91800 34300 38600 50000 54800 78100 115000 120000 195000 245000
2021-01-14 09:30 16.09 93500 249000 (2016) 32000 (1990) 91800 34300 38600 50000 54800 78100 115000 120000 195000 245000
2021-01-14 09:00 16.09 249000 (2016) 32000 (1990) 91800 34300 38600 50000 54800 78100 115000 120000 195000 245000
2021-01-14 08:30 16.09 249000 (2016) 32000 (1990) 91800 34300 38600 50000 54800 78100 115000 120000 195000 245000
2021-01-14 08:00 16.10 249000 (2016) 32000 (1990) 91800 34300 38600 50000 54800 78100 115000 120000 195000 245000
2021-01-14 07:30 16.10 94100 249000 (2016) 32000 (1990) 91800 34300 38600 50000 54800 78100 115000 120000 195000 245000
2021-01-14 07:00 16.11 94600 249000 (2016) 32000 (1990) 91800 34300 38600 50000 54800 78100 115000 120000 195000 245000
2021-01-14 06:30 16.11 94000 249000 (2016) 32000 (1990) 91800 34300 38600 50000 54800 78100 115000 120000 195000 245000
2021-01-14 06:00 16.10 93500 249000 (2016) 32000 (1990) 91800 34300 38600 50000 54800 78100 115000 120000 195000 245000
2021-01-14 05:30 16.11 93400 249000 (2016) 32000 (1990) 91800 34300 38600 50000 54800 78100 115000 120000 195000 245000
2021-01-14 05:00 16.12 249000 (2016) 32000 (1990) 91800 34300 38600 50000 54800 78100 115000 120000 195000 245000
2021-01-14 04:30 16.12 93400 249000 (2016) 32000 (1990) 91800 34300 38600 50000 54800 78100 115000 120000 195000 245000
2021-01-14 04:00 16.12 93400 249000 (2016) 32000 (1990) 91800 34300 38600 50000 54800 78100 115000 120000 195000 245000
2021-01-14 03:30 16.13 94000 249000 (2016) 32000 (1990) 91800 34300 38600 50000 54800 78100 115000 120000 195000 245000
2021-01-14 03:00 16.13 94000 249000 (2016) 32000 (1990) 91800 34300 38600 50000 54800 78100 115000 120000 195000 245000
2021-01-14 02:30 16.13 93400 249000 (2016) 32000 (1990) 91800 34300 38600 50000 54800 78100 115000 120000 195000 245000
2021-01-14 02:00 16.13 93400 249000 (2016) 32000 (1990) 91800 34300 38600 50000 54800 78100 115000 120000 195000 245000
2021-01-14 01:30 16.13 92800 249000 (2016) 32000 (1990) 91800 34300 38600 50000 54800 78100 115000 120000 195000 245000
2021-01-14 01:00 16.11 91700 249000 (2016) 32000 (1990) 91800 34300 38600 50000 54800 78100 115000 120000 195000 245000
2021-01-14 00:30 16.13 92200 249000 (2016) 32000 (1990) 91800 34300 38600 50000 54800 78100 115000 120000 195000 245000
2021-01-14 00:00 16.14 92800 249000 (2016) 32000 (1990) 91800 34300 38600 50000 54800 78100 115000 120000 195000 245000
2021-01-13 23:30 16.13 271000 (2016) 30600 (1990) 92600 34900 41400 47100 53800 67300 114000 117000 191000 253000
2021-01-13 23:00 16.14 92200 271000 (2016) 30600 (1990) 92600 34900 41400 47100 53800 67300 114000 117000 191000 253000
2021-01-13 22:30 16.14 92800 271000 (2016) 30600 (1990) 92600 34900 41400 47100 53800 67300 114000 117000 191000 253000
2021-01-13 22:00 16.14 92800 271000 (2016) 30600 (1990) 92600 34900 41400 47100 53800 67300 114000 117000 191000 253000
2021-01-13 21:30 16.13 92200 271000 (2016) 30600 (1990) 92600 34900 41400 47100 53800 67300 114000 117000 191000 253000
2021-01-13 21:00 16.14 92200 271000 (2016) 30600 (1990) 92600 34900 41400 47100 53800 67300 114000 117000 191000 253000
2021-01-13 20:30 16.14 92200 271000 (2016) 30600 (1990) 92600 34900 41400 47100 53800 67300 114000 117000 191000 253000
2021-01-13 20:00 16.14 92200 271000 (2016) 30600 (1990) 92600 34900 41400 47100 53800 67300 114000 117000 191000 253000
2021-01-13 19:30 16.14 92800 271000 (2016) 30600 (1990) 92600 34900 41400 47100 53800 67300 114000 117000 191000 253000
2021-01-13 19:00 16.15 92800 271000 (2016) 30600 (1990) 92600 34900 41400 47100 53800 67300 114000 117000 191000 253000
2021-01-13 18:30 16.16 93400 271000 (2016) 30600 (1990) 92600 34900 41400 47100 53800 67300 114000 117000 191000 253000
2021-01-13 18:00 16.16 93400 271000 (2016) 30600 (1990) 92600 34900 41400 47100 53800 67300 114000 117000 191000 253000
2021-01-13 17:30 16.16 93400 271000 (2016) 30600 (1990) 92600 34900 41400 47100 53800 67300 114000 117000 191000 253000
2021-01-13 17:00 16.15 92800 271000 (2016) 30600 (1990) 92600 34900 41400 47100 53800 67300 114000 117000 191000 253000
2021-01-13 16:30 16.15 92200 271000 (2016) 30600 (1990) 92600 34900 41400 47100 53800 67300 114000 117000 191000 253000
2021-01-13 16:00 16.16 92800 271000 (2016) 30600 (1990) 92600 34900 41400 47100 53800 67300 114000 117000 191000 253000
2021-01-13 15:30 16.16 92800 271000 (2016) 30600 (1990) 92600 34900 41400 47100 53800 67300 114000 117000 191000 253000
2021-01-13 15:00 16.15 92200 271000 (2016) 30600 (1990) 92600 34900 41400 47100 53800 67300 114000 117000 191000 253000
2021-01-13 14:30 16.15 271000 (2016) 30600 (1990) 92600 34900 41400 47100 53800 67300 114000 117000 191000 253000
2021-01-13 14:00 16.16 92200 271000 (2016) 30600 (1990) 92600 34900 41400 47100 53800 67300 114000 117000 191000 253000
2021-01-13 13:30 16.17 92800 271000 (2016) 30600 (1990) 92600 34900 41400 47100 53800 67300 114000 117000 191000 253000
2021-01-13 13:00 16.16 91600 271000 (2016) 30600 (1990) 92600 34900 41400 47100 53800 67300 114000 117000 191000 253000
2021-01-13 12:30 16.18 92100 271000 (2016) 30600 (1990) 92600 34900 41400 47100 53800 67300 114000 117000 191000 253000
2021-01-13 12:00 16.18 92100 271000 (2016) 30600 (1990) 92600 34900 41400 47100 53800 67300 114000 117000 191000 253000
2021-01-13 11:30 16.18 91000 271000 (2016) 30600 (1990) 92600 34900 41400 47100 53800 67300 114000 117000 191000 253000
2021-01-13 11:00 16.18 91600 271000 (2016) 30600 (1990) 92600 34900 41400 47100 53800 67300 114000 117000 191000 253000
2021-01-13 10:30 16.17 91600 271000 (2016) 30600 (1990) 92600 34900 41400 47100 53800 67300 114000 117000 191000 253000
2021-01-13 10:00 16.17 91600 271000 (2016) 30600 (1990) 92600 34900 41400 47100 53800 67300 114000 117000 191000 253000
2021-01-13 09:30 16.16 91600 271000 (2016) 30600 (1990) 92600 34900 41400 47100 53800 67300 114000 117000 191000 253000
2021-01-13 09:00 16.16 91600 271000 (2016) 30600 (1990) 92600 34900 41400 47100 53800 67300 114000 117000 191000 253000
2021-01-13 08:30 16.16 91600 271000 (2016) 30600 (1990) 92600 34900 41400 47100 53800 67300 114000 117000 191000 253000
2021-01-13 08:00 16.15 91000 271000 (2016) 30600 (1990) 92600 34900 41400 47100 53800 67300 114000 117000 191000 253000
2021-01-13 07:30 16.15 91600 271000 (2016) 30600 (1990) 92600 34900 41400 47100 53800 67300 114000 117000 191000 253000
2021-01-13 07:00 16.15 91600 271000 (2016) 30600 (1990) 92600 34900 41400 47100 53800 67300 114000 117000 191000 253000
2021-01-13 06:30 16.15 92200 271000 (2016) 30600 (1990) 92600 34900 41400 47100 53800 67300 114000 117000 191000 253000
2021-01-13 06:00 16.14 91600 271000 (2016) 30600 (1990) 92600 34900 41400 47100 53800 67300 114000 117000 191000 253000
2021-01-13 05:30 16.14 91600 271000 (2016) 30600 (1990) 92600 34900 41400 47100 53800 67300 114000 117000 191000 253000
2021-01-13 05:00 16.13 91600 271000 (2016) 30600 (1990) 92600 34900 41400 47100 53800 67300 114000 117000 191000 253000
2021-01-13 04:30 16.13 91600 271000 (2016) 30600 (1990) 92600 34900 41400 47100 53800 67300 114000 117000 191000 253000
2021-01-13 04:00 16.11 90500 271000 (2016) 30600 (1990) 92600 34900 41400 47100 53800 67300 114000 117000 191000 253000
2021-01-13 03:30 16.12 91600 271000 (2016) 30600 (1990) 92600 34900 41400 47100 53800 67300 114000 117000 191000 253000
2021-01-13 03:00 16.14 91600 271000 (2016) 30600 (1990) 92600 34900 41400 47100 53800 67300 114000 117000 191000 253000
2021-01-13 02:30 16.13 271000 (2016) 30600 (1990) 92600 34900 41400 47100 53800 67300 114000 117000 191000 253000
2021-01-13 02:00 16.13 91000 271000 (2016) 30600 (1990) 92600 34900 41400 47100 53800 67300 114000 117000 191000 253000
2021-01-13 01:30 16.12 90500 271000 (2016) 30600 (1990) 92600 34900 41400 47100 53800 67300 114000 117000 191000 253000
2021-01-13 01:00 16.10 89300 271000 (2016) 30600 (1990) 92600 34900 41400 47100 53800 67300 114000 117000 191000 253000
2021-01-13 00:30 16.12 90500 271000 (2016) 30600 (1990) 92600 34900 41400 47100 53800 67300 114000 117000 191000 253000
2021-01-13 00:00 16.11 90500 271000 (2016) 30600 (1990) 92600 34900 41400 47100 53800 67300 114000 117000 191000 253000
2021-01-12 23:30 16.13 90400 286000 (2016) 31000 (1989) 93500 31100 36000 51400 52900 74500 118000 121000 175000 259000
2021-01-12 23:00 16.12 89900 286000 (2016) 31000 (1989) 93500 31100 36000 51400 52900 74500 118000 121000 175000 259000
2021-01-12 22:30 16.14 91000 286000 (2016) 31000 (1989) 93500 31100 36000 51400 52900 74500 118000 121000 175000 259000
2021-01-12 22:00 16.13 90400 286000 (2016) 31000 (1989) 93500 31100 36000 51400 52900 74500 118000 121000 175000 259000
2021-01-12 21:30 16.13 90400 286000 (2016) 31000 (1989) 93500 31100 36000 51400 52900 74500 118000 121000 175000 259000
2021-01-12 21:00 16.13 91000 286000 (2016) 31000 (1989) 93500 31100 36000 51400 52900 74500 118000 121000 175000 259000
2021-01-12 20:30 16.13 90400 286000 (2016) 31000 (1989) 93500 31100 36000 51400 52900 74500 118000 121000 175000 259000
2021-01-12 20:00 16.11 89900 286000 (2016) 31000 (1989) 93500 31100 36000 51400 52900 74500 118000 121000 175000 259000
2021-01-12 19:30 16.13 91000 286000 (2016) 31000 (1989) 93500 31100 36000 51400 52900 74500 118000 121000 175000 259000
2021-01-12 19:00 16.14 92200 286000 (2016) 31000 (1989) 93500 31100 36000 51400 52900 74500 118000 121000 175000 259000
2021-01-12 18:30 16.13 90400 286000 (2016) 31000 (1989) 93500 31100 36000 51400 52900 74500 118000 121000 175000 259000
2021-01-12 18:00 16.13 91000 286000 (2016) 31000 (1989) 93500 31100 36000 51400 52900 74500 118000 121000 175000 259000
2021-01-12 17:30 16.12 90500 286000 (2016) 31000 (1989) 93500 31100 36000 51400 52900 74500 118000 121000 175000 259000
2021-01-12 17:00 16.12 91000 286000 (2016) 31000 (1989) 93500 31100 36000 51400 52900 74500 118000 121000 175000 259000
2021-01-12 16:30 16.12 286000 (2016) 31000 (1989) 93500 31100 36000 51400 52900 74500 118000 121000 175000 259000
2021-01-12 16:00 16.12 90500 286000 (2016) 31000 (1989) 93500 31100 36000 51400 52900 74500 118000 121000 175000 259000
2021-01-12 15:30 16.13 91000 286000 (2016) 31000 (1989) 93500 31100 36000 51400 52900 74500 118000 121000 175000 259000
2021-01-12 15:00 16.13 91000 286000 (2016) 31000 (1989) 93500 31100 36000 51400 52900 74500 118000 121000 175000 259000
2021-01-12 14:30 16.13 286000 (2016) 31000 (1989) 93500 31100 36000 51400 52900 74500 118000 121000 175000 259000
2021-01-12 14:00 16.12 91000 286000 (2016) 31000 (1989) 93500 31100 36000 51400 52900 74500 118000 121000 175000 259000
2021-01-12 13:30 16.11 286000 (2016) 31000 (1989) 93500 31100 36000 51400 52900 74500 118000 121000 175000 259000
2021-01-12 13:00 16.12 90500 286000 (2016) 31000 (1989) 93500 31100 36000 51400 52900 74500 118000 121000 175000 259000
2021-01-12 12:30 16.11 286000 (2016) 31000 (1989) 93500 31100 36000 51400 52900 74500 118000 121000 175000 259000
2021-01-12 12:00 16.13 91600 286000 (2016) 31000 (1989) 93500 31100 36000 51400 52900 74500 118000 121000 175000 259000
2021-01-12 11:30 16.12 91600 286000 (2016) 31000 (1989) 93500 31100 36000 51400 52900 74500 118000 121000 175000 259000
2021-01-12 11:00 16.13 92200 286000 (2016) 31000 (1989) 93500 31100 36000 51400 52900 74500 118000 121000 175000 259000
2021-01-12 10:30 16.12 93400 286000 (2016) 31000 (1989) 93500 31100 36000 51400 52900 74500 118000 121000 175000 259000
2021-01-12 10:00 16.12 92200 286000 (2016) 31000 (1989) 93500 31100 36000 51400 52900 74500 118000 121000 175000 259000
2021-01-12 09:30 16.12 91600 286000 (2016) 31000 (1989) 93500 31100 36000 51400 52900 74500 118000 121000 175000 259000
2021-01-12 09:00 16.12 92800 286000 (2016) 31000 (1989) 93500 31100 36000 51400 52900 74500 118000 121000 175000 259000
2021-01-12 08:30 16.11 91700 286000 (2016) 31000 (1989) 93500 31100 36000 51400 52900 74500 118000 121000 175000 259000
2021-01-12 08:00 16.11 91100 286000 (2016) 31000 (1989) 93500 31100 36000 51400 52900 74500 118000 121000 175000 259000
2021-01-12 07:30 16.11 91700 286000 (2016) 31000 (1989) 93500 31100 36000 51400 52900 74500 118000 121000 175000 259000
2021-01-12 07:00 16.11 91700 286000 (2016) 31000 (1989) 93500 31100 36000 51400 52900 74500 118000 121000 175000 259000
2021-01-12 06:30 16.10 91700 286000 (2016) 31000 (1989) 93500 31100 36000 51400 52900 74500 118000 121000 175000 259000
2021-01-12 06:00 16.11 92300 286000 (2016) 31000 (1989) 93500 31100 36000 51400 52900 74500 118000 121000 175000 259000
2021-01-12 05:30 16.11 92300 286000 (2016) 31000 (1989) 93500 31100 36000 51400 52900 74500 118000 121000 175000 259000
2021-01-12 05:00 16.11 92300 286000 (2016) 31000 (1989) 93500 31100 36000 51400 52900 74500 118000 121000 175000 259000
2021-01-12 04:30 16.11 92300 286000 (2016) 31000 (1989) 93500 31100 36000 51400 52900 74500 118000 121000 175000 259000
2021-01-12 04:00 16.10 91700 286000 (2016) 31000 (1989) 93500 31100 36000 51400 52900 74500 118000 121000 175000 259000
2021-01-12 03:30 16.10 91700 286000 (2016) 31000 (1989) 93500 31100 36000 51400 52900 74500 118000 121000 175000 259000
2021-01-12 03:00 16.10 91700 286000 (2016) 31000 (1989) 93500 31100 36000 51400 52900 74500 118000 121000 175000 259000
2021-01-12 02:30 16.10 286000 (2016) 31000 (1989) 93500 31100 36000 51400 52900 74500 118000 121000 175000 259000
2021-01-12 02:00 16.10 91100 286000 (2016) 31000 (1989) 93500 31100 36000 51400 52900 74500 118000 121000 175000 259000
2021-01-12 01:30 16.10 91100 286000 (2016) 31000 (1989) 93500 31100 36000 51400 52900 74500 118000 121000 175000 259000
2021-01-12 01:00 91100 286000 (2016) 31000 (1989) 93500 31100 36000 51400 52900 74500 118000 121000 175000 259000
2021-01-12 00:30 16.10 91100 286000 (2016) 31000 (1989) 93500 31100 36000 51400 52900 74500 118000 121000 175000 259000
2021-01-12 00:00 16.10 91100 286000 (2016) 31000 (1989) 93500 31100 36000 51400 52900 74500 118000 121000 175000 259000
2021-01-11 23:30 16.09 90500 289000 (2016) 33500 (1990) 94100 33600 39500 45000 52600 76400 121000 130000 176000 249000
2021-01-11 23:00 16.09 90500 289000 (2016) 33500 (1990) 94100 33600 39500 45000 52600 76400 121000 130000 176000 249000
2021-01-11 22:30 16.09 90500 289000 (2016) 33500 (1990) 94100 33600 39500 45000 52600 76400 121000 130000 176000 249000
2021-01-11 22:00 16.10 91700 289000 (2016) 33500 (1990) 94100 33600 39500 45000 52600 76400 121000 130000 176000 249000
2021-01-11 21:30 16.09 91100 289000 (2016) 33500 (1990) 94100 33600 39500 45000 52600 76400 121000 130000 176000 249000
2021-01-11 21:00 16.07 90500 289000 (2016) 33500 (1990) 94100 33600 39500 45000 52600 76400 121000 130000 176000 249000
2021-01-11 20:30 16.09 289000 (2016) 33500 (1990) 94100 33600 39500 45000 52600 76400 121000 130000 176000 249000
2021-01-11 20:00 16.09 92300 289000 (2016) 33500 (1990) 94100 33600 39500 45000 52600 76400 121000 130000 176000 249000
2021-01-11 19:30 16.08 90500 289000 (2016) 33500 (1990) 94100 33600 39500 45000 52600 76400 121000 130000 176000 249000
2021-01-11 19:00 16.09 91100 289000 (2016) 33500 (1990) 94100 33600 39500 45000 52600 76400 121000 130000 176000 249000
2021-01-11 18:30 16.09 90500 289000 (2016) 33500 (1990) 94100 33600 39500 45000 52600 76400 121000 130000 176000 249000
2021-01-11 18:00 16.09 90500 289000 (2016) 33500 (1990) 94100 33600 39500 45000 52600 76400 121000 130000 176000 249000
2021-01-11 17:30 16.08 89900 289000 (2016) 33500 (1990) 94100 33600 39500 45000 52600 76400 121000 130000 176000 249000
2021-01-11 17:00 16.08 89900 289000 (2016) 33500 (1990) 94100 33600 39500 45000 52600 76400 121000 130000 176000 249000
2021-01-11 16:30 16.09 90500 289000 (2016) 33500 (1990) 94100 33600 39500 45000 52600 76400 121000 130000 176000 249000
2021-01-11 16:00 16.08 289000 (2016) 33500 (1990) 94100 33600 39500 45000 52600 76400 121000 130000 176000 249000
2021-01-11 15:30 16.08 90500 289000 (2016) 33500 (1990) 94100 33600 39500 45000 52600 76400 121000 130000 176000 249000
2021-01-11 15:00 16.07 90500 289000 (2016) 33500 (1990) 94100 33600 39500 45000 52600 76400 121000 130000 176000 249000
2021-01-11 14:30 16.08 91100 289000 (2016) 33500 (1990) 94100 33600 39500 45000 52600 76400 121000 130000 176000 249000
2021-01-11 14:00 16.07 289000 (2016) 33500 (1990) 94100 33600 39500 45000 52600 76400 121000 130000 176000 249000
2021-01-11 13:30 16.06 90500 289000 (2016) 33500 (1990) 94100 33600 39500 45000 52600 76400 121000 130000 176000 249000
2021-01-11 13:00 16.06 90500 289000 (2016) 33500 (1990) 94100 33600 39500 45000 52600 76400 121000 130000 176000 249000
2021-01-11 12:30 16.04 90000 289000 (2016) 33500 (1990) 94100 33600 39500 45000 52600 76400 121000 130000 176000 249000
2021-01-11 12:00 16.03 90000 289000 (2016) 33500 (1990) 94100 33600 39500 45000 52600 76400 121000 130000 176000 249000
2021-01-11 11:30 16.04 90600 289000 (2016) 33500 (1990) 94100 33600 39500 45000 52600 76400 121000 130000 176000 249000
2021-01-11 11:00 16.05 91800 289000 (2016) 33500 (1990) 94100 33600 39500 45000 52600 76400 121000 130000 176000 249000
2021-01-11 10:30 16.05 91200 289000 (2016) 33500 (1990) 94100 33600 39500 45000 52600 76400 121000 130000 176000 249000
2021-01-11 10:00 16.05 91200 289000 (2016) 33500 (1990) 94100 33600 39500 45000 52600 76400 121000 130000 176000 249000
2021-01-11 09:30 16.05 91200 289000 (2016) 33500 (1990) 94100 33600 39500 45000 52600 76400 121000 130000 176000 249000
2021-01-11 09:00 16.05 289000 (2016) 33500 (1990) 94100 33600 39500 45000 52600 76400 121000 130000 176000 249000
2021-01-11 08:30 16.05 91200 289000 (2016) 33500 (1990) 94100 33600 39500 45000 52600 76400 121000 130000 176000 249000
2021-01-11 08:00 16.05 289000 (2016) 33500 (1990) 94100 33600 39500 45000 52600 76400 121000 130000 176000 249000
2021-01-11 07:30 16.05 91200 289000 (2016) 33500 (1990) 94100 33600 39500 45000 52600 76400 121000 130000 176000 249000
2021-01-11 07:00 16.07 92300 289000 (2016) 33500 (1990) 94100 33600 39500 45000 52600 76400 121000 130000 176000 249000
2021-01-11 06:30 16.07 91700 289000 (2016) 33500 (1990) 94100 33600 39500 45000 52600 76400 121000 130000 176000 249000
2021-01-11 06:00 16.07 289000 (2016) 33500 (1990) 94100 33600 39500 45000 52600 76400 121000 130000 176000 249000
2021-01-11 05:30 16.08 92300 289000 (2016) 33500 (1990) 94100 33600 39500 45000 52600 76400 121000 130000 176000 249000
2021-01-11 05:00 16.08 289000 (2016) 33500 (1990) 94100 33600 39500 45000 52600 76400 121000 130000 176000 249000
2021-01-11 04:30 16.07 91100 289000 (2016) 33500 (1990) 94100 33600 39500 45000 52600 76400 121000 130000 176000 249000
2021-01-11 04:00 16.08 91700 289000 (2016) 33500 (1990) 94100 33600 39500 45000 52600 76400 121000 130000 176000 249000
2021-01-11 03:30 16.07 89900 289000 (2016) 33500 (1990) 94100 33600 39500 45000 52600 76400 121000 130000 176000 249000
2021-01-11 03:00 16.07 89900 289000 (2016) 33500 (1990) 94100 33600 39500 45000 52600 76400 121000 130000 176000 249000
2021-01-11 02:30 16.08 91100 289000 (2016) 33500 (1990) 94100 33600 39500 45000 52600 76400 121000 130000 176000 249000
2021-01-11 02:00 16.08 91100 289000 (2016) 33500 (1990) 94100 33600 39500 45000 52600 76400 121000 130000 176000 249000
2021-01-11 01:30 16.08 91100 289000 (2016) 33500 (1990) 94100 33600 39500 45000 52600 76400 121000 130000 176000 249000
2021-01-11 01:00 16.08 91100 289000 (2016) 33500 (1990) 94100 33600 39500 45000 52600 76400 121000 130000 176000 249000
2021-01-11 00:30 16.07 91100 289000 (2016) 33500 (1990) 94100 33600 39500 45000 52600 76400 121000 130000 176000 249000
2021-01-11 00:00 16.06 289000 (2016) 33500 (1990) 94100 33600 39500 45000 52600 76400 121000 130000 176000 249000
2021-01-10 23:30 16.07 91700 286000 (2016) 32500 (2004) 91900 36000 38200 43800 47700 69500 129000 136000 178000 216000
2021-01-10 23:00 16.05 286000 (2016) 32500 (2004) 91900 36000 38200 43800 47700 69500 129000 136000 178000 216000
2021-01-10 22:30 16.05 92400 286000 (2016) 32500 (2004) 91900 36000 38200 43800 47700 69500 129000 136000 178000 216000
2021-01-10 22:00 16.03 286000 (2016) 32500 (2004) 91900 36000 38200 43800 47700 69500 129000 136000 178000 216000
2021-01-10 21:30 16.01 91900 286000 (2016) 32500 (2004) 91900 36000 38200 43800 47700 69500 129000 136000 178000 216000
2021-01-10 21:00 16.00 286000 (2016) 32500 (2004) 91900 36000 38200 43800 47700 69500 129000 136000 178000 216000
2021-01-10 20:30 16.01 93700 286000 (2016) 32500 (2004) 91900 36000 38200 43800 47700 69500 129000 136000 178000 216000
2021-01-10 20:00 16.00 93100 286000 (2016) 32500 (2004) 91900 36000 38200 43800 47700 69500 129000 136000 178000 216000
2021-01-10 19:30 16.00 93100 286000 (2016) 32500 (2004) 91900 36000 38200 43800 47700 69500 129000 136000 178000 216000
2021-01-10 19:00 16.01 94300 286000 (2016) 32500 (2004) 91900 36000 38200 43800 47700 69500 129000 136000 178000 216000
2021-01-10 18:30 16.00 93700 286000 (2016) 32500 (2004) 91900 36000 38200 43800 47700 69500 129000 136000 178000 216000
2021-01-10 18:00 16.00 286000 (2016) 32500 (2004) 91900 36000 38200 43800 47700 69500 129000 136000 178000 216000
2021-01-10 17:30 15.99 93600 286000 (2016) 32500 (2004) 91900 36000 38200 43800 47700 69500 129000 136000 178000 216000
2021-01-10 17:00 15.99 286000 (2016) 32500 (2004) 91900 36000 38200 43800 47700 69500 129000 136000 178000 216000
2021-01-10 16:30 15.99 94200 286000 (2016) 32500 (2004) 91900 36000 38200 43800 47700 69500 129000 136000 178000 216000
2021-01-10 16:00 15.98 93600 286000 (2016) 32500 (2004) 91900 36000 38200 43800 47700 69500 129000 136000 178000 216000
2021-01-10 15:30 15.98 93000 286000 (2016) 32500 (2004) 91900 36000 38200 43800 47700 69500 129000 136000 178000 216000
2021-01-10 15:00 15.97 92300 286000 (2016) 32500 (2004) 91900 36000 38200 43800 47700 69500 129000 136000 178000 216000
2021-01-10 14:30 15.97 92300 286000 (2016) 32500 (2004) 91900 36000 38200 43800 47700 69500 129000 136000 178000 216000
2021-01-10 14:00 15.97 93500 286000 (2016) 32500 (2004) 91900 36000 38200 43800 47700 69500 129000 136000 178000 216000
2021-01-10 13:30 15.96 92800 286000 (2016) 32500 (2004) 91900 36000 38200 43800 47700 69500 129000 136000 178000 216000
2021-01-10 13:00 15.95 286000 (2016) 32500 (2004) 91900 36000 38200 43800 47700 69500 129000 136000 178000 216000
2021-01-10 12:30 15.95 92200 286000 (2016) 32500 (2004) 91900 36000 38200 43800 47700 69500 129000 136000 178000 216000
2021-01-10 12:00 15.95 92200 286000 (2016) 32500 (2004) 91900 36000 38200 43800 47700 69500 129000 136000 178000 216000
2021-01-10 11:30 15.96 93400 286000 (2016) 32500 (2004) 91900 36000 38200 43800 47700 69500 129000 136000 178000 216000
2021-01-10 11:00 15.97 286000 (2016) 32500 (2004) 91900 36000 38200 43800 47700 69500 129000 136000 178000 216000
2021-01-10 10:30 15.91 286000 (2016) 32500 (2004) 91900 36000 38200 43800 47700 69500 129000 136000 178000 216000
2021-01-10 10:00 15.95 93400 286000 (2016) 32500 (2004) 91900 36000 38200 43800 47700 69500 129000 136000 178000 216000
2021-01-10 09:30 15.95 94000 286000 (2016) 32500 (2004) 91900 36000 38200 43800 47700 69500 129000 136000 178000 216000
2021-01-10 09:00 15.96 94000 286000 (2016) 32500 (2004) 91900 36000 38200 43800 47700 69500 129000 136000 178000 216000
2021-01-10 08:30 15.93 92600 286000 (2016) 32500 (2004) 91900 36000 38200 43800 47700 69500 129000 136000 178000 216000
2021-01-10 08:00 15.94 93300 286000 (2016) 32500 (2004) 91900 36000 38200 43800 47700 69500 129000 136000 178000 216000
2021-01-10 07:30 15.95 94600 286000 (2016) 32500 (2004) 91900 36000 38200 43800 47700 69500 129000 136000 178000 216000
2021-01-10 07:00 15.95 286000 (2016) 32500 (2004) 91900 36000 38200 43800 47700 69500 129000 136000 178000 216000
2021-01-10 06:30 15.94 93300 286000 (2016) 32500 (2004) 91900 36000 38200 43800 47700 69500 129000 136000 178000 216000
2021-01-10 06:00 15.94 286000 (2016) 32500 (2004) 91900 36000 38200 43800 47700 69500 129000 136000 178000 216000
2021-01-10 05:30 15.93 93800 286000 (2016) 32500 (2004) 91900 36000 38200 43800 47700 69500 129000 136000 178000 216000
2021-01-10 05:00 15.93 93800 286000 (2016) 32500 (2004) 91900 36000 38200 43800 47700 69500 129000 136000 178000 216000
2021-01-10 04:30 15.93 93800 286000 (2016) 32500 (2004) 91900 36000 38200 43800 47700 69500 129000 136000 178000 216000
2021-01-10 04:00 15.93 94400 286000 (2016) 32500 (2004) 91900 36000 38200 43800 47700 69500 129000 136000 178000 216000
2021-01-10 03:30 15.92 93800 286000 (2016) 32500 (2004) 91900 36000 38200 43800 47700 69500 129000 136000 178000 216000
2021-01-10 03:00 15.90 286000 (2016) 32500 (2004) 91900 36000 38200 43800 47700 69500 129000 136000 178000 216000
2021-01-10 02:30 15.92 95600 286000 (2016) 32500 (2004) 91900 36000 38200 43800 47700 69500 129000 136000 178000 216000
2021-01-10 02:00 15.93 95600 286000 (2016) 32500 (2004) 91900 36000 38200 43800 47700 69500 129000 136000 178000 216000
2021-01-10 01:00 15.93 93800 286000 (2016) 32500 (2004) 91900 36000 38200 43800 47700 69500 129000 136000 178000 216000
2021-01-10 00:00 15.94 286000 (2016) 32500 (2004) 91900 36000 38200 43800 47700 69500 129000 136000 178000 216000
2021-01-09 23:30 15.95 95800 288000 (2016) 36000 (2013) 94300 37300 38300 46100 48700 66400 124000 142000 186000 219000
2021-01-09 23:00 15.94 93900 288000 (2016) 36000 (2013) 94300 37300 38300 46100 48700 66400 124000 142000 186000 219000
2021-01-09 21:00 15.96 94000 288000 (2016) 36000 (2013) 94300 37300 38300 46100 48700 66400 124000 142000 186000 219000
2021-01-09 20:30 15.97 94100 288000 (2016) 36000 (2013) 94300 37300 38300 46100 48700 66400 124000 142000 186000 219000
2021-01-09 20:00 15.97 94700 288000 (2016) 36000 (2013) 94300 37300 38300 46100 48700 66400 124000 142000 186000 219000
2021-01-09 19:30 15.97 94100 288000 (2016) 36000 (2013) 94300 37300 38300 46100 48700 66400 124000 142000 186000 219000
2021-01-09 19:00 15.97 94100 288000 (2016) 36000 (2013) 94300 37300 38300 46100 48700 66400 124000 142000 186000 219000
2021-01-09 18:30 93500 288000 (2016) 36000 (2013) 94300 37300 38300 46100 48700 66400 124000 142000 186000 219000
2021-01-09 18:00 15.98 288000 (2016) 36000 (2013) 94300 37300 38300 46100 48700 66400 124000 142000 186000 219000
2021-01-09 17:30 15.97 288000 (2016) 36000 (2013) 94300 37300 38300 46100 48700 66400 124000 142000 186000 219000
2021-01-09 17:00 15.99 94200 288000 (2016) 36000 (2013) 94300 37300 38300 46100 48700 66400 124000 142000 186000 219000
2021-01-09 16:30 16.00 94900 288000 (2016) 36000 (2013) 94300 37300 38300 46100 48700 66400 124000 142000 186000 219000
2021-01-09 16:00 15.99 94200 288000 (2016) 36000 (2013) 94300 37300 38300 46100 48700 66400 124000 142000 186000 219000
2021-01-09 15:30 15.99 94200 288000 (2016) 36000 (2013) 94300 37300 38300 46100 48700 66400 124000 142000 186000 219000
2021-01-09 15:00 15.99 94200 288000 (2016) 36000 (2013) 94300 37300 38300 46100 48700 66400 124000 142000 186000 219000
2021-01-09 14:30 16.00 94900 288000 (2016) 36000 (2013) 94300 37300 38300 46100 48700 66400 124000 142000 186000 219000
2021-01-09 14:00 16.00 94300 288000 (2016) 36000 (2013) 94300 37300 38300 46100 48700 66400 124000 142000 186000 219000
2021-01-09 13:30 16.00 94300 288000 (2016) 36000 (2013) 94300 37300 38300 46100 48700 66400 124000 142000 186000 219000
2021-01-09 13:00 16.01 288000 (2016) 36000 (2013) 94300 37300 38300 46100 48700 66400 124000 142000 186000 219000
2021-01-09 12:30 16.01 94900 288000 (2016) 36000 (2013) 94300 37300 38300 46100 48700 66400 124000 142000 186000 219000
2021-01-09 12:00 16.01 94300 288000 (2016) 36000 (2013) 94300 37300 38300 46100 48700 66400 124000 142000 186000 219000
2021-01-09 11:30 94900 288000 (2016) 36000 (2013) 94300 37300 38300 46100 48700 66400 124000 142000 186000 219000
2021-01-09 11:00 16.01 288000 (2016) 36000 (2013) 94300 37300 38300 46100 48700 66400 124000 142000 186000 219000
2021-01-09 10:30 16.01 94300 288000 (2016) 36000 (2013) 94300 37300 38300 46100 48700 66400 124000 142000 186000 219000
2021-01-09 10:00 16.01 288000 (2016) 36000 (2013) 94300 37300 38300 46100 48700 66400 124000 142000 186000 219000
2021-01-09 09:30 16.03 95400 288000 (2016) 36000 (2013) 94300 37300 38300 46100 48700 66400 124000 142000 186000 219000
2021-01-09 09:00 16.02 94200 288000 (2016) 36000 (2013) 94300 37300 38300 46100 48700 66400 124000 142000 186000 219000
2021-01-09 08:30 16.02 94200 288000 (2016) 36000 (2013) 94300 37300 38300 46100 48700 66400 124000 142000 186000 219000
2021-01-09 08:00 16.03 94200 288000 (2016) 36000 (2013) 94300 37300 38300 46100 48700 66400 124000 142000 186000 219000
2021-01-09 07:30 16.03 94200 288000 (2016) 36000 (2013) 94300 37300 38300 46100 48700 66400 124000 142000 186000 219000
2021-01-09 07:00 16.02 93600 288000 (2016) 36000 (2013) 94300 37300 38300 46100 48700 66400 124000 142000 186000 219000
2021-01-09 06:30 16.03 94200 288000 (2016) 36000 (2013) 94300 37300 38300 46100 48700 66400 124000 142000 186000 219000
2021-01-09 06:00 16.03 94200 288000 (2016) 36000 (2013) 94300 37300 38300 46100 48700 66400 124000 142000 186000 219000
2021-01-09 05:30 16.04 94800 288000 (2016) 36000 (2013) 94300 37300 38300 46100 48700 66400 124000 142000 186000 219000
2021-01-09 05:00 16.05 96000 288000 (2016) 36000 (2013) 94300 37300 38300 46100 48700 66400 124000 142000 186000 219000
2021-01-09 04:30 16.05 94800 288000 (2016) 36000 (2013) 94300 37300 38300 46100 48700 66400 124000 142000 186000 219000
2021-01-09 04:00 16.03 288000 (2016) 36000 (2013) 94300 37300 38300 46100 48700 66400 124000 142000 186000 219000
2021-01-09 03:30 16.06 288000 (2016) 36000 (2013) 94300 37300 38300 46100 48700 66400 124000 142000 186000 219000
2021-01-09 03:00 16.06 288000 (2016) 36000 (2013) 94300 37300 38300 46100 48700 66400 124000 142000 186000 219000
2021-01-09 02:30 16.06 94700 288000 (2016) 36000 (2013) 94300 37300 38300 46100 48700 66400 124000 142000 186000 219000
2021-01-09 02:00 16.05 93000 288000 (2016) 36000 (2013) 94300 37300 38300 46100 48700 66400 124000 142000 186000 219000
2021-01-09 01:30 16.06 93500 288000 (2016) 36000 (2013) 94300 37300 38300 46100 48700 66400 124000 142000 186000 219000
2021-01-09 01:00 16.07 94100 288000 (2016) 36000 (2013) 94300 37300 38300 46100 48700 66400 124000 142000 186000 219000
2021-01-09 00:30 16.06 93500 288000 (2016) 36000 (2013) 94300 37300 38300 46100 48700 66400 124000 142000 186000 219000
2021-01-09 00:00 16.06 92900 288000 (2016) 36000 (2013) 94300 37300 38300 46100 48700 66400 124000 142000 186000 219000
2021-01-08 23:30 16.06 92900 298000 (2016) 33400 (2013) 94500 37000 40300 46600 48700 73100 124000 127000 193000 225000
2021-01-08 23:00 16.05 298000 (2016) 33400 (2013) 94500 37000 40300 46600 48700 73100 124000 127000 193000 225000
2021-01-08 22:30 16.07 94100 298000 (2016) 33400 (2013) 94500 37000 40300 46600 48700 73100 124000 127000 193000 225000
2021-01-08 22:00 16.08 94700 298000 (2016) 33400 (2013) 94500 37000 40300 46600 48700 73100 124000 127000 193000 225000
2021-01-08 21:30 16.09 94100 298000 (2016) 33400 (2013) 94500 37000 40300 46600 48700 73100 124000 127000 193000 225000
2021-01-08 21:00 16.10 94100 298000 (2016) 33400 (2013) 94500 37000 40300 46600 48700 73100 124000 127000 193000 225000
2021-01-08 20:30 16.08 92900 298000 (2016) 33400 (2013) 94500 37000 40300 46600 48700 73100 124000 127000 193000 225000
2021-01-08 20:00 16.12 95200 298000 (2016) 33400 (2013) 94500 37000 40300 46600 48700 73100 124000 127000 193000 225000
2021-01-08 19:30 16.12 94000 298000 (2016) 33400 (2013) 94500 37000 40300 46600 48700 73100 124000 127000 193000 225000
2021-01-08 19:00 16.14 94600 298000 (2016) 33400 (2013) 94500 37000 40300 46600 48700 73100 124000 127000 193000 225000
2021-01-08 18:30 16.13 93400 298000 (2016) 33400 (2013) 94500 37000 40300 46600 48700 73100 124000 127000 193000 225000
2021-01-08 18:00 16.14 93400 298000 (2016) 33400 (2013) 94500 37000 40300 46600 48700 73100 124000 127000 193000 225000
2021-01-08 17:30 16.15 94000 298000 (2016) 33400 (2013) 94500 37000 40300 46600 48700 73100 124000 127000 193000 225000
2021-01-08 17:00 16.15 94000 298000 (2016) 33400 (2013) 94500 37000 40300 46600 48700 73100 124000 127000 193000 225000
2021-01-08 16:30 16.17 298000 (2016) 33400 (2013) 94500 37000 40300 46600 48700 73100 124000 127000 193000 225000
2021-01-08 16:00 16.18 93300 298000 (2016) 33400 (2013) 94500 37000 40300 46600 48700 73100 124000 127000 193000 225000
2021-01-08 15:30 16.19 93300 298000 (2016) 33400 (2013) 94500 37000 40300 46600 48700 73100 124000 127000 193000 225000
2021-01-08 15:00 16.19 92700 298000 (2016) 33400 (2013) 94500 37000 40300 46600 48700 73100 124000 127000 193000 225000
2021-01-08 14:30 16.19 92100 298000 (2016) 33400 (2013) 94500 37000 40300 46600 48700 73100 124000 127000 193000 225000
2021-01-08 14:00 16.20 92700 298000 (2016) 33400 (2013) 94500 37000 40300 46600 48700 73100 124000 127000 193000 225000
2021-01-08 13:30 16.20 92700 298000 (2016) 33400 (2013) 94500 37000 40300 46600 48700 73100 124000 127000 193000 225000
2021-01-08 13:00 16.22 93300 298000 (2016) 33400 (2013) 94500 37000 40300 46600 48700 73100 124000 127000 193000 225000
2021-01-08 12:30 16.22 93300 298000 (2016) 33400 (2013) 94500 37000 40300 46600 48700 73100 124000 127000 193000 225000
2021-01-08 12:00 16.23 93200 298000 (2016) 33400 (2013) 94500 37000 40300 46600 48700 73100 124000 127000 193000 225000
2021-01-08 11:30 16.21 91500 298000 (2016) 33400 (2013) 94500 37000 40300 46600 48700 73100 124000 127000 193000 225000
2021-01-08 11:00 16.24 92600 298000 (2016) 33400 (2013) 94500 37000 40300 46600 48700 73100 124000 127000 193000 225000
2021-01-08 10:30 16.25 92600 298000 (2016) 33400 (2013) 94500 37000 40300 46600 48700 73100 124000 127000 193000 225000
2021-01-08 10:00 16.26 93200 298000 (2016) 33400 (2013) 94500 37000 40300 46600 48700 73100 124000 127000 193000 225000
2021-01-08 09:30 16.27 93200 298000 (2016) 33400 (2013) 94500 37000 40300 46600 48700 73100 124000 127000 193000 225000
2021-01-08 09:00 16.29 298000 (2016) 33400 (2013) 94500 37000 40300 46600 48700 73100 124000 127000 193000 225000
2021-01-08 08:30 16.30 93100 298000 (2016) 33400 (2013) 94500 37000 40300 46600 48700 73100 124000 127000 193000 225000
2021-01-08 08:00 16.29 92000 298000 (2016) 33400 (2013) 94500 37000 40300 46600 48700 73100 124000 127000 193000 225000
2021-01-08 07:30 16.30 92000 298000 (2016) 33400 (2013) 94500 37000 40300 46600 48700 73100 124000 127000 193000 225000
2021-01-08 07:00 16.30 91400 298000 (2016) 33400 (2013) 94500 37000 40300 46600 48700 73100 124000 127000 193000 225000
2021-01-08 06:30 16.31 92000 298000 (2016) 33400 (2013) 94500 37000 40300 46600 48700 73100 124000 127000 193000 225000
2021-01-08 06:00 16.31 92000 298000 (2016) 33400 (2013) 94500 37000 40300 46600 48700 73100 124000 127000 193000 225000
2021-01-08 05:30 16.32 92000 298000 (2016) 33400 (2013) 94500 37000 40300 46600 48700 73100 124000 127000 193000 225000
2021-01-08 05:00 16.34 92500 298000 (2016) 33400 (2013) 94500 37000 40300 46600 48700 73100 124000 127000 193000 225000
2021-01-08 04:30 16.35 92500 298000 (2016) 33400 (2013) 94500 37000 40300 46600 48700 73100 124000 127000 193000 225000
2021-01-08 04:00 16.39 298000 (2016) 33400 (2013) 94500 37000 40300 46600 48700 73100 124000 127000 193000 225000
2021-01-08 03:30 16.35 90800 298000 (2016) 33400 (2013) 94500 37000 40300 46600 48700 73100 124000 127000 193000 225000
2021-01-08 03:00 16.39 91900 298000 (2016) 33400 (2013) 94500 37000 40300 46600 48700 73100 124000 127000 193000 225000
2021-01-08 02:30 16.38 92500 298000 (2016) 33400 (2013) 94500 37000 40300 46600 48700 73100 124000 127000 193000 225000
2021-01-08 02:00 16.37 298000 (2016) 33400 (2013) 94500 37000 40300 46600 48700 73100 124000 127000 193000 225000
2021-01-08 01:30 16.36 90800 298000 (2016) 33400 (2013) 94500 37000 40300 46600 48700 73100 124000 127000 193000 225000
2021-01-08 01:00 16.35 90800 298000 (2016) 33400 (2013) 94500 37000 40300 46600 48700 73100 124000 127000 193000 225000
2021-01-08 00:30 16.36 91900 298000 (2016) 33400 (2013) 94500 37000 40300 46600 48700 73100 124000 127000 193000 225000
2021-01-08 00:00 16.35 91900 298000 (2016) 33400 (2013) 94500 37000 40300 46600 48700 73100 124000 127000 193000 225000
2021-01-07 23:30 16.35 313000 (2016) 31900 (2013) 94700 33900 39900 43200 47100 79100 124000 132000 196000 236000
2021-01-07 23:00 16.33 313000 (2016) 31900 (2013) 94700 33900 39900 43200 47100 79100 124000 132000 196000 236000
2021-01-07 22:30 16.36 91300 313000 (2016) 31900 (2013) 94700 33900 39900 43200 47100 79100 124000 132000 196000 236000
2021-01-07 22:00 16.35 313000 (2016) 31900 (2013) 94700 33900 39900 43200 47100 79100 124000 132000 196000 236000
2021-01-07 21:30 16.34 90800 313000 (2016) 31900 (2013) 94700 33900 39900 43200 47100 79100 124000 132000 196000 236000
2021-01-07 21:00 16.34 90800 313000 (2016) 31900 (2013) 94700 33900 39900 43200 47100 79100 124000 132000 196000 236000
2021-01-07 20:30 16.33 90200 313000 (2016) 31900 (2013) 94700 33900 39900 43200 47100 79100 124000 132000 196000 236000
2021-01-07 20:00 16.32 90200 313000 (2016) 31900 (2013) 94700 33900 39900 43200 47100 79100 124000 132000 196000 236000
2021-01-07 19:30 16.33 91400 313000 (2016) 31900 (2013) 94700 33900 39900 43200 47100 79100 124000 132000 196000 236000
2021-01-07 19:00 16.33 91400 313000 (2016) 31900 (2013) 94700 33900 39900 43200 47100 79100 124000 132000 196000 236000
2021-01-07 18:30 16.32 90800 313000 (2016) 31900 (2013) 94700 33900 39900 43200 47100 79100 124000 132000 196000 236000
2021-01-07 18:00 16.31 90200 313000 (2016) 31900 (2013) 94700 33900 39900 43200 47100 79100 124000 132000 196000 236000
2021-01-07 17:30 16.33 90800 313000 (2016) 31900 (2013) 94700 33900 39900 43200 47100 79100 124000 132000 196000 236000
2021-01-07 17:00 16.34 91400 313000 (2016) 31900 (2013) 94700 33900 39900 43200 47100 79100 124000 132000 196000 236000
2021-01-07 16:30 16.33 90200 313000 (2016) 31900 (2013) 94700 33900 39900 43200 47100 79100 124000 132000 196000 236000
2021-01-07 16:00 16.34 90800 313000 (2016) 31900 (2013) 94700 33900 39900 43200 47100 79100 124000 132000 196000 236000
2021-01-07 15:30 16.34 90800 313000 (2016) 31900 (2013) 94700 33900 39900 43200 47100 79100 124000 132000 196000 236000
2021-01-07 15:00 16.35 313000 (2016) 31900 (2013) 94700 33900 39900 43200 47100 79100 124000 132000 196000 236000
2021-01-07 14:30 16.36 91900 313000 (2016) 31900 (2013) 94700 33900 39900 43200 47100 79100 124000 132000 196000 236000
2021-01-07 14:00 16.36 91300 313000 (2016) 31900 (2013) 94700 33900 39900 43200 47100 79100 124000 132000 196000 236000
2021-01-07 13:30 16.36 91300 313000 (2016) 31900 (2013) 94700 33900 39900 43200 47100 79100 124000 132000 196000 236000
2021-01-07 13:00 16.36 91300 313000 (2016) 31900 (2013) 94700 33900 39900 43200 47100 79100 124000 132000 196000 236000
2021-01-07 12:30 16.35 90800 313000 (2016) 31900 (2013) 94700 33900 39900 43200 47100 79100 124000 132000 196000 236000
2021-01-07 12:00 16.33 313000 (2016) 31900 (2013) 94700 33900 39900 43200 47100 79100 124000 132000 196000 236000
2021-01-07 11:30 16.36 91300 313000 (2016) 31900 (2013) 94700 33900 39900 43200 47100 79100 124000 132000 196000 236000
2021-01-07 11:00 16.36 91300 313000 (2016) 31900 (2013) 94700 33900 39900 43200 47100 79100 124000 132000 196000 236000
2021-01-07 10:30 16.36 313000 (2016) 31900 (2013) 94700 33900 39900 43200 47100 79100 124000 132000 196000 236000
2021-01-07 10:00 16.36 90800 313000 (2016) 31900 (2013) 94700 33900 39900 43200 47100 79100 124000 132000 196000 236000
2021-01-07 09:30 16.35 90100 313000 (2016) 31900 (2013) 94700 33900 39900 43200 47100 79100 124000 132000 196000 236000
2021-01-07 09:00 16.35 90800 313000 (2016) 31900 (2013) 94700 33900 39900 43200 47100 79100 124000 132000 196000 236000
2021-01-07 08:30 16.37 313000 (2016) 31900 (2013) 94700 33900 39900 43200 47100 79100 124000 132000 196000 236000
2021-01-07 08:00 16.35 90800 313000 (2016) 31900 (2013) 94700 33900 39900 43200 47100 79100 124000 132000 196000 236000
2021-01-07 07:30 16.34 89400 313000 (2016) 31900 (2013) 94700 33900 39900 43200 47100 79100 124000 132000 196000 236000
2021-01-07 07:00 16.31 313000 (2016) 31900 (2013) 94700 33900 39900 43200 47100 79100 124000 132000 196000 236000
2021-01-07 06:30 16.32 90200 313000 (2016) 31900 (2013) 94700 33900 39900 43200 47100 79100 124000 132000 196000 236000
2021-01-07 06:00 16.28 313000 (2016) 31900 (2013) 94700 33900 39900 43200 47100 79100 124000 132000 196000 236000
2021-01-07 05:30 16.30 90800 313000 (2016) 31900 (2013) 94700 33900 39900 43200 47100 79100 124000 132000 196000 236000
2021-01-07 05:00 16.29 313000 (2016) 31900 (2013) 94700 33900 39900 43200 47100 79100 124000 132000 196000 236000
2021-01-07 04:30 16.27 90300 313000 (2016) 31900 (2013) 94700 33900 39900 43200 47100 79100 124000 132000 196000 236000
2021-01-07 04:00 16.24 89700 313000 (2016) 31900 (2013) 94700 33900 39900 43200 47100 79100 124000 132000 196000 236000
2021-01-07 03:30 16.25 90900 313000 (2016) 31900 (2013) 94700 33900 39900 43200 47100 79100 124000 132000 196000 236000
2021-01-07 03:00 16.23 90300 313000 (2016) 31900 (2013) 94700 33900 39900 43200 47100 79100 124000 132000 196000 236000
2021-01-07 02:30 16.20 89800 313000 (2016) 31900 (2013) 94700 33900 39900 43200 47100 79100 124000 132000 196000 236000
2021-01-07 02:00 16.17 313000 (2016) 31900 (2013) 94700 33900 39900 43200 47100 79100 124000 132000 196000 236000
2021-01-07 01:30 16.17 90400 313000 (2016) 31900 (2013) 94700 33900 39900 43200 47100 79100 124000 132000 196000 236000
2021-01-07 01:00 16.16 90400 313000 (2016) 31900 (2013) 94700 33900 39900 43200 47100 79100 124000 132000 196000 236000
2021-01-07 00:30 16.16 91600 313000 (2016) 31900 (2013) 94700 33900 39900 43200 47100 79100 124000 132000 196000 236000
2021-01-07 00:00 16.13 90400 313000 (2016) 31900 (2013) 94700 33900 39900 43200 47100 79100 124000 132000 196000 236000
2021-01-06 23:30 16.12 90500 332000 (2016) 26500 (2014) 97400 28400 38800 46400 51100 78100 119000 133000 213000 249000
2021-01-06 23:00 16.11 91100 332000 (2016) 26500 (2014) 97400 28400 38800 46400 51100 78100 119000 133000 213000 249000
2021-01-06 22:30 16.09 332000 (2016) 26500 (2014) 97400 28400 38800 46400 51100 78100 119000 133000 213000 249000
2021-01-06 22:00 16.08 91700 332000 (2016) 26500 (2014) 97400 28400 38800 46400 51100 78100 119000 133000 213000 249000
2021-01-06 21:30 16.07 92300 332000 (2016) 26500 (2014) 97400 28400 38800 46400 51100 78100 119000 133000 213000 249000
2021-01-06 21:00 16.07 332000 (2016) 26500 (2014) 97400 28400 38800 46400 51100 78100 119000 133000 213000 249000
2021-01-06 20:30 16.05 92400 332000 (2016) 26500 (2014) 97400 28400 38800 46400 51100 78100 119000 133000 213000 249000
2021-01-06 20:00 16.00 90700 332000 (2016) 26500 (2014) 97400 28400 38800 46400 51100 78100 119000 133000 213000 249000
2021-01-06 19:30 16.01 91300 332000 (2016) 26500 (2014) 97400 28400 38800 46400 51100 78100 119000 133000 213000 249000
2021-01-06 19:00 16.00 91300 332000 (2016) 26500 (2014) 97400 28400 38800 46400 51100 78100 119000 133000 213000 249000
2021-01-06 18:30 15.99 91800 332000 (2016) 26500 (2014) 97400 28400 38800 46400 51100 78100 119000 133000 213000 249000
2021-01-06 18:00 15.97 91100 332000 (2016) 26500 (2014) 97400 28400 38800 46400 51100 78100 119000 133000 213000 249000
2021-01-06 17:30 15.94 89700 332000 (2016) 26500 (2014) 97400 28400 38800 46400 51100 78100 119000 133000 213000 249000
2021-01-06 17:00 15.93 332000 (2016) 26500 (2014) 97400 28400 38800 46400 51100 78100 119000 133000 213000 249000
2021-01-06 16:30 15.93 91400 332000 (2016) 26500 (2014) 97400 28400 38800 46400 51100 78100 119000 133000 213000 249000
2021-01-06 16:00 15.90 90000 332000 (2016) 26500 (2014) 97400 28400 38800 46400 51100 78100 119000 133000 213000 249000
2021-01-06 15:30 15.91 91300 332000 (2016) 26500 (2014) 97400 28400 38800 46400 51100 78100 119000 133000 213000 249000
2021-01-06 15:00 15.91 91900 332000 (2016) 26500 (2014) 97400 28400 38800 46400 51100 78100 119000 133000 213000 249000
2021-01-06 14:30 15.90 90600 332000 (2016) 26500 (2014) 97400 28400 38800 46400 51100 78100 119000 133000 213000 249000
2021-01-06 14:00 15.89 90600 332000 (2016) 26500 (2014) 97400 28400 38800 46400 51100 78100 119000 133000 213000 249000
2021-01-06 13:30 15.90 91200 332000 (2016) 26500 (2014) 97400 28400 38800 46400 51100 78100 119000 133000 213000 249000
2021-01-06 13:00 15.90 91200 332000 (2016) 26500 (2014) 97400 28400 38800 46400 51100 78100 119000 133000 213000 249000
2021-01-06 12:30 15.89 90600 332000 (2016) 26500 (2014) 97400 28400 38800 46400 51100 78100 119000 133000 213000 249000
2021-01-06 12:00 15.90 91800 332000 (2016) 26500 (2014) 97400 28400 38800 46400 51100 78100 119000 133000 213000 249000
2021-01-06 11:30 15.90 91800 332000 (2016) 26500 (2014) 97400 28400 38800 46400 51100 78100 119000 133000 213000 249000
2021-01-06 11:00 15.90 332000 (2016) 26500 (2014) 97400 28400 38800 46400 51100 78100 119000 133000 213000 249000
2021-01-06 10:30 15.88 91700 332000 (2016) 26500 (2014) 97400 28400 38800 46400 51100 78100 119000 133000 213000 249000
2021-01-06 10:00 15.90 93600 332000 (2016) 26500 (2014) 97400 28400 38800 46400 51100 78100 119000 133000 213000 249000
2021-01-06 09:30 15.91 93700 332000 (2016) 26500 (2014) 97400 28400 38800 46400 51100 78100 119000 133000 213000 249000
2021-01-06 09:00 15.92 94400 332000 (2016) 26500 (2014) 97400 28400 38800 46400 51100 78100 119000 133000 213000 249000
2021-01-06 08:30 15.89 332000 (2016) 26500 (2014) 97400 28400 38800 46400 51100 78100 119000 133000 213000 249000
2021-01-06 08:00 15.92 93800 332000 (2016) 26500 (2014) 97400 28400 38800 46400 51100 78100 119000 133000 213000 249000
2021-01-06 07:30 15.92 332000 (2016) 26500 (2014) 97400 28400 38800 46400 51100 78100 119000 133000 213000 249000
2021-01-06 07:00 15.92 93200 332000 (2016) 26500 (2014) 97400 28400 38800 46400 51100 78100 119000 133000 213000 249000
2021-01-06 06:30 15.90 91800 332000 (2016) 26500 (2014) 97400 28400 38800 46400 51100 78100 119000 133000 213000 249000
2021-01-06 06:00 15.91 332000 (2016) 26500 (2014) 97400 28400 38800 46400 51100 78100 119000 133000 213000 249000
2021-01-06 05:30 15.90 91200 332000 (2016) 26500 (2014) 97400 28400 38800 46400 51100 78100 119000 133000 213000 249000
2021-01-06 05:00 15.92 91400 332000 (2016) 26500 (2014) 97400 28400 38800 46400 51100 78100 119000 133000 213000 249000
2021-01-06 04:30 15.90 90000 332000 (2016) 26500 (2014) 97400 28400 38800 46400 51100 78100 119000 133000 213000 249000
2021-01-06 04:00 15.91 90100 332000 (2016) 26500 (2014) 97400 28400 38800 46400 51100 78100 119000 133000 213000 249000
2021-01-06 03:30 15.90 90000 332000 (2016) 26500 (2014) 97400 28400 38800 46400 51100 78100 119000 133000 213000 249000
2021-01-06 03:00 15.91 90700 332000 (2016) 26500 (2014) 97400 28400 38800 46400 51100 78100 119000 133000 213000 249000
2021-01-06 02:30 15.91 90700 332000 (2016) 26500 (2014) 97400 28400 38800 46400 51100 78100 119000 133000 213000 249000
2021-01-06 02:00 15.89 88800 332000 (2016) 26500 (2014) 97400 28400 38800 46400 51100 78100 119000 133000 213000 249000
2021-01-06 01:30 15.90 89400 332000 (2016) 26500 (2014) 97400 28400 38800 46400 51100 78100 119000 133000 213000 249000
2021-01-06 01:00 15.90 89400 332000 (2016) 26500 (2014) 97400 28400 38800 46400 51100 78100 119000 133000 213000 249000
2021-01-06 00:30 15.90 89400 332000 (2016) 26500 (2014) 97400 28400 38800 46400 51100 78100 119000 133000 213000 249000
2021-01-06 00:00 15.89 88200 332000 (2016) 26500 (2014) 97400 28400 38800 46400 51100 78100 119000 133000 213000 249000
2021-01-05 23:30 15.90 89400 355000 (2016) 29500 (2013) 99100 35300 39400 49300 53200 74500 119000 134000 209000 255000
2021-01-05 23:00 15.89 88800 355000 (2016) 29500 (2013) 99100 35300 39400 49300 53200 74500 119000 134000 209000 255000
2021-01-05 22:30 15.91 90100 355000 (2016) 29500 (2013) 99100 35300 39400 49300 53200 74500 119000 134000 209000 255000
2021-01-05 22:00 15.89 355000 (2016) 29500 (2013) 99100 35300 39400 49300 53200 74500 119000 134000 209000 255000
2021-01-05 21:30 15.91 90100 355000 (2016) 29500 (2013) 99100 35300 39400 49300 53200 74500 119000 134000 209000 255000
2021-01-05 21:00 15.90 90000 355000 (2016) 29500 (2013) 99100 35300 39400 49300 53200 74500 119000 134000 209000 255000
2021-01-05 20:30 15.90 88800 355000 (2016) 29500 (2013) 99100 35300 39400 49300 53200 74500 119000 134000 209000 255000
2021-01-05 20:00 15.90 88200 355000 (2016) 29500 (2013) 99100 35300 39400 49300 53200 74500 119000 134000 209000 255000
2021-01-05 19:30 15.91 89500 355000 (2016) 29500 (2013) 99100 35300 39400 49300 53200 74500 119000 134000 209000 255000
2021-01-05 19:00 15.90 88200 355000 (2016) 29500 (2013) 99100 35300 39400 49300 53200 74500 119000 134000 209000 255000
2021-01-05 18:30 15.91 88900 355000 (2016) 29500 (2013) 99100 35300 39400 49300 53200 74500 119000 134000 209000 255000
2021-01-05 18:00 15.90 88200 355000 (2016) 29500 (2013) 99100 35300 39400 49300 53200 74500 119000 134000 209000 255000
2021-01-05 17:30 15.90 88200 355000 (2016) 29500 (2013) 99100 35300 39400 49300 53200 74500 119000 134000 209000 255000
2021-01-05 17:00 15.92 355000 (2016) 29500 (2013) 99100 35300 39400 49300 53200 74500 119000 134000 209000 255000
2021-01-05 16:30 15.91 88900 355000 (2016) 29500 (2013) 99100 35300 39400 49300 53200 74500 119000 134000 209000 255000
2021-01-05 16:00 15.91 88900 355000 (2016) 29500 (2013) 99100 35300 39400 49300 53200 74500 119000 134000 209000 255000
2021-01-05 15:30 15.91 88900 355000 (2016) 29500 (2013) 99100 35300 39400 49300 53200 74500 119000 134000 209000 255000
2021-01-05 15:00 15.92 355000 (2016) 29500 (2013) 99100 35300 39400 49300 53200 74500 119000 134000 209000 255000
2021-01-05 14:30 15.92 89000 355000 (2016) 29500 (2013) 99100 35300 39400 49300 53200 74500 119000 134000 209000 255000
2021-01-05 14:00 15.91 88300 355000 (2016) 29500 (2013) 99100 35300 39400 49300 53200 74500 119000 134000 209000 255000
2021-01-05 13:30 15.92 89000 355000 (2016) 29500 (2013) 99100 35300 39400 49300 53200 74500 119000 134000 209000 255000
2021-01-05 13:00 15.93 355000 (2016) 29500 (2013) 99100 35300 39400 49300 53200 74500 119000 134000 209000 255000
2021-01-05 12:30 15.93 89600 355000 (2016) 29500 (2013) 99100 35300 39400 49300 53200 74500 119000 134000 209000 255000
2021-01-05 12:00 15.92 89000 355000 (2016) 29500 (2013) 99100 35300 39400 49300 53200 74500 119000 134000 209000 255000
2021-01-05 11:30 15.92 89000 355000 (2016) 29500 (2013) 99100 35300 39400 49300 53200 74500 119000 134000 209000 255000
2021-01-05 11:00 15.92 89000 355000 (2016) 29500 (2013) 99100 35300 39400 49300 53200 74500 119000 134000 209000 255000
2021-01-05 10:30 15.92 89600 355000 (2016) 29500 (2013) 99100 35300 39400 49300 53200 74500 119000 134000 209000 255000
2021-01-05 10:00 15.92 355000 (2016) 29500 (2013) 99100 35300 39400 49300 53200 74500 119000 134000 209000 255000
2021-01-05 09:30 15.91 88300 355000 (2016) 29500 (2013) 99100 35300 39400 49300 53200 74500 119000 134000 209000 255000
2021-01-05 09:00 15.91 87700 355000 (2016) 29500 (2013) 99100 35300 39400 49300 53200 74500 119000 134000 209000 255000
2021-01-05 08:30 15.92 88400 355000 (2016) 29500 (2013) 99100 35300 39400 49300 53200 74500 119000 134000 209000 255000
2021-01-05 08:00 15.91 87700 355000 (2016) 29500 (2013) 99100 35300 39400 49300 53200 74500 119000 134000 209000 255000
2021-01-05 07:30 15.92 88400 355000 (2016) 29500 (2013) 99100 35300 39400 49300 53200 74500 119000 134000 209000 255000
2021-01-05 07:00 15.92 88400 355000 (2016) 29500 (2013) 99100 35300 39400 49300 53200 74500 119000 134000 209000 255000
2021-01-05 06:30 15.93 88400 355000 (2016) 29500 (2013) 99100 35300 39400 49300 53200 74500 119000 134000 209000 255000
2021-01-05 06:00 15.93 87800 355000 (2016) 29500 (2013) 99100 35300 39400 49300 53200 74500 119000 134000 209000 255000
2021-01-05 05:30 15.93 87100 355000 (2016) 29500 (2013) 99100 35300 39400 49300 53200 74500 119000 134000 209000 255000
2021-01-05 05:00 15.93 86400 355000 (2016) 29500 (2013) 99100 35300 39400 49300 53200 74500 119000 134000 209000 255000
2021-01-05 04:30 15.94 86400 355000 (2016) 29500 (2013) 99100 35300 39400 49300 53200 74500 119000 134000 209000 255000
2021-01-05 04:00 15.95 87200 355000 (2016) 29500 (2013) 99100 35300 39400 49300 53200 74500 119000 134000 209000 255000
2021-01-05 03:30 15.96 355000 (2016) 29500 (2013) 99100 35300 39400 49300 53200 74500 119000 134000 209000 255000
2021-01-05 03:00 15.95 85000 355000 (2016) 29500 (2013) 99100 35300 39400 49300 53200 74500 119000 134000 209000 255000
2021-01-05 02:30 15.95 84300 355000 (2016) 29500 (2013) 99100 35300 39400 49300 53200 74500 119000 134000 209000 255000
2021-01-05 02:00 15.97 85900 355000 (2016) 29500 (2013) 99100 35300 39400 49300 53200 74500 119000 134000 209000 255000
2021-01-05 01:30 15.98 85900 355000 (2016) 29500 (2013) 99100 35300 39400 49300 53200 74500 119000 134000 209000 255000
2021-01-05 01:00 15.97 84400 355000 (2016) 29500 (2013) 99100 35300 39400 49300 53200 74500 119000 134000 209000 255000
2021-01-05 00:30 15.99 85300 355000 (2016) 29500 (2013) 99100 35300 39400 49300 53200 74500 119000 134000 209000 255000
2021-01-05 00:00 16.01 86000 355000 (2016) 29500 (2013) 99100 35300 39400 49300 53200 74500 119000 134000 209000 255000
2021-01-04 23:30 16.01 85300 379000 (2016) 29000 (1990) 97700 29500 39000 49800 52100 74500 122000 140000 173000 271000
2021-01-04 23:00 16.02 379000 (2016) 29000 (1990) 97700 29500 39000 49800 52100 74500 122000 140000 173000 271000
2021-01-04 22:30 16.03 379000 (2016) 29000 (1990) 97700 29500 39000 49800 52100 74500 122000 140000 173000 271000
2021-01-04 22:00 16.03 84500 379000 (2016) 29000 (1990) 97700 29500 39000 49800 52100 74500 122000 140000 173000 271000
2021-01-04 21:30 16.03 83100 379000 (2016) 29000 (1990) 97700 29500 39000 49800 52100 74500 122000 140000 173000 271000
2021-01-04 21:00 16.02 379000 (2016) 29000 (1990) 97700 29500 39000 49800 52100 74500 122000 140000 173000 271000
2021-01-04 20:30 16.02 379000 (2016) 29000 (1990) 97700 29500 39000 49800 52100 74500 122000 140000 173000 271000
2021-01-04 20:00 16.03 83800 379000 (2016) 29000 (1990) 97700 29500 39000 49800 52100 74500 122000 140000 173000 271000
2021-01-04 19:30 16.03 379000 (2016) 29000 (1990) 97700 29500 39000 49800 52100 74500 122000 140000 173000 271000
2021-01-04 19:00 16.06 86600 379000 (2016) 29000 (1990) 97700 29500 39000 49800 52100 74500 122000 140000 173000 271000
2021-01-04 18:30 16.07 88000 379000 (2016) 29000 (1990) 97700 29500 39000 49800 52100 74500 122000 140000 173000 271000
2021-01-04 18:00 16.07 88000 379000 (2016) 29000 (1990) 97700 29500 39000 49800 52100 74500 122000 140000 173000 271000
2021-01-04 17:30 16.08 88700 379000 (2016) 29000 (1990) 97700 29500 39000 49800 52100 74500 122000 140000 173000 271000
2021-01-04 17:00 16.08 379000 (2016) 29000 (1990) 97700 29500 39000 49800 52100 74500 122000 140000 173000 271000
2021-01-04 16:30 16.07 87300 379000 (2016) 29000 (1990) 97700 29500 39000 49800 52100 74500 122000 140000 173000 271000
2021-01-04 16:00 16.07 87300 379000 (2016) 29000 (1990) 97700 29500 39000 49800 52100 74500 122000 140000 173000 271000
2021-01-04 15:30 16.09 88700 379000 (2016) 29000 (1990) 97700 29500 39000 49800 52100 74500 122000 140000 173000 271000
2021-01-04 15:00 16.08 87300 379000 (2016) 29000 (1990) 97700 29500 39000 49800 52100 74500 122000 140000 173000 271000
2021-01-04 14:30 16.08 87300 379000 (2016) 29000 (1990) 97700 29500 39000 49800 52100 74500 122000 140000 173000 271000
2021-01-04 14:00 16.08 87300 379000 (2016) 29000 (1990) 97700 29500 39000 49800 52100 74500 122000 140000 173000 271000
2021-01-04 13:30 16.09 88000 379000 (2016) 29000 (1990) 97700 29500 39000 49800 52100 74500 122000 140000 173000 271000
2021-01-04 13:00 16.10 88700 379000 (2016) 29000 (1990) 97700 29500 39000 49800 52100 74500 122000 140000 173000 271000
2021-01-04 12:30 16.10 88700 379000 (2016) 29000 (1990) 97700 29500 39000 49800 52100 74500 122000 140000 173000 271000
2021-01-04 12:00 16.09 379000 (2016) 29000 (1990) 97700 29500 39000 49800 52100 74500 122000 140000 173000 271000
2021-01-04 11:30 16.11 89300 379000 (2016) 29000 (1990) 97700 29500 39000 49800 52100 74500 122000 140000 173000 271000
2021-01-04 11:00 16.11 89300 379000 (2016) 29000 (1990) 97700 29500 39000 49800 52100 74500 122000 140000 173000 271000
2021-01-04 10:30 16.12 89300 379000 (2016) 29000 (1990) 97700 29500 39000 49800 52100 74500 122000 140000 173000 271000
2021-01-04 10:00 16.12 89300 379000 (2016) 29000 (1990) 97700 29500 39000 49800 52100 74500 122000 140000 173000 271000
2021-01-04 09:30 16.11 87900 379000 (2016) 29000 (1990) 97700 29500 39000 49800 52100 74500 122000 140000 173000 271000
2021-01-04 09:00 16.12 89300 379000 (2016) 29000 (1990) 97700 29500 39000 49800 52100 74500 122000 140000 173000 271000
2021-01-04 08:30 16.12 89300 379000 (2016) 29000 (1990) 97700 29500 39000 49800 52100 74500 122000 140000 173000 271000
2021-01-04 08:00 16.10 87900 379000 (2016) 29000 (1990) 97700 29500 39000 49800 52100 74500 122000 140000 173000 271000
2021-01-04 07:30 16.10 88700 379000 (2016) 29000 (1990) 97700 29500 39000 49800 52100 74500 122000 140000 173000 271000
2021-01-04 07:00 16.11 379000 (2016) 29000 (1990) 97700 29500 39000 49800 52100 74500 122000 140000 173000 271000
2021-01-04 06:30 16.10 89300 379000 (2016) 29000 (1990) 97700 29500 39000 49800 52100 74500 122000 140000 173000 271000
2021-01-04 06:00 16.09 88700 379000 (2016) 29000 (1990) 97700 29500 39000 49800 52100 74500 122000 140000 173000 271000
2021-01-04 05:30 16.09 88700 379000 (2016) 29000 (1990) 97700 29500 39000 49800 52100 74500 122000 140000 173000 271000
2021-01-04 05:00 16.09 89300 379000 (2016) 29000 (1990) 97700 29500 39000 49800 52100 74500 122000 140000 173000 271000
2021-01-04 04:30 16.08 88700 379000 (2016) 29000 (1990) 97700 29500 39000 49800 52100 74500 122000 140000 173000 271000
2021-01-04 04:00 16.07 88700 379000 (2016) 29000 (1990) 97700 29500 39000 49800 52100 74500 122000 140000 173000 271000
2021-01-04 03:30 16.07 88700 379000 (2016) 29000 (1990) 97700 29500 39000 49800 52100 74500 122000 140000 173000 271000
2021-01-04 03:00 16.06 88000 379000 (2016) 29000 (1990) 97700 29500 39000 49800 52100 74500 122000 140000 173000 271000
2021-01-04 02:30 16.06 88000 379000 (2016) 29000 (1990) 97700 29500 39000 49800 52100 74500 122000 140000 173000 271000
2021-01-04 02:00 16.05 88100 379000 (2016) 29000 (1990) 97700 29500 39000 49800 52100 74500 122000 140000 173000 271000
2021-01-04 01:30 16.05 88100 379000 (2016) 29000 (1990) 97700 29500 39000 49800 52100 74500 122000 140000 173000 271000
2021-01-04 01:00 16.05 88800 379000 (2016) 29000 (1990) 97700 29500 39000 49800 52100 74500 122000 140000 173000 271000
2021-01-04 00:30 16.05 88800 379000 (2016) 29000 (1990) 97700 29500 39000 49800 52100 74500 122000 140000 173000 271000
2021-01-04 00:00 16.03 87400 379000 (2016) 29000 (1990) 97700 29500 39000 49800 52100 74500 122000 140000 173000 271000
2021-01-03 23:30 16.03 88100 399000 (2016) 32500 (2013) 95400 33600 35200 51500 53500 72600 113000 121000 179000 283000
2021-01-03 23:00 16.02 87500 399000 (2016) 32500 (2013) 95400 33600 35200 51500 53500 72600 113000 121000 179000 283000
2021-01-03 22:30 16.02 88200 399000 (2016) 32500 (2013) 95400 33600 35200 51500 53500 72600 113000 121000 179000 283000
2021-01-03 22:00 16.02 399000 (2016) 32500 (2013) 95400 33600 35200 51500 53500 72600 113000 121000 179000 283000
2021-01-03 21:30 16.01 88800 399000 (2016) 32500 (2013) 95400 33600 35200 51500 53500 72600 113000 121000 179000 283000
2021-01-03 21:00 16.01 89400 399000 (2016) 32500 (2013) 95400 33600 35200 51500 53500 72600 113000 121000 179000 283000
2021-01-03 20:30 15.99 88200 399000 (2016) 32500 (2013) 95400 33600 35200 51500 53500 72600 113000 121000 179000 283000
2021-01-03 19:30 15.99 88800 399000 (2016) 32500 (2013) 95400 33600 35200 51500 53500 72600 113000 121000 179000 283000
2021-01-03 19:00 15.98 88700 399000 (2016) 32500 (2013) 95400 33600 35200 51500 53500 72600 113000 121000 179000 283000
2021-01-03 18:30 15.97 399000 (2016) 32500 (2013) 95400 33600 35200 51500 53500 72600 113000 121000 179000 283000
2021-01-03 18:00 15.96 88000 399000 (2016) 32500 (2013) 95400 33600 35200 51500 53500 72600 113000 121000 179000 283000
2021-01-03 17:30 15.96 88600 399000 (2016) 32500 (2013) 95400 33600 35200 51500 53500 72600 113000 121000 179000 283000
2021-01-03 17:00 15.96 399000 (2016) 32500 (2013) 95400 33600 35200 51500 53500 72600 113000 121000 179000 283000
2021-01-03 16:30 15.94 87200 399000 (2016) 32500 (2013) 95400 33600 35200 51500 53500 72600 113000 121000 179000 283000
2021-01-03 16:00 15.94 87200 399000 (2016) 32500 (2013) 95400 33600 35200 51500 53500 72600 113000 121000 179000 283000
2021-01-03 15:30 15.94 86400 399000 (2016) 32500 (2013) 95400 33600 35200 51500 53500 72600 113000 121000 179000 283000
2021-01-03 15:00 15.93 85600 399000 (2016) 32500 (2013) 95400 33600 35200 51500 53500 72600 113000 121000 179000 283000
2021-01-03 14:30 15.93 86400 399000 (2016) 32500 (2013) 95400 33600 35200 51500 53500 72600 113000 121000 179000 283000
2021-01-03 14:00 15.90 399000 (2016) 32500 (2013) 95400 33600 35200 51500 53500 72600 113000 121000 179000 283000
2021-01-03 13:30 15.93 87800 399000 (2016) 32500 (2013) 95400 33600 35200 51500 53500 72600 113000 121000 179000 283000
2021-01-03 13:00 15.92 87000 399000 (2016) 32500 (2013) 95400 33600 35200 51500 53500 72600 113000 121000 179000 283000
2021-01-03 12:30 15.93 87800 399000 (2016) 32500 (2013) 95400 33600 35200 51500 53500 72600 113000 121000 179000 283000
2021-01-03 12:00 15.93 399000 (2016) 32500 (2013) 95400 33600 35200 51500 53500 72600 113000 121000 179000 283000
2021-01-03 11:30 15.93 399000 (2016) 32500 (2013) 95400 33600 35200 51500 53500 72600 113000 121000 179000 283000
2021-01-03 11:00 15.94 399000 (2016) 32500 (2013) 95400 33600 35200 51500 53500 72600 113000 121000 179000 283000
2021-01-03 10:30 15.93 87100 399000 (2016) 32500 (2013) 95400 33600 35200 51500 53500 72600 113000 121000 179000 283000
2021-01-03 10:00 15.93 85600 399000 (2016) 32500 (2013) 95400 33600 35200 51500 53500 72600 113000 121000 179000 283000
2021-01-03 09:30 15.90 399000 (2016) 32500 (2013) 95400 33600 35200 51500 53500 72600 113000 121000 179000 283000
2021-01-03 09:00 15.92 399000 (2016) 32500 (2013) 95400 33600 35200 51500 53500 72600 113000 121000 179000 283000
2021-01-03 08:30 15.93 89600 399000 (2016) 32500 (2013) 95400 33600 35200 51500 53500 72600 113000 121000 179000 283000
2021-01-03 08:00 15.94 89100 399000 (2016) 32500 (2013) 95400 33600 35200 51500 53500 72600 113000 121000 179000 283000
2021-01-03 07:30 15.96 89200 399000 (2016) 32500 (2013) 95400 33600 35200 51500 53500 72600 113000 121000 179000 283000
2021-01-03 07:00 15.97 89300 399000 (2016) 32500 (2013) 95400 33600 35200 51500 53500 72600 113000 121000 179000 283000
2021-01-03 06:30 15.97 88700 399000 (2016) 32500 (2013) 95400 33600 35200 51500 53500 72600 113000 121000 179000 283000
2021-01-03 06:00 15.94 399000 (2016) 32500 (2013) 95400 33600 35200 51500 53500 72600 113000 121000 179000 283000
2021-01-03 05:30 15.99 88800 399000 (2016) 32500 (2013) 95400 33600 35200 51500 53500 72600 113000 121000 179000 283000
2021-01-03 05:00 16.00 399000 (2016) 32500 (2013) 95400 33600 35200 51500 53500 72600 113000 121000 179000 283000
2021-01-03 04:30 16.01 89400 399000 (2016) 32500 (2013) 95400 33600 35200 51500 53500 72600 113000 121000 179000 283000
2021-01-03 04:00 16.01 89400 399000 (2016) 32500 (2013) 95400 33600 35200 51500 53500 72600 113000 121000 179000 283000
2021-01-03 03:30 16.01 89400 399000 (2016) 32500 (2013) 95400 33600 35200 51500 53500 72600 113000 121000 179000 283000
2021-01-03 03:00 16.02 90000 399000 (2016) 32500 (2013) 95400 33600 35200 51500 53500 72600 113000 121000 179000 283000
2021-01-03 02:30 16.03 90000 399000 (2016) 32500 (2013) 95400 33600 35200 51500 53500 72600 113000 121000 179000 283000
2021-01-03 02:00 16.03 89400 399000 (2016) 32500 (2013) 95400 33600 35200 51500 53500 72600 113000 121000 179000 283000
2021-01-03 01:30 16.03 90000 399000 (2016) 32500 (2013) 95400 33600 35200 51500 53500 72600 113000 121000 179000 283000
2021-01-03 01:00 16.04 90000 399000 (2016) 32500 (2013) 95400 33600 35200 51500 53500 72600 113000 121000 179000 283000
2021-01-03 00:30 16.06 91100 399000 (2016) 32500 (2013) 95400 33600 35200 51500 53500 72600 113000 121000 179000 283000
2021-01-03 00:00 16.05 90600 399000 (2016) 32500 (2013) 95400 33600 35200 51500 53500 72600 113000 121000 179000 283000
2021-01-02 23:30 16.05 89400 385000 (2016) 33600 (2014) 96400 34000 38000 45500 48300 73400 127000 139000 188000 282000
2021-01-02 23:00 16.05 89400 385000 (2016) 33600 (2014) 96400 34000 38000 45500 48300 73400 127000 139000 188000 282000
2021-01-02 22:30 16.04 89400 385000 (2016) 33600 (2014) 96400 34000 38000 45500 48300 73400 127000 139000 188000 282000
2021-01-02 22:00 16.04 90000 385000 (2016) 33600 (2014) 96400 34000 38000 45500 48300 73400 127000 139000 188000 282000
2021-01-02 21:30 16.04 90000 385000 (2016) 33600 (2014) 96400 34000 38000 45500 48300 73400 127000 139000 188000 282000
2021-01-02 21:00 16.04 90600 385000 (2016) 33600 (2014) 96400 34000 38000 45500 48300 73400 127000 139000 188000 282000
2021-01-02 20:30 16.02 89400 385000 (2016) 33600 (2014) 96400 34000 38000 45500 48300 73400 127000 139000 188000 282000
2021-01-02 20:00 16.03 385000 (2016) 33600 (2014) 96400 34000 38000 45500 48300 73400 127000 139000 188000 282000
2021-01-02 19:30 16.04 385000 (2016) 33600 (2014) 96400 34000 38000 45500 48300 73400 127000 139000 188000 282000
2021-01-02 19:00 16.02 90000 385000 (2016) 33600 (2014) 96400 34000 38000 45500 48300 73400 127000 139000 188000 282000
2021-01-02 18:30 16.00 385000 (2016) 33600 (2014) 96400 34000 38000 45500 48300 73400 127000 139000 188000 282000
2021-01-02 18:00 16.02 91200 385000 (2016) 33600 (2014) 96400 34000 38000 45500 48300 73400 127000 139000 188000 282000
2021-01-02 17:30 16.02 385000 (2016) 33600 (2014) 96400 34000 38000 45500 48300 73400 127000 139000 188000 282000
2021-01-02 17:00 16.02 91200 385000 (2016) 33600 (2014) 96400 34000 38000 45500 48300 73400 127000 139000 188000 282000
2021-01-02 16:30 16.01 90600 385000 (2016) 33600 (2014) 96400 34000 38000 45500 48300 73400 127000 139000 188000 282000
2021-01-02 16:00 16.01 90600 385000 (2016) 33600 (2014) 96400 34000 38000 45500 48300 73400 127000 139000 188000 282000
2021-01-02 15:30 16.00 91300 385000 (2016) 33600 (2014) 96400 34000 38000 45500 48300 73400 127000 139000 188000 282000
2021-01-02 15:00 16.01 91900 385000 (2016) 33600 (2014) 96400 34000 38000 45500 48300 73400 127000 139000 188000 282000
2021-01-02 14:30 15.99 91800 385000 (2016) 33600 (2014) 96400 34000 38000 45500 48300 73400 127000 139000 188000 282000
2021-01-02 14:00 16.00 91900 385000 (2016) 33600 (2014) 96400 34000 38000 45500 48300 73400 127000 139000 188000 282000
2021-01-02 13:30 16.00 385000 (2016) 33600 (2014) 96400 34000 38000 45500 48300 73400 127000 139000 188000 282000
2021-01-02 13:00 15.98 90500 385000 (2016) 33600 (2014) 96400 34000 38000 45500 48300 73400 127000 139000 188000 282000
2021-01-02 12:30 15.99 91200 385000 (2016) 33600 (2014) 96400 34000 38000 45500 48300 73400 127000 139000 188000 282000
2021-01-02 12:00 15.98 91100 385000 (2016) 33600 (2014) 96400 34000 38000 45500 48300 73400 127000 139000 188000 282000
2021-01-02 11:30 15.98 89900 385000 (2016) 33600 (2014) 96400 34000 38000 45500 48300 73400 127000 139000 188000 282000
2021-01-02 11:00 15.98 90500 385000 (2016) 33600 (2014) 96400 34000 38000 45500 48300 73400 127000 139000 188000 282000
2021-01-02 10:30 15.98 90500 385000 (2016) 33600 (2014) 96400 34000 38000 45500 48300 73400 127000 139000 188000 282000
2021-01-02 10:00 15.97 89900 385000 (2016) 33600 (2014) 96400 34000 38000 45500 48300 73400 127000 139000 188000 282000
2021-01-02 09:30 15.97 90500 385000 (2016) 33600 (2014) 96400 34000 38000 45500 48300 73400 127000 139000 188000 282000
2021-01-02 09:00 15.96 90400 385000 (2016) 33600 (2014) 96400 34000 38000 45500 48300 73400 127000 139000 188000 282000
2021-01-02 08:30 15.96 91000 385000 (2016) 33600 (2014) 96400 34000 38000 45500 48300 73400 127000 139000 188000 282000
2021-01-02 08:00 15.95 90400 385000 (2016) 33600 (2014) 96400 34000 38000 45500 48300 73400 127000 139000 188000 282000
2021-01-02 07:30 15.95 90400 385000 (2016) 33600 (2014) 96400 34000 38000 45500 48300 73400 127000 139000 188000 282000
2021-01-02 07:00 15.90 385000 (2016) 33600 (2014) 96400 34000 38000 45500 48300 73400 127000 139000 188000 282000
2021-01-02 06:30 15.94 90900 385000 (2016) 33600 (2014) 96400 34000 38000 45500 48300 73400 127000 139000 188000 282000
2021-01-02 06:00 15.93 90200 385000 (2016) 33600 (2014) 96400 34000 38000 45500 48300 73400 127000 139000 188000 282000
2021-01-02 05:30 15.93 90200 385000 (2016) 33600 (2014) 96400 34000 38000 45500 48300 73400 127000 139000 188000 282000
2021-01-02 05:00 15.93 90200 385000 (2016) 33600 (2014) 96400 34000 38000 45500 48300 73400 127000 139000 188000 282000
2021-01-02 04:30 15.90 88200 385000 (2016) 33600 (2014) 96400 34000 38000 45500 48300 73400 127000 139000 188000 282000
2021-01-02 04:00 15.90 88200 385000 (2016) 33600 (2014) 96400 34000 38000 45500 48300 73400 127000 139000 188000 282000
2021-01-02 03:30 15.92 385000 (2016) 33600 (2014) 96400 34000 38000 45500 48300 73400 127000 139000 188000 282000
2021-01-02 03:00 15.92 89000 385000 (2016) 33600 (2014) 96400 34000 38000 45500 48300 73400 127000 139000 188000 282000
2021-01-02 02:30 15.92 88400 385000 (2016) 33600 (2014) 96400 34000 38000 45500 48300 73400 127000 139000 188000 282000
2021-01-02 02:00 15.92 87800 385000 (2016) 33600 (2014) 96400 34000 38000 45500 48300 73400 127000 139000 188000 282000
2021-01-02 01:30 15.92 87800 385000 (2016) 33600 (2014) 96400 34000 38000 45500 48300 73400 127000 139000 188000 282000
2021-01-02 01:00 15.93 88400 385000 (2016) 33600 (2014) 96400 34000 38000 45500 48300 73400 127000 139000 188000 282000
2021-01-02 00:30 15.93 87800 385000 (2016) 33600 (2014) 96400 34000 38000 45500 48300 73400 127000 139000 188000 282000
2021-01-02 00:00 15.93 385000 (2016) 33600 (2014) 96400 34000 38000 45500 48300 73400 127000 139000 188000 282000
2021-01-01 23:30 15.93 87100 374000 (2016) 30000 (1990) 99500 31100 40000 49000 49200 78100 131000 144000 213000 265000
2021-01-01 23:00 15.96 374000 (2016) 30000 (1990) 99500 31100 40000 49000 49200 78100 131000 144000 213000 265000
2021-01-01 22:30 15.94 86400 374000 (2016) 30000 (1990) 99500 31100 40000 49000 49200 78100 131000 144000 213000 265000
2021-01-01 22:00 15.93 84200 374000 (2016) 30000 (1990) 99500 31100 40000 49000 49200 78100 131000 144000 213000 265000
2021-01-01 21:30 15.91 374000 (2016) 30000 (1990) 99500 31100 40000 49000 49200 78100 131000 144000 213000 265000
2021-01-01 21:00 15.94 86400 374000 (2016) 30000 (1990) 99500 31100 40000 49000 49200 78100 131000 144000 213000 265000
2021-01-01 20:30 15.93 86400 374000 (2016) 30000 (1990) 99500 31100 40000 49000 49200 78100 131000 144000 213000 265000
2021-01-01 20:00 15.92 374000 (2016) 30000 (1990) 99500 31100 40000 49000 49200 78100 131000 144000 213000 265000
2021-01-01 19:30 15.93 86400 374000 (2016) 30000 (1990) 99500 31100 40000 49000 49200 78100 131000 144000 213000 265000
2021-01-01 19:00 15.92 374000 (2016) 30000 (1990) 99500 31100 40000 49000 49200 78100 131000 144000 213000 265000
2021-01-01 18:30 15.93 87100 374000 (2016) 30000 (1990) 99500 31100 40000 49000 49200 78100 131000 144000 213000 265000
2021-01-01 18:00 15.93 87100 374000 (2016) 30000 (1990) 99500 31100 40000 49000 49200 78100 131000 144000 213000 265000
2021-01-01 17:30 15.94 88500 374000 (2016) 30000 (1990) 99500 31100 40000 49000 49200 78100 131000 144000 213000 265000
2021-01-01 17:00 15.95 88500 374000 (2016) 30000 (1990) 99500 31100 40000 49000 49200 78100 131000 144000 213000 265000
2021-01-01 16:30 15.94 87200 374000 (2016) 30000 (1990) 99500 31100 40000 49000 49200 78100 131000 144000 213000 265000
2021-01-01 16:00 15.93 86400 374000 (2016) 30000 (1990) 99500 31100 40000 49000 49200 78100 131000 144000 213000 265000
2021-01-01 15:30 15.92 87000 374000 (2016) 30000 (1990) 99500 31100 40000 49000 49200 78100 131000 144000 213000 265000
2021-01-01 15:00 15.94 89100 374000 (2016) 30000 (1990) 99500 31100 40000 49000 49200 78100 131000 144000 213000 265000
2021-01-01 14:30 15.92 87000 374000 (2016) 30000 (1990) 99500 31100 40000 49000 49200 78100 131000 144000 213000 265000
2021-01-01 14:00 15.92 87800 374000 (2016) 30000 (1990) 99500 31100 40000 49000 49200 78100 131000 144000 213000 265000
2021-01-01 13:30 15.92 88400 374000 (2016) 30000 (1990) 99500 31100 40000 49000 49200 78100 131000 144000 213000 265000
2021-01-01 13:00 15.92 89000 374000 (2016) 30000 (1990) 99500 31100 40000 49000 49200 78100 131000 144000 213000 265000
2021-01-01 12:30 15.92 89000 374000 (2016) 30000 (1990) 99500 31100 40000 49000 49200 78100 131000 144000 213000 265000
2021-01-01 12:00 15.92 89000 374000 (2016) 30000 (1990) 99500 31100 40000 49000 49200 78100 131000 144000 213000 265000
2021-01-01 11:30 15.94 374000 (2016) 30000 (1990) 99500 31100 40000 49000 49200 78100 131000 144000 213000 265000
2021-01-01 11:00 15.95 374000 (2016) 30000 (1990) 99500 31100 40000 49000 49200 78100 131000 144000 213000 265000
2021-01-01 10:30 15.92 88400 374000 (2016) 30000 (1990) 99500 31100 40000 49000 49200 78100 131000 144000 213000 265000
2021-01-01 10:00 15.91 374000 (2016) 30000 (1990) 99500 31100 40000 49000 49200 78100 131000 144000 213000 265000
2021-01-01 09:30 15.89 374000 (2016) 30000 (1990) 99500 31100 40000 49000 49200 78100 131000 144000 213000 265000
2021-01-01 06:00 15.80 87800 374000 (2016) 30000 (1990) 99500 31100 40000 49000 49200 78100 131000 144000 213000 265000
2021-01-01 05:30 15.74 87800 374000 (2016) 30000 (1990) 99500 31100 40000 49000 49200 78100 131000 144000 213000 265000
2021-01-01 05:00 15.69 374000 (2016) 30000 (1990) 99500 31100 40000 49000 49200 78100 131000 144000 213000 265000
2021-01-01 04:30 15.71 88800 374000 (2016) 30000 (1990) 99500 31100 40000 49000 49200 78100 131000 144000 213000 265000
2021-01-01 04:00 15.73 374000 (2016) 30000 (1990) 99500 31100 40000 49000 49200 78100 131000 144000 213000 265000
2021-01-01 03:30 15.69 374000 (2016) 30000 (1990) 99500 31100 40000 49000 49200 78100 131000 144000 213000 265000
2021-01-01 03:00 15.66 86800 374000 (2016) 30000 (1990) 99500 31100 40000 49000 49200 78100 131000 144000 213000 265000
2021-01-01 02:30 15.64 84900 374000 (2016) 30000 (1990) 99500 31100 40000 49000 49200 78100 131000 144000 213000 265000
2021-01-01 02:00 15.65 85400 374000 (2016) 30000 (1990) 99500 31100 40000 49000 49200 78100 131000 144000 213000 265000
2021-01-01 01:30 15.67 87400 374000 (2016) 30000 (1990) 99500 31100 40000 49000 49200 78100 131000 144000 213000 265000
2021-01-01 01:00 15.66 86200 374000 (2016) 30000 (1990) 99500 31100 40000 49000 49200 78100 131000 144000 213000 265000
2021-01-01 00:30 15.67 86800 374000 (2016) 30000 (1990) 99500 31100 40000 49000 49200 78100 131000 144000 213000 265000
2021-01-01 00:00 15.66 86200 374000 (2016) 30000 (1990) 99500 31100 40000 49000 49200 78100 131000 144000 213000 265000
2020-12-31 23:30 15.66 86200 391000 (2016) 29400 (2013) 98300 29600 36700 43100 48000 83400 125000 135000 191000 267000
2020-12-31 23:00 15.66 86200 391000 (2016) 29400 (2013) 98300 29600 36700 43100 48000 83400 125000 135000 191000 267000
2020-12-31 22:30 15.67 391000 (2016) 29400 (2013) 98300 29600 36700 43100 48000 83400 125000 135000 191000 267000
2020-12-31 22:00 15.67 86200 391000 (2016) 29400 (2013) 98300 29600 36700 43100 48000 83400 125000 135000 191000 267000
2020-12-31 21:30 15.67 85500 391000 (2016) 29400 (2013) 98300 29600 36700 43100 48000 83400 125000 135000 191000 267000
2020-12-31 21:00 15.67 85500 391000 (2016) 29400 (2013) 98300 29600 36700 43100 48000 83400 125000 135000 191000 267000
2020-12-31 20:30 15.68 86300 391000 (2016) 29400 (2013) 98300 29600 36700 43100 48000 83400 125000 135000 191000 267000
2020-12-31 20:00 15.69 391000 (2016) 29400 (2013) 98300 29600 36700 43100 48000 83400 125000 135000 191000 267000
2020-12-31 19:30 15.67 84100 391000 (2016) 29400 (2013) 98300 29600 36700 43100 48000 83400 125000 135000 191000 267000
2020-12-31 19:00 15.68 391000 (2016) 29400 (2013) 98300 29600 36700 43100 48000 83400 125000 135000 191000 267000
2020-12-31 18:30 15.69 84900 391000 (2016) 29400 (2013) 98300 29600 36700 43100 48000 83400 125000 135000 191000 267000
2020-12-31 18:00 15.69 84200 391000 (2016) 29400 (2013) 98300 29600 36700 43100 48000 83400 125000 135000 191000 267000
2020-12-31 17:30 15.70 85000 391000 (2016) 29400 (2013) 98300 29600 36700 43100 48000 83400 125000 135000 191000 267000
2020-12-31 17:00 15.69 84200 391000 (2016) 29400 (2013) 98300 29600 36700 43100 48000 83400 125000 135000 191000 267000
2020-12-31 16:30 15.71 85800 391000 (2016) 29400 (2013) 98300 29600 36700 43100 48000 83400 125000 135000 191000 267000
2020-12-31 16:00 15.71 85000 391000 (2016) 29400 (2013) 98300 29600 36700 43100 48000 83400 125000 135000 191000 267000
2020-12-31 15:30 15.72 85800 391000 (2016) 29400 (2013) 98300 29600 36700 43100 48000 83400 125000 135000 191000 267000
2020-12-31 15:00 15.71 85000 391000 (2016) 29400 (2013) 98300 29600 36700 43100 48000 83400 125000 135000 191000 267000
2020-12-31 14:30 15.74 391000 (2016) 29400 (2013) 98300 29600 36700 43100 48000 83400 125000 135000 191000 267000
2020-12-31 14:00 15.73 85200 391000 (2016) 29400 (2013) 98300 29600 36700 43100 48000 83400 125000 135000 191000 267000
2020-12-31 13:30 15.73 84400 391000 (2016) 29400 (2013) 98300 29600 36700 43100 48000 83400 125000 135000 191000 267000
2020-12-31 13:00 15.74 391000 (2016) 29400 (2013) 98300 29600 36700 43100 48000 83400 125000 135000 191000 267000
2020-12-31 12:30 15.74 85200 391000 (2016) 29400 (2013) 98300 29600 36700 43100 48000 83400 125000 135000 191000 267000
2020-12-31 12:00 15.73 85200 391000 (2016) 29400 (2013) 98300 29600 36700 43100 48000 83400 125000 135000 191000 267000
2020-12-31 11:30 15.77 391000 (2016) 29400 (2013) 98300 29600 36700 43100 48000 83400 125000 135000 191000 267000
2020-12-31 11:00 15.77 87400 391000 (2016) 29400 (2013) 98300 29600 36700 43100 48000 83400 125000 135000 191000 267000
2020-12-31 10:30 15.78 86900 391000 (2016) 29400 (2013) 98300 29600 36700 43100 48000 83400 125000 135000 191000 267000
2020-12-31 10:00 15.78 85500 391000 (2016) 29400 (2013) 98300 29600 36700 43100 48000 83400 125000 135000 191000 267000
2020-12-31 09:30 15.78 391000 (2016) 29400 (2013) 98300 29600 36700 43100 48000 83400 125000 135000 191000 267000
2020-12-31 09:00 15.81 86400 391000 (2016) 29400 (2013) 98300 29600 36700 43100 48000 83400 125000 135000 191000 267000
2020-12-31 08:30 15.82 391000 (2016) 29400 (2013) 98300 29600 36700 43100 48000 83400 125000 135000 191000 267000
2020-12-31 08:00 15.82 86400 391000 (2016) 29400 (2013) 98300 29600 36700 43100 48000 83400 125000 135000 191000 267000
2020-12-31 07:30 15.84 87900 391000 (2016) 29400 (2013) 98300 29600 36700 43100 48000 83400 125000 135000 191000 267000
2020-12-31 07:00 15.85 87900 391000 (2016) 29400 (2013) 98300 29600 36700 43100 48000 83400 125000 135000 191000 267000
2020-12-31 06:30 15.86 88000 391000 (2016) 29400 (2013) 98300 29600 36700 43100 48000 83400 125000 135000 191000 267000
2020-12-31 06:00 15.86 391000 (2016) 29400 (2013) 98300 29600 36700 43100 48000 83400 125000 135000 191000 267000
2020-12-31 05:30 15.87 87500 391000 (2016) 29400 (2013) 98300 29600 36700 43100 48000 83400 125000 135000 191000 267000
2020-12-31 05:00 15.89 88800 391000 (2016) 29400 (2013) 98300 29600 36700 43100 48000 83400 125000 135000 191000 267000
2020-12-31 04:30 15.89 88800 391000 (2016) 29400 (2013) 98300 29600 36700 43100 48000 83400 125000 135000 191000 267000
2020-12-31 04:00 15.90 391000 (2016) 29400 (2013) 98300 29600 36700 43100 48000 83400 125000 135000 191000 267000
2020-12-31 03:30 15.89 391000 (2016) 29400 (2013) 98300 29600 36700 43100 48000 83400 125000 135000 191000 267000
2020-12-31 03:00 15.91 87000 391000 (2016) 29400 (2013) 98300 29600 36700 43100 48000 83400 125000 135000 191000 267000
2020-12-31 02:30 15.91 87700 391000 (2016) 29400 (2013) 98300 29600 36700 43100 48000 83400 125000 135000 191000 267000
2020-12-31 02:00 15.91 87000 391000 (2016) 29400 (2013) 98300 29600 36700 43100 48000 83400 125000 135000 191000 267000
2020-12-31 01:30 15.92 87800 391000 (2016) 29400 (2013) 98300 29600 36700 43100 48000 83400 125000 135000 191000 267000
2020-12-31 01:00 15.92 87000 391000 (2016) 29400 (2013) 98300 29600 36700 43100 48000 83400 125000 135000 191000 267000
2020-12-31 00:30 15.94 87900 391000 (2016) 29400 (2013) 98300 29600 36700 43100 48000 83400 125000 135000 191000 267000
2020-12-31 00:00 15.94 391000 (2016) 29400 (2013) 98300 29600 36700 43100 48000 83400 125000 135000 191000 267000
2020-12-30 23:30 15.95 87200 406000 (2016) 29000 (2013) 96600 30600 34400 40400 44800 82300 117000 134000 188000 278000
2020-12-30 23:00 15.93 86400 406000 (2016) 29000 (2013) 96600 30600 34400 40400 44800 82300 117000 134000 188000 278000
2020-12-30 22:30 15.93 86400 406000 (2016) 29000 (2013) 96600 30600 34400 40400 44800 82300 117000 134000 188000 278000
2020-12-30 22:00 15.90 85500 406000 (2016) 29000 (2013) 96600 30600 34400 40400 44800 82300 117000 134000 188000 278000
2020-12-30 21:30 15.90 86200 406000 (2016) 29000 (2013) 96600 30600 34400 40400 44800 82300 117000 134000 188000 278000
2020-12-30 21:00 15.89 406000 (2016) 29000 (2013) 96600 30600 34400 40400 44800 82300 117000 134000 188000 278000
2020-12-30 20:30 15.88 84600 406000 (2016) 29000 (2013) 96600 30600 34400 40400 44800 82300 117000 134000 188000 278000
2020-12-30 20:00 15.82 406000 (2016) 29000 (2013) 96600 30600 34400 40400 44800 82300 117000 134000 188000 278000
2020-12-30 19:30 15.85 85900 406000 (2016) 29000 (2013) 96600 30600 34400 40400 44800 82300 117000 134000 188000 278000
2020-12-30 19:00 15.83 85800 406000 (2016) 29000 (2013) 96600 30600 34400 40400 44800 82300 117000 134000 188000 278000
2020-12-30 18:30 15.82 85700 406000 (2016) 29000 (2013) 96600 30600 34400 40400 44800 82300 117000 134000 188000 278000
2020-12-30 18:00 15.81 86400 406000 (2016) 29000 (2013) 96600 30600 34400 40400 44800 82300 117000 134000 188000 278000
2020-12-30 17:30 15.83 406000 (2016) 29000 (2013) 96600 30600 34400 40400 44800 82300 117000 134000 188000 278000
2020-12-30 17:00 15.79 85500 406000 (2016) 29000 (2013) 96600 30600 34400 40400 44800 82300 117000 134000 188000 278000
2020-12-30 16:30 15.79 84800 406000 (2016) 29000 (2013) 96600 30600 34400 40400 44800 82300 117000 134000 188000 278000
2020-12-30 16:00 15.78 85500 406000 (2016) 29000 (2013) 96600 30600 34400 40400 44800 82300 117000 134000 188000 278000
2020-12-30 15:30 15.76 83900 406000 (2016) 29000 (2013) 96600 30600 34400 40400 44800 82300 117000 134000 188000 278000
2020-12-30 15:00 15.78 406000 (2016) 29000 (2013) 96600 30600 34400 40400 44800 82300 117000 134000 188000 278000
2020-12-30 14:30 15.77 406000 (2016) 29000 (2013) 96600 30600 34400 40400 44800 82300 117000 134000 188000 278000
2020-12-30 14:00 15.74 82400 406000 (2016) 29000 (2013) 96600 30600 34400 40400 44800 82300 117000 134000 188000 278000
2020-12-30 13:30 15.73 406000 (2016) 29000 (2013) 96600 30600 34400 40400 44800 82300 117000 134000 188000 278000
2020-12-30 13:00 15.70 80700 406000 (2016) 29000 (2013) 96600 30600 34400 40400 44800 82300 117000 134000 188000 278000
2020-12-30 12:30 15.70 406000 (2016) 29000 (2013) 96600 30600 34400 40400 44800 82300 117000 134000 188000 278000
2020-12-30 12:00 15.68 78500 406000 (2016) 29000 (2013) 96600 30600 34400 40400 44800 82300 117000 134000 188000 278000
2020-12-30 11:30 15.67 77700 406000 (2016) 29000 (2013) 96600 30600 34400 40400 44800 82300 117000 134000 188000 278000
2020-12-30 11:00 15.69 406000 (2016) 29000 (2013) 96600 30600 34400 40400 44800 82300 117000 134000 188000 278000
2020-12-30 10:30 15.68 76300 406000 (2016) 29000 (2013) 96600 30600 34400 40400 44800 82300 117000 134000 188000 278000
2020-12-30 10:00 15.66 406000 (2016) 29000 (2013) 96600 30600 34400 40400 44800 82300 117000 134000 188000 278000
2020-12-30 09:30 15.67 406000 (2016) 29000 (2013) 96600 30600 34400 40400 44800 82300 117000 134000 188000 278000
2020-12-30 09:00 15.65 79700 406000 (2016) 29000 (2013) 96600 30600 34400 40400 44800 82300 117000 134000 188000 278000
2020-12-30 08:30 15.64 78600 406000 (2016) 29000 (2013) 96600 30600 34400 40400 44800 82300 117000 134000 188000 278000
2020-12-30 08:00 15.64 79300 406000 (2016) 29000 (2013) 96600 30600 34400 40400 44800 82300 117000 134000 188000 278000
2020-12-30 07:30 15.61 80100 406000 (2016) 29000 (2013) 96600 30600 34400 40400 44800 82300 117000 134000 188000 278000
2020-12-30 07:00 15.60 79000 406000 (2016) 29000 (2013) 96600 30600 34400 40400 44800 82300 117000 134000 188000 278000
2020-12-30 06:30 15.56 406000 (2016) 29000 (2013) 96600 30600 34400 40400 44800 82300 117000 134000 188000 278000
2020-12-30 06:00 15.59 80000 406000 (2016) 29000 (2013) 96600 30600 34400 40400 44800 82300 117000 134000 188000 278000
2020-12-30 05:30 15.60 406000 (2016) 29000 (2013) 96600 30600 34400 40400 44800 82300 117000 134000 188000 278000
2020-12-30 05:00 15.60 81100 406000 (2016) 29000 (2013) 96600 30600 34400 40400 44800 82300 117000 134000 188000 278000
2020-12-30 04:30 15.61 406000 (2016) 29000 (2013) 96600 30600 34400 40400 44800 82300 117000 134000 188000 278000
2020-12-30 04:00 15.59 79300 406000 (2016) 29000 (2013) 96600 30600 34400 40400 44800 82300 117000 134000 188000 278000
2020-12-30 03:30 15.60 406000 (2016) 29000 (2013) 96600 30600 34400 40400 44800 82300 117000 134000 188000 278000
2020-12-30 03:00 15.58 77500 406000 (2016) 29000 (2013) 96600 30600 34400 40400 44800 82300 117000 134000 188000 278000
2020-12-30 02:30 15.56 406000 (2016) 29000 (2013) 96600 30600 34400 40400 44800 82300 117000 134000 188000 278000
2020-12-30 02:00 15.56 406000 (2016) 29000 (2013) 96600 30600 34400 40400 44800 82300 117000 134000 188000 278000
2020-12-30 01:30 15.56 78000 406000 (2016) 29000 (2013) 96600 30600 34400 40400 44800 82300 117000 134000 188000 278000
2020-12-30 01:00 15.54 406000 (2016) 29000 (2013) 96600 30600 34400 40400 44800 82300 117000 134000 188000 278000
2020-12-30 00:30 15.57 78400 406000 (2016) 29000 (2013) 96600 30600 34400 40400 44800 82300 117000 134000 188000 278000
2020-12-30 00:00 15.58 406000 (2016) 29000 (2013) 96600 30600 34400 40400 44800 82300 117000 134000 188000 278000
2020-12-29 23:30 15.60 81800 389000 (2016) 27400 (2013) 95200 31800 36100 41900 44800 76500 110000 126000 189000 280000
2020-12-29 23:00 15.57 389000 (2016) 27400 (2013) 95200 31800 36100 41900 44800 76500 110000 126000 189000 280000
2020-12-29 22:30 15.58 389000 (2016) 27400 (2013) 95200 31800 36100 41900 44800 76500 110000 126000 189000 280000
2020-12-29 22:00 15.60 82500 389000 (2016) 27400 (2013) 95200 31800 36100 41900 44800 76500 110000 126000 189000 280000
2020-12-29 21:30 15.63 389000 (2016) 27400 (2013) 95200 31800 36100 41900 44800 76500 110000 126000 189000 280000
2020-12-29 21:00 15.61 389000 (2016) 27400 (2013) 95200 31800 36100 41900 44800 76500 110000 126000 189000 280000
2020-12-29 20:30 82900 389000 (2016) 27400 (2013) 95200 31800 36100 41900 44800 76500 110000 126000 189000 280000
2020-12-29 20:00 15.60 389000 (2016) 27400 (2013) 95200 31800 36100 41900 44800 76500 110000 126000 189000 280000
2020-12-29 19:30 15.60 83800 389000 (2016) 27400 (2013) 95200 31800 36100 41900 44800 76500 110000 126000 189000 280000
2020-12-29 19:00 85000 389000 (2016) 27400 (2013) 95200 31800 36100 41900 44800 76500 110000 126000 189000 280000
2020-12-29 18:30 15.59 84500 389000 (2016) 27400 (2013) 95200 31800 36100 41900 44800 76500 110000 126000 189000 280000
2020-12-29 18:00 15.59 84500 389000 (2016) 27400 (2013) 95200 31800 36100 41900 44800 76500 110000 126000 189000 280000
2020-12-29 17:30 15.59 389000 (2016) 27400 (2013) 95200 31800 36100 41900 44800 76500 110000 126000 189000 280000
2020-12-29 17:00 82600 389000 (2016) 27400 (2013) 95200 31800 36100 41900 44800 76500 110000 126000 189000 280000
2020-12-29 16:30 15.56 83200 389000 (2016) 27400 (2013) 95200 31800 36100 41900 44800 76500 110000 126000 189000 280000
2020-12-29 16:00 82300 389000 (2016) 27400 (2013) 95200 31800 36100 41900 44800 76500 110000 126000 189000 280000
2020-12-29 15:30 15.53 82300 389000 (2016) 27400 (2013) 95200 31800 36100 41900 44800 76500 110000 126000 189000 280000
2020-12-29 15:00 15.52 389000 (2016) 27400 (2013) 95200 31800 36100 41900 44800 76500 110000 126000 189000 280000
2020-12-29 14:30 15.54 83900 389000 (2016) 27400 (2013) 95200 31800 36100 41900 44800 76500 110000 126000 189000 280000
2020-12-29 14:00 15.51 81400 389000 (2016) 27400 (2013) 95200 31800 36100 41900 44800 76500 110000 126000 189000 280000
2020-12-29 13:30 15.54 389000 (2016) 27400 (2013) 95200 31800 36100 41900 44800 76500 110000 126000 189000 280000
2020-12-29 13:00 15.54 389000 (2016) 27400 (2013) 95200 31800 36100 41900 44800 76500 110000 126000 189000 280000
2020-12-29 12:30 15.53 389000 (2016) 27400 (2013) 95200 31800 36100 41900 44800 76500 110000 126000 189000 280000
2020-12-29 12:00 15.49 75600 389000 (2016) 27400 (2013) 95200 31800 36100 41900 44800 76500 110000 126000 189000 280000
2020-12-29 11:30 15.48 75200 389000 (2016) 27400 (2013) 95200 31800 36100 41900 44800 76500 110000 126000 189000 280000
2020-12-29 11:00 15.45 389000 (2016) 27400 (2013) 95200 31800 36100 41900 44800 76500 110000 126000 189000 280000
2020-12-29 10:30 15.44 72800 389000 (2016) 27400 (2013) 95200 31800 36100 41900 44800 76500 110000 126000 189000 280000
2020-12-29 09:30 15.46 389000 (2016) 27400 (2013) 95200 31800 36100 41900 44800 76500 110000 126000 189000 280000
2020-12-29 09:00 15.44 72800 389000 (2016) 27400 (2013) 95200 31800 36100 41900 44800 76500 110000 126000 189000 280000
2020-12-29 08:30 15.43 71800 389000 (2016) 27400 (2013) 95200 31800 36100 41900 44800 76500 110000 126000 189000 280000
2020-12-29 08:00 15.41 69700 389000 (2016) 27400 (2013) 95200 31800 36100 41900 44800 76500 110000 126000 189000 280000
2020-12-29 07:30 15.43 389000 (2016) 27400 (2013) 95200 31800 36100 41900 44800 76500 110000 126000 189000 280000
2020-12-29 07:00 15.44 389000 (2016) 27400 (2013) 95200 31800 36100 41900 44800 76500 110000 126000 189000 280000
2020-12-29 06:30 15.40 69300 389000 (2016) 27400 (2013) 95200 31800 36100 41900 44800 76500 110000 126000 189000 280000
2020-12-29 06:00 15.38 67200 389000 (2016) 27400 (2013) 95200 31800 36100 41900 44800 76500 110000 126000 189000 280000
2020-12-29 05:30 15.39 389000 (2016) 27400 (2013) 95200 31800 36100 41900 44800 76500 110000 126000 189000 280000
2020-12-29 05:00 15.39 389000 (2016) 27400 (2013) 95200 31800 36100 41900 44800 76500 110000 126000 189000 280000
2020-12-29 04:30 15.38 66000 389000 (2016) 27400 (2013) 95200 31800 36100 41900 44800 76500 110000 126000 189000 280000
2020-12-29 04:00 15.38 66000 389000 (2016) 27400 (2013) 95200 31800 36100 41900 44800 76500 110000 126000 189000 280000
2020-12-29 03:30 15.36 64000 389000 (2016) 27400 (2013) 95200 31800 36100 41900 44800 76500 110000 126000 189000 280000
2020-12-29 03:00 15.37 65000 389000 (2016) 27400 (2013) 95200 31800 36100 41900 44800 76500 110000 126000 189000 280000
2020-12-29 02:30 15.38 66600 389000 (2016) 27400 (2013) 95200 31800 36100 41900 44800 76500 110000 126000 189000 280000
2020-12-29 02:00 15.38 65400 389000 (2016) 27400 (2013) 95200 31800 36100 41900 44800 76500 110000 126000 189000 280000
2020-12-29 01:30 15.38 64800 389000 (2016) 27400 (2013) 95200 31800 36100 41900 44800 76500 110000 126000 189000 280000
2020-12-29 01:00 15.38 64800 389000 (2016) 27400 (2013) 95200 31800 36100 41900 44800 76500 110000 126000 189000 280000
2020-12-29 00:30 15.39 65800 389000 (2016) 27400 (2013) 95200 31800 36100 41900 44800 76500 110000 126000 189000 280000
2020-12-29 00:00 15.39 65200 389000 (2016) 27400 (2013) 95200 31800 36100 41900 44800 76500 110000 126000 189000 280000
2020-12-28 23:30 15.40 66200 360000 (2016) 30200 (2013) 92800 32900 38600 44600 46900 73500 110000 114000 167000 274000
2020-12-28 23:00 15.41 67200 360000 (2016) 30200 (2013) 92800 32900 38600 44600 46900 73500 110000 114000 167000 274000
2020-12-28 22:30 15.40 65600 360000 (2016) 30200 (2013) 92800 32900 38600 44600 46900 73500 110000 114000 167000 274000
2020-12-28 22:00 15.40 360000 (2016) 30200 (2013) 92800 32900 38600 44600 46900 73500 110000 114000 167000 274000
2020-12-28 21:30 15.41 66000 360000 (2016) 30200 (2013) 92800 32900 38600 44600 46900 73500 110000 114000 167000 274000
2020-12-28 21:00 15.42 360000 (2016) 30200 (2013) 92800 32900 38600 44600 46900 73500 110000 114000 167000 274000
2020-12-28 20:30 15.42 66400 360000 (2016) 30200 (2013) 92800 32900 38600 44600 46900 73500 110000 114000 167000 274000
2020-12-28 20:00 15.43 67400 360000 (2016) 30200 (2013) 92800 32900 38600 44600 46900 73500 110000 114000 167000 274000
2020-12-28 19:30 15.42 360000 (2016) 30200 (2013) 92800 32900 38600 44600 46900 73500 110000 114000 167000 274000
2020-12-28 19:00 15.44 67800 360000 (2016) 30200 (2013) 92800 32900 38600 44600 46900 73500 110000 114000 167000 274000
2020-12-28 18:30 15.45 360000 (2016) 30200 (2013) 92800 32900 38600 44600 46900 73500 110000 114000 167000 274000
2020-12-28 18:00 15.45 67500 360000 (2016) 30200 (2013) 92800 32900 38600 44600 46900 73500 110000 114000 167000 274000
2020-12-28 17:30 15.45 67500 360000 (2016) 30200 (2013) 92800 32900 38600 44600 46900 73500 110000 114000 167000 274000
2020-12-28 17:00 15.46 360000 (2016) 30200 (2013) 92800 32900 38600 44600 46900 73500 110000 114000 167000 274000
2020-12-28 16:30 15.47 68300 360000 (2016) 30200 (2013) 92800 32900 38600 44600 46900 73500 110000 114000 167000 274000
2020-12-28 16:00 15.48 69400 360000 (2016) 30200 (2013) 92800 32900 38600 44600 46900 73500 110000 114000 167000 274000
2020-12-28 15:30 15.47 67700 360000 (2016) 30200 (2013) 92800 32900 38600 44600 46900 73500 110000 114000 167000 274000
2020-12-28 15:00 68100 360000 (2016) 30200 (2013) 92800 32900 38600 44600 46900 73500 110000 114000 167000 274000
2020-12-28 14:30 15.48 68700 360000 (2016) 30200 (2013) 92800 32900 38600 44600 46900 73500 110000 114000 167000 274000
2020-12-28 14:00 15.49 67800 360000 (2016) 30200 (2013) 92800 32900 38600 44600 46900 73500 110000 114000 167000 274000
2020-12-28 13:30 15.49 67200 360000 (2016) 30200 (2013) 92800 32900 38600 44600 46900 73500 110000 114000 167000 274000
2020-12-28 13:00 15.50 67600 360000 (2016) 30200 (2013) 92800 32900 38600 44600 46900 73500 110000 114000 167000 274000
2020-12-28 12:30 15.51 67900 360000 (2016) 30200 (2013) 92800 32900 38600 44600 46900 73500 110000 114000 167000 274000
2020-12-28 12:00 15.52 360000 (2016) 30200 (2013) 92800 32900 38600 44600 46900 73500 110000 114000 167000 274000
2020-12-28 11:30 15.49 360000 (2016) 30200 (2013) 92800 32900 38600 44600 46900 73500 110000 114000 167000 274000
2020-12-28 11:00 15.50 360000 (2016) 30200 (2013) 92800 32900 38600 44600 46900 73500 110000 114000 167000 274000
2020-12-28 10:30 15.51 67900 360000 (2016) 30200 (2013) 92800 32900 38600 44600 46900 73500 110000 114000 167000 274000
2020-12-28 10:00 15.52 360000 (2016) 30200 (2013) 92800 32900 38600 44600 46900 73500 110000 114000 167000 274000
2020-12-28 09:30 15.53 69400 360000 (2016) 30200 (2013) 92800 32900 38600 44600 46900 73500 110000 114000 167000 274000
2020-12-28 09:00 15.54 70400 360000 (2016) 30200 (2013) 92800 32900 38600 44600 46900 73500 110000 114000 167000 274000
2020-12-28 08:30 15.54 70400 360000 (2016) 30200 (2013) 92800 32900 38600 44600 46900 73500 110000 114000 167000 274000
2020-12-28 08:00 15.55 70800 360000 (2016) 30200 (2013) 92800 32900 38600 44600 46900 73500 110000 114000 167000 274000
2020-12-28 07:30 15.53 360000 (2016) 30200 (2013) 92800 32900 38600 44600 46900 73500 110000 114000 167000 274000
2020-12-28 07:00 15.55 71500 360000 (2016) 30200 (2013) 92800 32900 38600 44600 46900 73500 110000 114000 167000 274000
2020-12-28 06:30 15.55 72800 360000 (2016) 30200 (2013) 92800 32900 38600 44600 46900 73500 110000 114000 167000 274000
2020-12-28 06:00 15.57 74300 360000 (2016) 30200 (2013) 92800 32900 38600 44600 46900 73500 110000 114000 167000 274000
2020-12-28 05:30 15.57 73600 360000 (2016) 30200 (2013) 92800 32900 38600 44600 46900 73500 110000 114000 167000 274000
2020-12-28 05:00 15.58 360000 (2016) 30200 (2013) 92800 32900 38600 44600 46900 73500 110000 114000 167000 274000
2020-12-28 04:30 15.59 74500 360000 (2016) 30200 (2013) 92800 32900 38600 44600 46900 73500 110000 114000 167000 274000
2020-12-28 04:00 15.58 72700 360000 (2016) 30200 (2013) 92800 32900 38600 44600 46900 73500 110000 114000 167000 274000
2020-12-28 03:30 15.58 72000 360000 (2016) 30200 (2013) 92800 32900 38600 44600 46900 73500 110000 114000 167000 274000
2020-12-28 03:00 15.59 72400 360000 (2016) 30200 (2013) 92800 32900 38600 44600 46900 73500 110000 114000 167000 274000
2020-12-28 02:30 15.61 74600 360000 (2016) 30200 (2013) 92800 32900 38600 44600 46900 73500 110000 114000 167000 274000
2020-12-28 02:00 15.58 360000 (2016) 30200 (2013) 92800 32900 38600 44600 46900 73500 110000 114000 167000 274000
2020-12-28 01:30 15.64 75100 360000 (2016) 30200 (2013) 92800 32900 38600 44600 46900 73500 110000 114000 167000 274000
2020-12-28 01:00 15.66 74800 360000 (2016) 30200 (2013) 92800 32900 38600 44600 46900 73500 110000 114000 167000 274000
2020-12-28 00:30 15.66 74100 360000 (2016) 30200 (2013) 92800 32900 38600 44600 46900 73500 110000 114000 167000 274000
2020-12-28 00:00 15.68 360000 (2016) 30200 (2013) 92800 32900 38600 44600 46900 73500 110000 114000 167000 274000
2020-12-27 23:30 15.68 329000 (2016) 24400 (2013) 90900 30500 40100 47900 53800 77900 110000 112000 140000 265000
2020-12-27 23:00 15.71 329000 (2016) 24400 (2013) 90900 30500 40100 47900 53800 77900 110000 112000 140000 265000
2020-12-27 22:30 15.73 73000 329000 (2016) 24400 (2013) 90900 30500 40100 47900 53800 77900 110000 112000 140000 265000
2020-12-27 22:00 15.72 69800 329000 (2016) 24400 (2013) 90900 30500 40100 47900 53800 77900 110000 112000 140000 265000
2020-12-27 21:30 15.72 70700 329000 (2016) 24400 (2013) 90900 30500 40100 47900 53800 77900 110000 112000 140000 265000
2020-12-27 21:00 15.71 329000 (2016) 24400 (2013) 90900 30500 40100 47900 53800 77900 110000 112000 140000 265000
2020-12-27 20:30 15.75 329000 (2016) 24400 (2013) 90900 30500 40100 47900 53800 77900 110000 112000 140000 265000
2020-12-27 20:00 15.74 329000 (2016) 24400 (2013) 90900 30500 40100 47900 53800 77900 110000 112000 140000 265000
2020-12-27 19:30 15.75 73100 329000 (2016) 24400 (2013) 90900 30500 40100 47900 53800 77900 110000 112000 140000 265000
2020-12-27 19:00 15.78 76900 329000 (2016) 24400 (2013) 90900 30500 40100 47900 53800 77900 110000 112000 140000 265000
2020-12-27 18:30 15.78 76900 329000 (2016) 24400 (2013) 90900 30500 40100 47900 53800 77900 110000 112000 140000 265000
2020-12-27 18:00 15.79 329000 (2016) 24400 (2013) 90900 30500 40100 47900 53800 77900 110000 112000 140000 265000
2020-12-27 17:30 15.81 78500 329000 (2016) 24400 (2013) 90900 30500 40100 47900 53800 77900 110000 112000 140000 265000
2020-12-27 17:00 15.82 329000 (2016) 24400 (2013) 90900 30500 40100 47900 53800 77900 110000 112000 140000 265000
2020-12-27 16:30 15.83 79300 329000 (2016) 24400 (2013) 90900 30500 40100 47900 53800 77900 110000 112000 140000 265000
2020-12-27 16:00 15.86 329000 (2016) 24400 (2013) 90900 30500 40100 47900 53800 77900 110000 112000 140000 265000
2020-12-27 15:30 15.85 80100 329000 (2016) 24400 (2013) 90900 30500 40100 47900 53800 77900 110000 112000 140000 265000
2020-12-27 15:00 15.85 329000 (2016) 24400 (2013) 90900 30500 40100 47900 53800 77900 110000 112000 140000 265000
2020-12-27 14:30 15.86 81600 329000 (2016) 24400 (2013) 90900 30500 40100 47900 53800 77900 110000 112000 140000 265000
2020-12-27 14:00 15.88 82500 329000 (2016) 24400 (2013) 90900 30500 40100 47900 53800 77900 110000 112000 140000 265000
2020-12-27 13:30 15.87 329000 (2016) 24400 (2013) 90900 30500 40100 47900 53800 77900 110000 112000 140000 265000
2020-12-27 13:00 15.91 84800 329000 (2016) 24400 (2013) 90900 30500 40100 47900 53800 77900 110000 112000 140000 265000
2020-12-27 12:30 15.91 84800 329000 (2016) 24400 (2013) 90900 30500 40100 47900 53800 77900 110000 112000 140000 265000
2020-12-27 12:00 15.88 329000 (2016) 24400 (2013) 90900 30500 40100 47900 53800 77900 110000 112000 140000 265000
2020-12-27 11:30 15.91 329000 (2016) 24400 (2013) 90900 30500 40100 47900 53800 77900 110000 112000 140000 265000
2020-12-27 11:00 15.93 329000 (2016) 24400 (2013) 90900 30500 40100 47900 53800 77900 110000 112000 140000 265000
2020-12-27 10:30 15.94 85000 329000 (2016) 24400 (2013) 90900 30500 40100 47900 53800 77900 110000 112000 140000 265000
2020-12-27 10:00 15.94 329000 (2016) 24400 (2013) 90900 30500 40100 47900 53800 77900 110000 112000 140000 265000
2020-12-27 09:30 15.95 85000 329000 (2016) 24400 (2013) 90900 30500 40100 47900 53800 77900 110000 112000 140000 265000
2020-12-27 09:00 15.95 84300 329000 (2016) 24400 (2013) 90900 30500 40100 47900 53800 77900 110000 112000 140000 265000
2020-12-27 08:30 15.97 85200 329000 (2016) 24400 (2013) 90900 30500 40100 47900 53800 77900 110000 112000 140000 265000
2020-12-27 08:00 15.96 85100 329000 (2016) 24400 (2013) 90900 30500 40100 47900 53800 77900 110000 112000 140000 265000
2020-12-27 07:30 15.99 86000 329000 (2016) 24400 (2013) 90900 30500 40100 47900 53800 77900 110000 112000 140000 265000
2020-12-27 07:00 15.99 329000 (2016) 24400 (2013) 90900 30500 40100 47900 53800 77900 110000 112000 140000 265000
2020-12-27 06:30 16.00 85300 329000 (2016) 24400 (2013) 90900 30500 40100 47900 53800 77900 110000 112000 140000 265000
2020-12-27 06:00 16.00 85300 329000 (2016) 24400 (2013) 90900 30500 40100 47900 53800 77900 110000 112000 140000 265000
2020-12-27 05:30 16.01 85300 329000 (2016) 24400 (2013) 90900 30500 40100 47900 53800 77900 110000 112000 140000 265000
2020-12-27 05:00 16.00 329000 (2016) 24400 (2013) 90900 30500 40100 47900 53800 77900 110000 112000 140000 265000
2020-12-27 04:30 16.01 83900 329000 (2016) 24400 (2013) 90900 30500 40100 47900 53800 77900 110000 112000 140000 265000
2020-12-27 04:00 16.01 329000 (2016) 24400 (2013) 90900 30500 40100 47900 53800 77900 110000 112000 140000 265000
2020-12-27 03:30 16.01 83900 329000 (2016) 24400 (2013) 90900 30500 40100 47900 53800 77900 110000 112000 140000 265000
2020-12-27 03:00 16.02 84600 329000 (2016) 24400 (2013) 90900 30500 40100 47900 53800 77900 110000 112000 140000 265000
2020-12-27 02:30 16.02 84600 329000 (2016) 24400 (2013) 90900 30500 40100 47900 53800 77900 110000 112000 140000 265000
2020-12-27 02:00 16.03 84500 329000 (2016) 24400 (2013) 90900 30500 40100 47900 53800 77900 110000 112000 140000 265000
2020-12-27 01:30 16.03 83800 329000 (2016) 24400 (2013) 90900 30500 40100 47900 53800 77900 110000 112000 140000 265000
2020-12-27 01:00 16.04 83800 329000 (2016) 24400 (2013) 90900 30500 40100 47900 53800 77900 110000 112000 140000 265000
2020-12-27 00:30 16.04 329000 (2016) 24400 (2013) 90900 30500 40100 47900 53800 77900 110000 112000 140000 265000
2020-12-27 00:00 16.02 83100 329000 (2016) 24400 (2013) 90900 30500 40100 47900 53800 77900 110000 112000 140000 265000
2020-12-26 23:30 16.03 83800 300000 (2016) 31600 (2013) 89700 31800 37700 49600 51700 79800 106000 113000 145000 252000
2020-12-26 23:00 16.02 300000 (2016) 31600 (2013) 89700 31800 37700 49600 51700 79800 106000 113000 145000 252000
2020-12-26 22:30 16.01 300000 (2016) 31600 (2013) 89700 31800 37700 49600 51700 79800 106000 113000 145000 252000
2020-12-26 22:00 16.00 85300 300000 (2016) 31600 (2013) 89700 31800 37700 49600 51700 79800 106000 113000 145000 252000
2020-12-26 21:30 16.02 87500 300000 (2016) 31600 (2013) 89700 31800 37700 49600 51700 79800 106000 113000 145000 252000
2020-12-26 21:00 16.04 300000 (2016) 31600 (2013) 89700 31800 37700 49600 51700 79800 106000 113000 145000 252000
2020-12-26 20:30 16.03 300000 (2016) 31600 (2013) 89700 31800 37700 49600 51700 79800 106000 113000 145000 252000
2020-12-26 20:00 16.01 85300 300000 (2016) 31600 (2013) 89700 31800 37700 49600 51700 79800 106000 113000 145000 252000
2020-12-26 19:30 16.02 86000 300000 (2016) 31600 (2013) 89700 31800 37700 49600 51700 79800 106000 113000 145000 252000
2020-12-26 19:00 16.02 85300 300000 (2016) 31600 (2013) 89700 31800 37700 49600 51700 79800 106000 113000 145000 252000
2020-12-26 18:30 16.02 85300 300000 (2016) 31600 (2013) 89700 31800 37700 49600 51700 79800 106000 113000 145000 252000
2020-12-26 18:00 16.02 85300 300000 (2016) 31600 (2013) 89700 31800 37700 49600 51700 79800 106000 113000 145000 252000
2020-12-26 17:30 16.01 85300 300000 (2016) 31600 (2013) 89700 31800 37700 49600 51700 79800 106000 113000 145000 252000
2020-12-26 17:00 16.00 84600 300000 (2016) 31600 (2013) 89700 31800 37700 49600 51700 79800 106000 113000 145000 252000
2020-12-26 16:30 16.00 85300 300000 (2016) 31600 (2013) 89700 31800 37700 49600 51700 79800 106000 113000 145000 252000
2020-12-26 16:00 15.98 84500 300000 (2016) 31600 (2013) 89700 31800 37700 49600 51700 79800 106000 113000 145000 252000
2020-12-26 15:30 16.00 86100 300000 (2016) 31600 (2013) 89700 31800 37700 49600 51700 79800 106000 113000 145000 252000
2020-12-26 15:00 16.00 300000 (2016) 31600 (2013) 89700 31800 37700 49600 51700 79800 106000 113000 145000 252000
2020-12-26 14:30 15.98 300000 (2016) 31600 (2013) 89700 31800 37700 49600 51700 79800 106000 113000 145000 252000
2020-12-26 14:00 15.99 85300 300000 (2016) 31600 (2013) 89700 31800 37700 49600 51700 79800 106000 113000 145000 252000
2020-12-26 13:30 15.97 300000 (2016) 31600 (2013) 89700 31800 37700 49600 51700 79800 106000 113000 145000 252000
2020-12-26 13:00 15.98 86700 300000 (2016) 31600 (2013) 89700 31800 37700 49600 51700 79800 106000 113000 145000 252000
2020-12-26 12:30 15.99 86700 300000 (2016) 31600 (2013) 89700 31800 37700 49600 51700 79800 106000 113000 145000 252000
2020-12-26 12:00 15.98 85200 300000 (2016) 31600 (2013) 89700 31800 37700 49600 51700 79800 106000 113000 145000 252000
2020-12-26 11:30 15.97 85200 300000 (2016) 31600 (2013) 89700 31800 37700 49600 51700 79800 106000 113000 145000 252000
2020-12-26 11:00 15.97 85900 300000 (2016) 31600 (2013) 89700 31800 37700 49600 51700 79800 106000 113000 145000 252000
2020-12-26 10:30 15.98 300000 (2016) 31600 (2013) 89700 31800 37700 49600 51700 79800 106000 113000 145000 252000
2020-12-26 10:00 15.92 300000 (2016) 31600 (2013) 89700 31800 37700 49600 51700 79800 106000 113000 145000 252000
2020-12-26 09:30 15.95 84300 300000 (2016) 31600 (2013) 89700 31800 37700 49600 51700 79800 106000 113000 145000 252000
2020-12-26 09:00 15.95 300000 (2016) 31600 (2013) 89700 31800 37700 49600 51700 79800 106000 113000 145000 252000
2020-12-26 08:30 15.94 84300 300000 (2016) 31600 (2013) 89700 31800 37700 49600 51700 79800 106000 113000 145000 252000
2020-12-26 08:00 15.93 84200 300000 (2016) 31600 (2013) 89700 31800 37700 49600 51700 79800 106000 113000 145000 252000
2020-12-26 07:30 15.91 82600 300000 (2016) 31600 (2013) 89700 31800 37700 49600 51700 79800 106000 113000 145000 252000
2020-12-26 07:00 15.91 83400 300000 (2016) 31600 (2013) 89700 31800 37700 49600 51700 79800 106000 113000 145000 252000
2020-12-26 06:30 15.90 84000 300000 (2016) 31600 (2013) 89700 31800 37700 49600 51700 79800 106000 113000 145000 252000
2020-12-26 06:00 15.91 84800 300000 (2016) 31600 (2013) 89700 31800 37700 49600 51700 79800 106000 113000 145000 252000
2020-12-26 05:30 15.90 300000 (2016) 31600 (2013) 89700 31800 37700 49600 51700 79800 106000 113000 145000 252000
2020-12-26 05:00 15.91 84800 300000 (2016) 31600 (2013) 89700 31800 37700 49600 51700 79800 106000 113000 145000 252000
2020-12-26 04:30 15.89 300000 (2016) 31600 (2013) 89700 31800 37700 49600 51700 79800 106000 113000 145000 252000
2020-12-26 04:00 15.91 87700 300000 (2016) 31600 (2013) 89700 31800 37700 49600 51700 79800 106000 113000 145000 252000
2020-12-26 03:30 15.92 300000 (2016) 31600 (2013) 89700 31800 37700 49600 51700 79800 106000 113000 145000 252000
2020-12-26 03:00 15.91 85500 300000 (2016) 31600 (2013) 89700 31800 37700 49600 51700 79800 106000 113000 145000 252000
2020-12-26 02:30 15.92 87000 300000 (2016) 31600 (2013) 89700 31800 37700 49600 51700 79800 106000 113000 145000 252000
2020-12-26 02:00 15.93 300000 (2016) 31600 (2013) 89700 31800 37700 49600 51700 79800 106000 113000 145000 252000
2020-12-26 01:30 15.93 85600 300000 (2016) 31600 (2013) 89700 31800 37700 49600 51700 79800 106000 113000 145000 252000
2020-12-26 01:00 15.94 86400 300000 (2016) 31600 (2013) 89700 31800 37700 49600 51700 79800 106000 113000 145000 252000
2020-12-26 00:30 15.93 85600 300000 (2016) 31600 (2013) 89700 31800 37700 49600 51700 79800 106000 113000 145000 252000
2020-12-26 00:00 15.94 300000 (2016) 31600 (2013) 89700 31800 37700 49600 51700 79800 106000 113000 145000 252000
2020-12-25 23:30 15.94 85700 292000 (2016) 32600 (1990) 90400 34500 39600 46000 55500 80400 105000 111000 160000 242000
2020-12-25 23:00 15.94 85000 292000 (2016) 32600 (1990) 90400 34500 39600 46000 55500 80400 105000 111000 160000 242000
2020-12-25 22:30 15.93 84200 292000 (2016) 32600 (1990) 90400 34500 39600 46000 55500 80400 105000 111000 160000 242000
2020-12-25 22:00 15.95 85000 292000 (2016) 32600 (1990) 90400 34500 39600 46000 55500 80400 105000 111000 160000 242000
2020-12-25 21:30 15.92 292000 (2016) 32600 (1990) 90400 34500 39600 46000 55500 80400 105000 111000 160000 242000
2020-12-25 21:00 15.96 85800 292000 (2016) 32600 (1990) 90400 34500 39600 46000 55500 80400 105000 111000 160000 242000
2020-12-25 20:30 15.96 85100 292000 (2016) 32600 (1990) 90400 34500 39600 46000 55500 80400 105000 111000 160000 242000
2020-12-25 20:00 15.96 85100 292000 (2016) 32600 (1990) 90400 34500 39600 46000 55500 80400 105000 111000 160000 242000
2020-12-25 19:30 15.95 84300 292000 (2016) 32600 (1990) 90400 34500 39600 46000 55500 80400 105000 111000 160000 242000
2020-12-25 19:00 15.95 84300 292000 (2016) 32600 (1990) 90400 34500 39600 46000 55500 80400 105000 111000 160000 242000
2020-12-25 18:30 15.96 292000 (2016) 32600 (1990) 90400 34500 39600 46000 55500 80400 105000 111000 160000 242000
2020-12-25 18:00 15.99 292000 (2016) 32600 (1990) 90400 34500 39600 46000 55500 80400 105000 111000 160000 242000
2020-12-25 17:30 15.98 84500 292000 (2016) 32600 (1990) 90400 34500 39600 46000 55500 80400 105000 111000 160000 242000
2020-12-25 17:00 15.98 83000 292000 (2016) 32600 (1990) 90400 34500 39600 46000 55500 80400 105000 111000 160000 242000
2020-12-25 16:30 15.97 82300 292000 (2016) 32600 (1990) 90400 34500 39600 46000 55500 80400 105000 111000 160000 242000
2020-12-25 16:00 15.97 81500 292000 (2016) 32600 (1990) 90400 34500 39600 46000 55500 80400 105000 111000 160000 242000
2020-12-25 15:30 15.98 80900 292000 (2016) 32600 (1990) 90400 34500 39600 46000 55500 80400 105000 111000 160000 242000
2020-12-25 15:00 15.98 80900 292000 (2016) 32600 (1990) 90400 34500 39600 46000 55500 80400 105000 111000 160000 242000
2020-12-25 14:30 15.97 80800 292000 (2016) 32600 (1990) 90400 34500 39600 46000 55500 80400 105000 111000 160000 242000
2020-12-25 14:00 15.98 81600 292000 (2016) 32600 (1990) 90400 34500 39600 46000 55500 80400 105000 111000 160000 242000
2020-12-25 13:30 15.97 81500 292000 (2016) 32600 (1990) 90400 34500 39600 46000 55500 80400 105000 111000 160000 242000
2020-12-25 13:00 15.98 82300 292000 (2016) 32600 (1990) 90400 34500 39600 46000 55500 80400 105000 111000 160000 242000
2020-12-25 12:30 15.98 83000 292000 (2016) 32600 (1990) 90400 34500 39600 46000 55500 80400 105000 111000 160000 242000
2020-12-25 12:00 15.97 82300 292000 (2016) 32600 (1990) 90400 34500 39600 46000 55500 80400 105000 111000 160000 242000
2020-12-25 11:30 15.97 82300 292000 (2016) 32600 (1990) 90400 34500 39600 46000 55500 80400 105000 111000 160000 242000
2020-12-25 11:00 15.96 81500 292000 (2016) 32600 (1990) 90400 34500 39600 46000 55500 80400 105000 111000 160000 242000
2020-12-25 10:30 15.96 82200 292000 (2016) 32600 (1990) 90400 34500 39600 46000 55500 80400 105000 111000 160000 242000
2020-12-25 10:00 15.95 82100 292000 (2016) 32600 (1990) 90400 34500 39600 46000 55500 80400 105000 111000 160000 242000
2020-12-25 09:30 15.97 292000 (2016) 32600 (1990) 90400 34500 39600 46000 55500 80400 105000 111000 160000 242000
2020-12-25 09:00 15.97 83000 292000 (2016) 32600 (1990) 90400 34500 39600 46000 55500 80400 105000 111000 160000 242000
2020-12-25 08:30 15.96 81500 292000 (2016) 32600 (1990) 90400 34500 39600 46000 55500 80400 105000 111000 160000 242000
2020-12-25 08:00 15.99 292000 (2016) 32600 (1990) 90400 34500 39600 46000 55500 80400 105000 111000 160000 242000
2020-12-25 07:30 15.97 292000 (2016) 32600 (1990) 90400 34500 39600 46000 55500 80400 105000 111000 160000 242000
2020-12-25 07:00 15.97 292000 (2016) 32600 (1990) 90400 34500 39600 46000 55500 80400 105000 111000 160000 242000
2020-12-25 06:30 15.97 77900 292000 (2016) 32600 (1990) 90400 34500 39600 46000 55500 80400 105000 111000 160000 242000
2020-12-25 06:00 15.92 292000 (2016) 32600 (1990) 90400 34500 39600 46000 55500 80400 105000 111000 160000 242000
2020-12-25 05:30 15.92 292000 (2016) 32600 (1990) 90400 34500 39600 46000 55500 80400 105000 111000 160000 242000
2020-12-25 05:00 15.94 76300 292000 (2016) 32600 (1990) 90400 34500 39600 46000 55500 80400 105000 111000 160000 242000
2020-12-25 04:30 15.97 80800 292000 (2016) 32600 (1990) 90400 34500 39600 46000 55500 80400 105000 111000 160000 242000
2020-12-25 04:00 15.96 80000 292000 (2016) 32600 (1990) 90400 34500 39600 46000 55500 80400 105000 111000 160000 242000
2020-12-25 03:30 15.96 79300 292000 (2016) 32600 (1990) 90400 34500 39600 46000 55500 80400 105000 111000 160000 242000
2020-12-25 03:00 15.96 292000 (2016) 32600 (1990) 90400 34500 39600 46000 55500 80400 105000 111000 160000 242000
2020-12-25 02:30 15.97 80100 292000 (2016) 32600 (1990) 90400 34500 39600 46000 55500 80400 105000 111000 160000 242000
2020-12-25 02:00 15.96 292000 (2016) 32600 (1990) 90400 34500 39600 46000 55500 80400 105000 111000 160000 242000
2020-12-25 01:30 15.96 292000 (2016) 32600 (1990) 90400 34500 39600 46000 55500 80400 105000 111000 160000 242000
2020-12-25 01:00 15.97 292000 (2016) 32600 (1990) 90400 34500 39600 46000 55500 80400 105000 111000 160000 242000
2020-12-25 00:30 15.97 80100 292000 (2016) 32600 (1990) 90400 34500 39600 46000 55500 80400 105000 111000 160000 242000
2020-12-25 00:00 15.99 81600 292000 (2016) 32600 (1990) 90400 34500 39600 46000 55500 80400 105000 111000 160000 242000
2020-12-24 23:30 15.98 288000 (2016) 33600 (1990) 90700 35500 40700 51000 58800 80800 111000 117000 160000 217000
2020-12-24 23:00 15.98 288000 (2016) 33600 (1990) 90700 35500 40700 51000 58800 80800 111000 117000 160000 217000
2020-12-24 22:30 15.98 80900 288000 (2016) 33600 (1990) 90700 35500 40700 51000 58800 80800 111000 117000 160000 217000
2020-12-24 22:00 16.00 288000 (2016) 33600 (1990) 90700 35500 40700 51000 58800 80800 111000 117000 160000 217000
2020-12-24 21:30 15.99 81600 288000 (2016) 33600 (1990) 90700 35500 40700 51000 58800 80800 111000 117000 160000 217000
2020-12-24 21:00 16.00 288000 (2016) 33600 (1990) 90700 35500 40700 51000 58800 80800 111000 117000 160000 217000
2020-12-24 20:30 15.98 80900 288000 (2016) 33600 (1990) 90700 35500 40700 51000 58800 80800 111000 117000 160000 217000
2020-12-24 20:00 15.97 78600 288000 (2016) 33600 (1990) 90700 35500 40700 51000 58800 80800 111000 117000 160000 217000
2020-12-24 19:30 15.99 79500 288000 (2016) 33600 (1990) 90700 35500 40700 51000 58800 80800 111000 117000 160000 217000
2020-12-24 19:00 15.99 78700 288000 (2016) 33600 (1990) 90700 35500 40700 51000 58800 80800 111000 117000 160000 217000
2020-12-24 18:30 16.01 288000 (2016) 33600 (1990) 90700 35500 40700 51000 58800 80800 111000 117000 160000 217000
2020-12-24 18:00 16.01 288000 (2016) 33600 (1990) 90700 35500 40700 51000 58800 80800 111000 117000 160000 217000
2020-12-24 17:30 16.02 78000 288000 (2016) 33600 (1990) 90700 35500 40700 51000 58800 80800 111000 117000 160000 217000
2020-12-24 17:00 16.00 76600 288000 (2016) 33600 (1990) 90700 35500 40700 51000 58800 80800 111000 117000 160000 217000
2020-12-24 16:30 16.00 75900 288000 (2016) 33600 (1990) 90700 35500 40700 51000 58800 80800 111000 117000 160000 217000
2020-12-24 16:00 16.00 288000 (2016) 33600 (1990) 90700 35500 40700 51000 58800 80800 111000 117000 160000 217000
2020-12-24 15:30 15.99 288000 (2016) 33600 (1990) 90700 35500 40700 51000 58800 80800 111000 117000 160000 217000
2020-12-24 15:00 16.03 78000 288000 (2016) 33600 (1990) 90700 35500 40700 51000 58800 80800 111000 117000 160000 217000
2020-12-24 14:30 16.01 78000 288000 (2016) 33600 (1990) 90700 35500 40700 51000 58800 80800 111000 117000 160000 217000
2020-12-24 14:00 16.00 78800 288000 (2016) 33600 (1990) 90700 35500 40700 51000 58800 80800 111000 117000 160000 217000
2020-12-24 13:30 15.99 288000 (2016) 33600 (1990) 90700 35500 40700 51000 58800 80800 111000 117000 160000 217000
2020-12-24 13:00 16.04 77300 288000 (2016) 33600 (1990) 90700 35500 40700 51000 58800 80800 111000 117000 160000 217000
2020-12-24 12:30 16.04 288000 (2016) 33600 (1990) 90700 35500 40700 51000 58800 80800 111000 117000 160000 217000
2020-12-24 12:00 16.03 76500 288000 (2016) 33600 (1990) 90700 35500 40700 51000 58800 80800 111000 117000 160000 217000
2020-12-24 11:30 16.02 75800 288000 (2016) 33600 (1990) 90700 35500 40700 51000 58800 80800 111000 117000 160000 217000
2020-12-24 11:00 16.03 288000 (2016) 33600 (1990) 90700 35500 40700 51000 58800 80800 111000 117000 160000 217000
2020-12-24 10:30 16.02 288000 (2016) 33600 (1990) 90700 35500 40700 51000 58800 80800 111000 117000 160000 217000
2020-12-24 10:00 16.05 288000 (2016) 33600 (1990) 90700 35500 40700 51000 58800 80800 111000 117000 160000 217000
2020-12-24 09:30 15.99 72000 288000 (2016) 33600 (1990) 90700 35500 40700 51000 58800 80800 111000 117000 160000 217000
2020-12-24 09:00 16.01 288000 (2016) 33600 (1990) 90700 35500 40700 51000 58800 80800 111000 117000 160000 217000
2020-12-24 08:30 15.98 288000 (2016) 33600 (1990) 90700 35500 40700 51000 58800 80800 111000 117000 160000 217000
2020-12-24 08:00 15.97 288000 (2016) 33600 (1990) 90700 35500 40700 51000 58800 80800 111000 117000 160000 217000
2020-12-24 07:30 16.00 288000 (2016) 33600 (1990) 90700 35500 40700 51000 58800 80800 111000 117000 160000 217000
2020-12-24 07:00 15.99 72900 288000 (2016) 33600 (1990) 90700 35500 40700 51000 58800 80800 111000 117000 160000 217000
2020-12-24 06:30 16.03 75800 288000 (2016) 33600 (1990) 90700 35500 40700 51000 58800 80800 111000 117000 160000 217000
2020-12-24 06:00 16.04 288000 (2016) 33600 (1990) 90700 35500 40700 51000 58800 80800 111000 117000 160000 217000
2020-12-24 05:30 15.97 288000 (2016) 33600 (1990) 90700 35500 40700 51000 58800 80800 111000 117000 160000 217000
2020-12-24 05:00 16.01 74400 288000 (2016) 33600 (1990) 90700 35500 40700 51000 58800 80800 111000 117000 160000 217000
2020-12-24 04:30 16.02 74400 288000 (2016) 33600 (1990) 90700 35500 40700 51000 58800 80800 111000 117000 160000 217000
2020-12-24 04:00 16.04 288000 (2016) 33600 (1990) 90700 35500 40700 51000 58800 80800 111000 117000 160000 217000
2020-12-24 03:30 16.03 73700 288000 (2016) 33600 (1990) 90700 35500 40700 51000 58800 80800 111000 117000 160000 217000
2020-12-24 03:00 16.04 288000 (2016) 33600 (1990) 90700 35500 40700 51000 58800 80800 111000 117000 160000 217000
2020-12-24 02:30 16.05 74300 288000 (2016) 33600 (1990) 90700 35500 40700 51000 58800 80800 111000 117000 160000 217000
2020-12-24 02:00 16.05 288000 (2016) 33600 (1990) 90700 35500 40700 51000 58800 80800 111000 117000 160000 217000
2020-12-24 01:30 16.06 288000 (2016) 33600 (1990) 90700 35500 40700 51000 58800 80800 111000 117000 160000 217000
2020-12-24 01:00 16.12 288000 (2016) 33600 (1990) 90700 35500 40700 51000 58800 80800 111000 117000 160000 217000
2020-12-24 00:30 16.11 288000 (2016) 33600 (1990) 90700 35500 40700 51000 58800 80800 111000 117000 160000 217000
2020-12-24 00:00 16.03 53800 288000 (2016) 33600 (1990) 90700 35500 40700 51000 58800 80800 111000 117000 160000 217000

A total of 1490 rows are displayed for years 1987 through 2020.